<?xml version='1.0' encoding='UTF-8'?><gpx version="1.1" creator="JPX - https://github.com/jenetics/jpx" xmlns="http://www.topografix.com/GPX/1/1"><trk><trkseg><trkpt lat="45.7497068" lon="8.7574192"><ele>332.0</ele><time>2026-04-06T08:14:51.898Z</time></trkpt><trkpt lat="45.7496642" lon="8.7574974"><ele>332.0</ele><time>2026-04-06T08:14:52.898Z</time></trkpt><trkpt lat="45.7496285" lon="8.7575945"><ele>332.0</ele><time>2026-04-06T08:14:53.898Z</time></trkpt><trkpt lat="45.7495788" lon="8.7576861"><ele>332.0</ele><time>2026-04-06T08:14:54.898Z</time></trkpt><trkpt lat="45.7495209" lon="8.7577537"><ele>332.0</ele><time>2026-04-06T08:14:55.899Z</time></trkpt><trkpt lat="45.7494772" lon="8.7578302"><ele>332.0</ele><time>2026-04-06T08:14:56.898Z</time></trkpt><trkpt lat="45.7493967" lon="8.7579435"><ele>331.1666666666667</ele><time>2026-04-06T08:14:58.898Z</time></trkpt><trkpt lat="45.7493642" lon="8.7580288"><ele>330.33333333333337</ele><time>2026-04-06T08:14:59.899Z</time></trkpt><trkpt lat="45.7493119" lon="8.7580886"><ele>329.5</ele><time>2026-04-06T08:15:00.898Z</time></trkpt><trkpt lat="45.7492362" lon="8.7581766"><ele>328.6666666666667</ele><time>2026-04-06T08:15:02.899Z</time></trkpt><trkpt lat="45.7491424" lon="8.7580931"><ele>327.8333333333333</ele><time>2026-04-06T08:15:04.899Z</time></trkpt><trkpt lat="45.7490717" lon="8.7580444"><ele>327.0</ele><time>2026-04-06T08:15:05.898Z</time></trkpt><trkpt lat="45.7489924" lon="8.7579382"><ele>327.0</ele><time>2026-04-06T08:15:06.898Z</time></trkpt><trkpt lat="45.7489028" lon="8.7578376"><ele>327.0</ele><time>2026-04-06T08:15:07.898Z</time></trkpt><trkpt lat="45.7488034" lon="8.7577136"><ele>327.0</ele><time>2026-04-06T08:15:08.898Z</time></trkpt><trkpt lat="45.7487132" lon="8.7576041"><ele>327.0</ele><time>2026-04-06T08:15:09.899Z</time></trkpt><trkpt lat="45.748643" lon="8.7575201"><ele>327.5</ele><time>2026-04-06T08:15:10.898Z</time></trkpt><trkpt lat="45.7485639" lon="8.7574404"><ele>328.0</ele><time>2026-04-06T08:15:11.899Z</time></trkpt><trkpt lat="45.7484754" lon="8.757369"><ele>328.5</ele><time>2026-04-06T08:15:12.899Z</time></trkpt><trkpt lat="45.7484237" lon="8.7573141"><ele>329.0</ele><time>2026-04-06T08:15:13.898Z</time></trkpt><trkpt lat="45.7483516" lon="8.7572566"><ele>329.5</ele><time>2026-04-06T08:15:14.899Z</time></trkpt><trkpt lat="45.7482714" lon="8.7572135"><ele>330.0</ele><time>2026-04-06T08:15:15.898Z</time></trkpt><trkpt lat="45.7482049" lon="8.757161"><ele>328.4</ele><time>2026-04-06T08:15:16.898Z</time></trkpt><trkpt lat="45.7481376" lon="8.7571082"><ele>326.8</ele><time>2026-04-06T08:15:17.897Z</time></trkpt><trkpt lat="45.7480448" lon="8.7570461"><ele>325.20000000000005</ele><time>2026-04-06T08:15:19.898Z</time></trkpt><trkpt lat="45.7479918" lon="8.7569811"><ele>323.6</ele><time>2026-04-06T08:16:16.899Z</time></trkpt><trkpt lat="45.747898" lon="8.7569276"><ele>322.0</ele><time>2026-04-06T08:16:18.899Z</time></trkpt><trkpt lat="45.7477754" lon="8.7569299"><ele>320.5</ele><time>2026-04-06T08:16:20.899Z</time></trkpt><trkpt lat="45.7477037" lon="8.7570048"><ele>319.0</ele><time>2026-04-06T08:16:21.899Z</time></trkpt><trkpt lat="45.74763" lon="8.757066"><ele>317.5</ele><time>2026-04-06T08:16:22.899Z</time></trkpt><trkpt lat="45.7475431" lon="8.7571046"><ele>316.0</ele><time>2026-04-06T08:16:23.899Z</time></trkpt><trkpt lat="45.7474618" lon="8.7571118"><ele>314.5</ele><time>2026-04-06T08:16:24.899Z</time></trkpt><trkpt lat="45.7474" lon="8.7571304"><ele>313.0</ele><time>2026-04-06T08:16:25.899Z</time></trkpt><trkpt lat="45.7473406" lon="8.7572207"><ele>313.0</ele><time>2026-04-06T08:16:27.898Z</time></trkpt><trkpt lat="45.7473612" lon="8.7573987"><ele>313.0</ele><time>2026-04-06T08:16:29.899Z</time></trkpt><trkpt lat="45.7473829" lon="8.757509"><ele>313.0</ele><time>2026-04-06T08:16:30.898Z</time></trkpt><trkpt lat="45.7473947" lon="8.7576273"><ele>313.0</ele><time>2026-04-06T08:16:31.9Z</time></trkpt><trkpt lat="45.7473945" lon="8.7577268"><ele>313.0</ele><time>2026-04-06T08:16:32.899Z</time></trkpt><trkpt lat="45.7473851" lon="8.7578391"><ele>313.0</ele><time>2026-04-06T08:16:33.9Z</time></trkpt><trkpt lat="45.7473799" lon="8.7579637"><ele>312.3333333333333</ele><time>2026-04-06T08:16:34.899Z</time></trkpt><trkpt lat="45.7473847" lon="8.7580866"><ele>311.66666666666663</ele><time>2026-04-06T08:16:35.899Z</time></trkpt><trkpt lat="45.7474215" lon="8.758216"><ele>311.0</ele><time>2026-04-06T08:16:36.899Z</time></trkpt><trkpt lat="45.7474486" lon="8.7583492"><ele>310.3333333333333</ele><time>2026-04-06T08:16:37.9Z</time></trkpt><trkpt lat="45.7474636" lon="8.7584594"><ele>309.6666666666667</ele><time>2026-04-06T08:16:38.899Z</time></trkpt><trkpt lat="45.7474391" lon="8.7585667"><ele>309.0</ele><time>2026-04-06T08:16:39.9Z</time></trkpt><trkpt lat="45.7474075" lon="8.7586613"><ele>307.4</ele><time>2026-04-06T08:16:40.898Z</time></trkpt><trkpt lat="45.7473811" lon="8.7587486"><ele>305.79999999999995</ele><time>2026-04-06T08:16:41.9Z</time></trkpt><trkpt lat="45.7473181" lon="8.7588921"><ele>304.20000000000005</ele><time>2026-04-06T08:16:43.899Z</time></trkpt><trkpt lat="45.7472334" lon="8.7589867"><ele>302.6</ele><time>2026-04-06T08:16:45.897Z</time></trkpt><trkpt lat="45.7471287" lon="8.7589367"><ele>301.0</ele><time>2026-04-06T08:16:47.898Z</time></trkpt><trkpt lat="45.7470471" lon="8.7588543"><ele>301.0</ele><time>2026-04-06T08:16:48.898Z</time></trkpt><trkpt lat="45.7469535" lon="8.7587701"><ele>301.0</ele><time>2026-04-06T08:16:49.899Z</time></trkpt><trkpt lat="45.7468499" lon="8.7587023"><ele>301.0</ele><time>2026-04-06T08:16:50.899Z</time></trkpt><trkpt lat="45.7467715" lon="8.7586112"><ele>301.0</ele><time>2026-04-06T08:16:51.899Z</time></trkpt><trkpt lat="45.7466966" lon="8.7585132"><ele>301.0</ele><time>2026-04-06T08:16:52.899Z</time></trkpt><trkpt lat="45.7466404" lon="8.7584264"><ele>302.16666666666663</ele><time>2026-04-06T08:16:53.899Z</time></trkpt><trkpt lat="45.7465826" lon="8.7583202"><ele>303.3333333333333</ele><time>2026-04-06T08:16:54.9Z</time></trkpt><trkpt lat="45.7465508" lon="8.7582076"><ele>304.5</ele><time>2026-04-06T08:16:55.899Z</time></trkpt><trkpt lat="45.7465062" lon="8.7581258"><ele>305.6666666666667</ele><time>2026-04-06T08:16:56.899Z</time></trkpt><trkpt lat="45.7464414" lon="8.7580555"><ele>306.83333333333337</ele><time>2026-04-06T08:16:57.9Z</time></trkpt><trkpt lat="45.7463681" lon="8.7579783"><ele>308.0</ele><time>2026-04-06T08:16:58.899Z</time></trkpt><trkpt lat="45.7462788" lon="8.7578997"><ele>308.0</ele><time>2026-04-06T08:16:59.899Z</time></trkpt><trkpt lat="45.7461541" lon="8.7578511"><ele>308.0</ele><time>2026-04-06T08:17:00.899Z</time></trkpt><trkpt lat="45.7460437" lon="8.7577896"><ele>308.0</ele><time>2026-04-06T08:17:01.9Z</time></trkpt><trkpt lat="45.7459464" lon="8.757713"><ele>308.0</ele><time>2026-04-06T08:17:02.899Z</time></trkpt><trkpt lat="45.7458562" lon="8.7576492"><ele>310.0</ele><time>2026-04-06T08:17:03.898Z</time></trkpt><trkpt lat="45.7457779" lon="8.757594"><ele>312.0</ele><time>2026-04-06T08:17:04.9Z</time></trkpt><trkpt lat="45.7457031" lon="8.7575436"><ele>314.0</ele><time>2026-04-06T08:17:05.898Z</time></trkpt><trkpt lat="45.7456332" lon="8.7575018"><ele>316.0</ele><time>2026-04-06T08:17:06.898Z</time></trkpt><trkpt lat="45.7455659" lon="8.757467"><ele>318.0</ele><time>2026-04-06T08:17:07.9Z</time></trkpt><trkpt lat="45.7454951" lon="8.7574283"><ele>320.0</ele><time>2026-04-06T08:17:08.9Z</time></trkpt><trkpt lat="45.7453942" lon="8.7573721"><ele>320.0</ele><time>2026-04-06T08:17:09.899Z</time></trkpt><trkpt lat="45.7452789" lon="8.7573332"><ele>320.0</ele><time>2026-04-06T08:17:10.9Z</time></trkpt><trkpt lat="45.7451623" lon="8.7572856"><ele>320.0</ele><time>2026-04-06T08:17:11.899Z</time></trkpt><trkpt lat="45.7450593" lon="8.7572368"><ele>320.0</ele><time>2026-04-06T08:17:12.898Z</time></trkpt><trkpt lat="45.7449558" lon="8.7571913"><ele>319.75</ele><time>2026-04-06T08:17:13.9Z</time></trkpt><trkpt lat="45.7448548" lon="8.7571359"><ele>319.5</ele><time>2026-04-06T08:17:14.9Z</time></trkpt><trkpt lat="45.7447421" lon="8.7570805"><ele>319.25</ele><time>2026-04-06T08:17:15.899Z</time></trkpt><trkpt lat="45.7446224" lon="8.7570286"><ele>319.0</ele><time>2026-04-06T08:17:16.899Z</time></trkpt><trkpt lat="45.7445186" lon="8.7569681"><ele>319.0</ele><time>2026-04-06T08:17:17.899Z</time></trkpt><trkpt lat="45.7443991" lon="8.7569288"><ele>319.0</ele><time>2026-04-06T08:17:18.899Z</time></trkpt><trkpt lat="45.7442945" lon="8.7568736"><ele>319.0</ele><time>2026-04-06T08:17:19.899Z</time></trkpt><trkpt lat="45.7441911" lon="8.7568084"><ele>319.0</ele><time>2026-04-06T08:17:20.899Z</time></trkpt><trkpt lat="45.7440852" lon="8.7567273"><ele>321.2</ele><time>2026-04-06T08:17:21.9Z</time></trkpt><trkpt lat="45.7439914" lon="8.7566596"><ele>323.4</ele><time>2026-04-06T08:17:22.898Z</time></trkpt><trkpt lat="45.7438976" lon="8.7566192"><ele>325.6</ele><time>2026-04-06T08:17:23.899Z</time></trkpt><trkpt lat="45.7438155" lon="8.7565741"><ele>327.8</ele><time>2026-04-06T08:17:24.899Z</time></trkpt><trkpt lat="45.7437633" lon="8.7565068"><ele>330.0</ele><time>2026-04-06T08:17:25.898Z</time></trkpt><trkpt lat="45.7436996" lon="8.7563809"><ele>330.0</ele><time>2026-04-06T08:17:26.9Z</time></trkpt><trkpt lat="45.7436371" lon="8.7562752"><ele>330.0</ele><time>2026-04-06T08:17:27.897Z</time></trkpt><trkpt lat="45.7435834" lon="8.7561638"><ele>330.0</ele><time>2026-04-06T08:17:28.898Z</time></trkpt><trkpt lat="45.7435547" lon="8.7560484"><ele>330.0</ele><time>2026-04-06T08:17:29.899Z</time></trkpt><trkpt lat="45.7435319" lon="8.7559494"><ele>330.0</ele><time>2026-04-06T08:17:30.899Z</time></trkpt><trkpt lat="45.7434896" lon="8.7558547"><ele>330.0</ele><time>2026-04-06T08:17:31.9Z</time></trkpt><trkpt lat="45.7434354" lon="8.7557265"><ele>330.1666666666667</ele><time>2026-04-06T08:17:32.9Z</time></trkpt><trkpt lat="45.7433848" lon="8.7556386"><ele>330.3333333333333</ele><time>2026-04-06T08:17:33.9Z</time></trkpt><trkpt lat="45.743322" lon="8.755556"><ele>330.5</ele><time>2026-04-06T08:17:34.898Z</time></trkpt><trkpt lat="45.7432515" lon="8.7554916"><ele>330.66666666666663</ele><time>2026-04-06T08:17:35.9Z</time></trkpt><trkpt lat="45.7431858" lon="8.7554462"><ele>330.8333333333333</ele><time>2026-04-06T08:17:36.899Z</time></trkpt><trkpt lat="45.7431082" lon="8.7554169"><ele>331.0</ele><time>2026-04-06T08:17:37.899Z</time></trkpt><trkpt lat="45.7430227" lon="8.7554286"><ele>331.0</ele><time>2026-04-06T08:17:38.899Z</time></trkpt><trkpt lat="45.7429441" lon="8.7554078"><ele>331.0</ele><time>2026-04-06T08:17:39.899Z</time></trkpt><trkpt lat="45.7428572" lon="8.7553791"><ele>331.0</ele><time>2026-04-06T08:17:40.898Z</time></trkpt><trkpt lat="45.7427814" lon="8.755377"><ele>331.0</ele><time>2026-04-06T08:17:42.899Z</time></trkpt><trkpt lat="45.7427165" lon="8.7554123"><ele>331.0</ele><time>2026-04-06T08:17:56.899Z</time></trkpt><trkpt lat="45.7426522" lon="8.7554082"><ele>331.0</ele><time>2026-04-06T08:17:58.899Z</time></trkpt><trkpt lat="45.7425863" lon="8.7554088"><ele>331.0</ele><time>2026-04-06T08:17:59.899Z</time></trkpt><trkpt lat="45.7424666" lon="8.7553767"><ele>329.5</ele><time>2026-04-06T08:18:01.898Z</time></trkpt><trkpt lat="45.7423974" lon="8.7553327"><ele>328.0</ele><time>2026-04-06T08:18:02.9Z</time></trkpt><trkpt lat="45.7423286" lon="8.7552947"><ele>326.5</ele><time>2026-04-06T08:18:03.9Z</time></trkpt><trkpt lat="45.7422196" lon="8.7552588"><ele>325.0</ele><time>2026-04-06T08:18:04.9Z</time></trkpt><trkpt lat="45.7421199" lon="8.755254"><ele>323.5</ele><time>2026-04-06T08:18:05.899Z</time></trkpt><trkpt lat="45.7420408" lon="8.7552462"><ele>322.0</ele><time>2026-04-06T08:18:06.899Z</time></trkpt><trkpt lat="45.741939" lon="8.755243"><ele>321.16666666666663</ele><time>2026-04-06T08:18:08.898Z</time></trkpt><trkpt lat="45.7418392" lon="8.7552935"><ele>320.3333333333333</ele><time>2026-04-06T08:18:10.898Z</time></trkpt><trkpt lat="45.7417617" lon="8.7553385"><ele>319.5</ele><time>2026-04-06T08:18:12.9Z</time></trkpt><trkpt lat="45.7416956" lon="8.7553679"><ele>318.6666666666667</ele><time>2026-04-06T08:18:14.899Z</time></trkpt><trkpt lat="45.7416356" lon="8.7553315"><ele>317.83333333333337</ele><time>2026-04-06T08:18:16.898Z</time></trkpt><trkpt lat="45.7415615" lon="8.7552251"><ele>317.0</ele><time>2026-04-06T08:18:18.9Z</time></trkpt><trkpt lat="45.7414587" lon="8.7551278"><ele>317.0</ele><time>2026-04-06T08:18:20.9Z</time></trkpt><trkpt lat="45.7414016" lon="8.7550654"><ele>317.0</ele><time>2026-04-06T08:18:21.899Z</time></trkpt><trkpt lat="45.7412945" lon="8.7549698"><ele>317.0</ele><time>2026-04-06T08:18:23.899Z</time></trkpt><trkpt lat="45.7412022" lon="8.7548998"><ele>317.0</ele><time>2026-04-06T08:18:25.9Z</time></trkpt><trkpt lat="45.7411444" lon="8.7549433"><ele>317.0</ele><time>2026-04-06T08:18:27.899Z</time></trkpt><trkpt lat="45.7411155" lon="8.7550848"><ele>316.6</ele><time>2026-04-06T08:18:29.897Z</time></trkpt><trkpt lat="45.7410869" lon="8.7552523"><ele>316.2</ele><time>2026-04-06T08:18:30.899Z</time></trkpt><trkpt lat="45.7410579" lon="8.7553914"><ele>315.8</ele><time>2026-04-06T08:18:31.898Z</time></trkpt><trkpt lat="45.7410353" lon="8.755537"><ele>315.4</ele><time>2026-04-06T08:18:32.899Z</time></trkpt><trkpt lat="45.7410091" lon="8.7556524"><ele>315.0</ele><time>2026-04-06T08:18:33.898Z</time></trkpt><trkpt lat="45.740993" lon="8.755774"><ele>312.6666666666667</ele><time>2026-04-06T08:18:34.899Z</time></trkpt><trkpt lat="45.7409656" lon="8.755859"><ele>310.3333333333333</ele><time>2026-04-06T08:18:35.898Z</time></trkpt><trkpt lat="45.7409286" lon="8.7559549"><ele>308.0</ele><time>2026-04-06T08:18:36.9Z</time></trkpt><trkpt lat="45.7408772" lon="8.7560523"><ele>305.66666666666663</ele><time>2026-04-06T08:18:37.898Z</time></trkpt><trkpt lat="45.7408295" lon="8.7561604"><ele>303.3333333333333</ele><time>2026-04-06T08:18:38.899Z</time></trkpt><trkpt lat="45.7407726" lon="8.756275"><ele>301.0</ele><time>2026-04-06T08:18:39.9Z</time></trkpt><trkpt lat="45.7407146" lon="8.7563856"><ele>300.0</ele><time>2026-04-06T08:18:40.898Z</time></trkpt><trkpt lat="45.7406607" lon="8.7564726"><ele>299.0</ele><time>2026-04-06T08:18:41.899Z</time></trkpt><trkpt lat="45.7406141" lon="8.7565353"><ele>298.0</ele><time>2026-04-06T08:18:42.9Z</time></trkpt><trkpt lat="45.7405307" lon="8.7565844"><ele>297.0</ele><time>2026-04-06T08:18:44.899Z</time></trkpt><trkpt lat="45.7404702" lon="8.7565558"><ele>296.0</ele><time>2026-04-06T08:18:45.899Z</time></trkpt><trkpt lat="45.7404" lon="8.7565008"><ele>295.0</ele><time>2026-04-06T08:18:46.899Z</time></trkpt><trkpt lat="45.7403195" lon="8.756419"><ele>295.0</ele><time>2026-04-06T08:18:47.899Z</time></trkpt><trkpt lat="45.7402238" lon="8.7563165"><ele>295.0</ele><time>2026-04-06T08:18:48.898Z</time></trkpt><trkpt lat="45.7401166" lon="8.7562032"><ele>295.0</ele><time>2026-04-06T08:18:49.899Z</time></trkpt><trkpt lat="45.7400067" lon="8.7560952"><ele>295.0</ele><time>2026-04-06T08:18:50.9Z</time></trkpt><trkpt lat="45.7398963" lon="8.7559946"><ele>294.5</ele><time>2026-04-06T08:18:51.898Z</time></trkpt><trkpt lat="45.7397932" lon="8.7558863"><ele>294.0</ele><time>2026-04-06T08:18:52.898Z</time></trkpt><trkpt lat="45.7396987" lon="8.7557766"><ele>293.5</ele><time>2026-04-06T08:18:53.9Z</time></trkpt><trkpt lat="45.7396004" lon="8.7556715"><ele>293.0</ele><time>2026-04-06T08:18:54.9Z</time></trkpt><trkpt lat="45.7394999" lon="8.7555689"><ele>293.0</ele><time>2026-04-06T08:18:55.899Z</time></trkpt><trkpt lat="45.7394055" lon="8.7554802"><ele>293.0</ele><time>2026-04-06T08:18:56.899Z</time></trkpt><trkpt lat="45.7393106" lon="8.7553772"><ele>293.0</ele><time>2026-04-06T08:18:57.899Z</time></trkpt><trkpt lat="45.7392218" lon="8.7552757"><ele>293.0</ele><time>2026-04-06T08:18:58.899Z</time></trkpt><trkpt lat="45.7391361" lon="8.7551743"><ele>293.8</ele><time>2026-04-06T08:18:59.899Z</time></trkpt><trkpt lat="45.739051" lon="8.7550736"><ele>294.6</ele><time>2026-04-06T08:19:00.9Z</time></trkpt><trkpt lat="45.7389678" lon="8.7549677"><ele>295.4</ele><time>2026-04-06T08:19:01.9Z</time></trkpt><trkpt lat="45.7388984" lon="8.7548512"><ele>296.2</ele><time>2026-04-06T08:19:02.899Z</time></trkpt><trkpt lat="45.7388454" lon="8.7547651"><ele>297.0</ele><time>2026-04-06T08:19:03.899Z</time></trkpt><trkpt lat="45.7388067" lon="8.7546707"><ele>297.0</ele><time>2026-04-06T08:19:04.9Z</time></trkpt><trkpt lat="45.7387374" lon="8.7545071"><ele>297.0</ele><time>2026-04-06T08:19:06.898Z</time></trkpt><trkpt lat="45.7386907" lon="8.7544143"><ele>297.0</ele><time>2026-04-06T08:19:07.899Z</time></trkpt><trkpt lat="45.7386551" lon="8.7543245"><ele>297.0</ele><time>2026-04-06T08:19:08.899Z</time></trkpt><trkpt lat="45.7386179" lon="8.7542397"><ele>297.0</ele><time>2026-04-06T08:19:09.9Z</time></trkpt><trkpt lat="45.7385864" lon="8.7541376"><ele>297.0</ele><time>2026-04-06T08:19:10.899Z</time></trkpt><trkpt lat="45.7385536" lon="8.7540402"><ele>296.0</ele><time>2026-04-06T08:19:11.899Z</time></trkpt><trkpt lat="45.7385244" lon="8.7539498"><ele>295.0</ele><time>2026-04-06T08:19:12.9Z</time></trkpt><trkpt lat="45.73849" lon="8.7537829"><ele>294.0</ele><time>2026-04-06T08:19:14.899Z</time></trkpt><trkpt lat="45.7384198" lon="8.7536607"><ele>293.0</ele><time>2026-04-06T08:19:16.899Z</time></trkpt><trkpt lat="45.7383563" lon="8.7536339"><ele>292.0</ele><time>2026-04-06T08:19:17.9Z</time></trkpt><trkpt lat="45.7382783" lon="8.7535986"><ele>291.0</ele><time>2026-04-06T08:19:18.9Z</time></trkpt><trkpt lat="45.738181" lon="8.7535742"><ele>291.0</ele><time>2026-04-06T08:19:19.9Z</time></trkpt><trkpt lat="45.7380749" lon="8.7535523"><ele>291.0</ele><time>2026-04-06T08:19:20.9Z</time></trkpt><trkpt lat="45.7379662" lon="8.7535223"><ele>291.0</ele><time>2026-04-06T08:19:21.899Z</time></trkpt><trkpt lat="45.7378568" lon="8.7534925"><ele>291.0</ele><time>2026-04-06T08:19:22.899Z</time></trkpt><trkpt lat="45.7377456" lon="8.7534649"><ele>291.0</ele><time>2026-04-06T08:19:23.899Z</time></trkpt><trkpt lat="45.7376382" lon="8.7534482"><ele>291.0</ele><time>2026-04-06T08:19:24.9Z</time></trkpt><trkpt lat="45.7375434" lon="8.7534467"><ele>291.0</ele><time>2026-04-06T08:19:25.899Z</time></trkpt><trkpt lat="45.7374587" lon="8.7534593"><ele>291.0</ele><time>2026-04-06T08:19:26.899Z</time></trkpt><trkpt lat="45.7373818" lon="8.7534817"><ele>291.0</ele><time>2026-04-06T08:19:27.899Z</time></trkpt><trkpt lat="45.7373102" lon="8.7535023"><ele>291.0</ele><time>2026-04-06T08:19:28.899Z</time></trkpt><trkpt lat="45.7372041" lon="8.7535604"><ele>291.0</ele><time>2026-04-06T08:19:30.897Z</time></trkpt><trkpt lat="45.7372255" lon="8.7537516"><ele>291.0</ele><time>2026-04-06T08:19:32.899Z</time></trkpt><trkpt lat="45.7372537" lon="8.7539038"><ele>291.0</ele><time>2026-04-06T08:19:33.899Z</time></trkpt><trkpt lat="45.7372665" lon="8.754054"><ele>291.0</ele><time>2026-04-06T08:19:34.899Z</time></trkpt><trkpt lat="45.7372738" lon="8.7542103"><ele>291.0</ele><time>2026-04-06T08:19:35.899Z</time></trkpt><trkpt lat="45.7372289" lon="8.7543786"><ele>290.75</ele><time>2026-04-06T08:19:36.9Z</time></trkpt><trkpt lat="45.7371849" lon="8.7545762"><ele>290.5</ele><time>2026-04-06T08:19:37.899Z</time></trkpt><trkpt lat="45.7371464" lon="8.7547774"><ele>290.25</ele><time>2026-04-06T08:19:38.899Z</time></trkpt><trkpt lat="45.7371144" lon="8.7549756"><ele>290.0</ele><time>2026-04-06T08:19:39.9Z</time></trkpt><trkpt lat="45.737081" lon="8.7551635"><ele>289.75</ele><time>2026-04-06T08:19:40.9Z</time></trkpt><trkpt lat="45.7370486" lon="8.7553382"><ele>289.5</ele><time>2026-04-06T08:19:41.898Z</time></trkpt><trkpt lat="45.7370237" lon="8.7555079"><ele>289.25</ele><time>2026-04-06T08:19:42.898Z</time></trkpt><trkpt lat="45.7369841" lon="8.7556758"><ele>289.0</ele><time>2026-04-06T08:19:43.898Z</time></trkpt><trkpt lat="45.7369368" lon="8.7558464"><ele>289.5</ele><time>2026-04-06T08:19:44.9Z</time></trkpt><trkpt lat="45.7368803" lon="8.7560015"><ele>290.0</ele><time>2026-04-06T08:19:45.9Z</time></trkpt><trkpt lat="45.736824" lon="8.7561517"><ele>290.5</ele><time>2026-04-06T08:19:46.9Z</time></trkpt><trkpt lat="45.736769" lon="8.7562929"><ele>291.0</ele><time>2026-04-06T08:19:47.9Z</time></trkpt><trkpt lat="45.7367185" lon="8.7564216"><ele>291.0</ele><time>2026-04-06T08:19:48.898Z</time></trkpt><trkpt lat="45.7366761" lon="8.7564992"><ele>291.0</ele><time>2026-04-06T08:19:49.899Z</time></trkpt><trkpt lat="45.7366228" lon="8.7565626"><ele>291.0</ele><time>2026-04-06T08:19:50.899Z</time></trkpt><trkpt lat="45.736555" lon="8.7565917"><ele>291.0</ele><time>2026-04-06T08:19:51.898Z</time></trkpt><trkpt lat="45.7364662" lon="8.7566328"><ele>291.0</ele><time>2026-04-06T08:19:52.9Z</time></trkpt><trkpt lat="45.7363617" lon="8.7566624"><ele>291.0</ele><time>2026-04-06T08:19:53.899Z</time></trkpt><trkpt lat="45.7362186" lon="8.7567085"><ele>291.0</ele><time>2026-04-06T08:19:54.899Z</time></trkpt><trkpt lat="45.7360769" lon="8.7567623"><ele>291.0</ele><time>2026-04-06T08:19:55.898Z</time></trkpt><trkpt lat="45.735937" lon="8.7568241"><ele>291.0</ele><time>2026-04-06T08:19:56.899Z</time></trkpt><trkpt lat="45.7358064" lon="8.7568819"><ele>291.0</ele><time>2026-04-06T08:19:57.899Z</time></trkpt><trkpt lat="45.7356795" lon="8.7569341"><ele>290.2</ele><time>2026-04-06T08:19:58.898Z</time></trkpt><trkpt lat="45.7355644" lon="8.7569851"><ele>289.40000000000003</ele><time>2026-04-06T08:19:59.898Z</time></trkpt><trkpt lat="45.7354504" lon="8.7570317"><ele>288.6</ele><time>2026-04-06T08:20:00.899Z</time></trkpt><trkpt lat="45.7353515" lon="8.7570602"><ele>287.8</ele><time>2026-04-06T08:20:01.9Z</time></trkpt><trkpt lat="45.7352555" lon="8.7570799"><ele>287.0</ele><time>2026-04-06T08:20:02.899Z</time></trkpt><trkpt lat="45.7351642" lon="8.7570853"><ele>287.0</ele><time>2026-04-06T08:20:03.9Z</time></trkpt><trkpt lat="45.73509" lon="8.7570582"><ele>287.0</ele><time>2026-04-06T08:20:04.9Z</time></trkpt><trkpt lat="45.7350152" lon="8.7570239"><ele>287.0</ele><time>2026-04-06T08:20:05.898Z</time></trkpt><trkpt lat="45.7349464" lon="8.7569848"><ele>287.0</ele><time>2026-04-06T08:20:06.898Z</time></trkpt><trkpt lat="45.7348887" lon="8.7569435"><ele>287.0</ele><time>2026-04-06T08:20:07.9Z</time></trkpt><trkpt lat="45.734824" lon="8.7568901"><ele>287.0</ele><time>2026-04-06T08:20:08.899Z</time></trkpt><trkpt lat="45.7347492" lon="8.7568362"><ele>288.75</ele><time>2026-04-06T08:20:09.9Z</time></trkpt><trkpt lat="45.734652" lon="8.7567806"><ele>290.5</ele><time>2026-04-06T08:20:10.898Z</time></trkpt><trkpt lat="45.7345174" lon="8.756741"><ele>292.25</ele><time>2026-04-06T08:20:11.9Z</time></trkpt><trkpt lat="45.7343494" lon="8.7567016"><ele>294.0</ele><time>2026-04-06T08:20:12.899Z</time></trkpt><trkpt lat="45.7341581" lon="8.7566582"><ele>294.0</ele><time>2026-04-06T08:20:13.899Z</time></trkpt><trkpt lat="45.7339608" lon="8.7566072"><ele>294.0</ele><time>2026-04-06T08:20:14.9Z</time></trkpt><trkpt lat="45.7337781" lon="8.7565554"><ele>294.0</ele><time>2026-04-06T08:20:15.9Z</time></trkpt><trkpt lat="45.7336127" lon="8.7565267"><ele>293.5</ele><time>2026-04-06T08:20:16.899Z</time></trkpt><trkpt lat="45.7334583" lon="8.756513"><ele>293.0</ele><time>2026-04-06T08:20:17.899Z</time></trkpt><trkpt lat="45.7333082" lon="8.7565154"><ele>292.5</ele><time>2026-04-06T08:20:18.899Z</time></trkpt><trkpt lat="45.7331767" lon="8.7565249"><ele>292.0</ele><time>2026-04-06T08:20:19.899Z</time></trkpt><trkpt lat="45.7330738" lon="8.7565501"><ele>292.0</ele><time>2026-04-06T08:20:20.898Z</time></trkpt><trkpt lat="45.732974" lon="8.7565609"><ele>292.0</ele><time>2026-04-06T08:20:21.899Z</time></trkpt><trkpt lat="45.7328707" lon="8.7565414"><ele>292.0</ele><time>2026-04-06T08:20:22.898Z</time></trkpt><trkpt lat="45.7327532" lon="8.7565114"><ele>292.0</ele><time>2026-04-06T08:20:23.9Z</time></trkpt><trkpt lat="45.7326269" lon="8.7564334"><ele>291.0</ele><time>2026-04-06T08:20:24.899Z</time></trkpt><trkpt lat="45.7324996" lon="8.7563729"><ele>290.0</ele><time>2026-04-06T08:20:25.899Z</time></trkpt><trkpt lat="45.7323744" lon="8.756315"><ele>289.0</ele><time>2026-04-06T08:20:26.9Z</time></trkpt><trkpt lat="45.7322554" lon="8.7562732"><ele>288.0</ele><time>2026-04-06T08:20:27.898Z</time></trkpt><trkpt lat="45.7321352" lon="8.7562458"><ele>288.0</ele><time>2026-04-06T08:20:28.899Z</time></trkpt><trkpt lat="45.7320233" lon="8.7562359"><ele>288.0</ele><time>2026-04-06T08:20:29.899Z</time></trkpt><trkpt lat="45.7319124" lon="8.7562279"><ele>288.0</ele><time>2026-04-06T08:20:30.898Z</time></trkpt><trkpt lat="45.7318147" lon="8.7562001"><ele>288.0</ele><time>2026-04-06T08:20:31.899Z</time></trkpt><trkpt lat="45.731719" lon="8.7561888"><ele>288.0</ele><time>2026-04-06T08:20:32.899Z</time></trkpt><trkpt lat="45.7316351" lon="8.7561802"><ele>288.1666666666667</ele><time>2026-04-06T08:20:33.899Z</time></trkpt><trkpt lat="45.7315579" lon="8.7561888"><ele>288.3333333333333</ele><time>2026-04-06T08:20:34.9Z</time></trkpt><trkpt lat="45.73147" lon="8.75621"><ele>288.5</ele><time>2026-04-06T08:20:35.898Z</time></trkpt><trkpt lat="45.7313618" lon="8.7562204"><ele>288.66666666666663</ele><time>2026-04-06T08:20:37.899Z</time></trkpt><trkpt lat="45.7312974" lon="8.7562518"><ele>288.8333333333333</ele><time>2026-04-06T08:20:39.9Z</time></trkpt><trkpt lat="45.7312677" lon="8.7563414"><ele>289.0</ele><time>2026-04-06T08:20:41.898Z</time></trkpt><trkpt lat="45.731329" lon="8.7562554"><ele>289.0</ele><time>2026-04-06T08:20:46.899Z</time></trkpt><trkpt lat="45.7313577" lon="8.7561358"><ele>289.0</ele><time>2026-04-06T08:20:47.899Z</time></trkpt><trkpt lat="45.7313943" lon="8.7560058"><ele>289.0</ele><time>2026-04-06T08:20:48.899Z</time></trkpt><trkpt lat="45.7314342" lon="8.7558727"><ele>289.0</ele><time>2026-04-06T08:20:49.9Z</time></trkpt><trkpt lat="45.7314802" lon="8.7557642"><ele>289.0</ele><time>2026-04-06T08:20:50.9Z</time></trkpt><trkpt lat="45.7315233" lon="8.7556706"><ele>290.3333333333333</ele><time>2026-04-06T08:20:51.9Z</time></trkpt><trkpt lat="45.7315581" lon="8.7555736"><ele>291.66666666666663</ele><time>2026-04-06T08:20:52.898Z</time></trkpt><trkpt lat="45.7315852" lon="8.755469"><ele>293.0</ele><time>2026-04-06T08:20:53.898Z</time></trkpt><trkpt lat="45.7316094" lon="8.7553668"><ele>294.3333333333333</ele><time>2026-04-06T08:20:54.9Z</time></trkpt><trkpt lat="45.7316366" lon="8.7552732"><ele>295.6666666666667</ele><time>2026-04-06T08:20:55.9Z</time></trkpt><trkpt lat="45.7316436" lon="8.7551397"><ele>297.0</ele><time>2026-04-06T08:20:57.9Z</time></trkpt><trkpt lat="45.7316617" lon="8.7550269"><ele>298.8333333333333</ele><time>2026-04-06T08:20:59.898Z</time></trkpt><trkpt lat="45.7316321" lon="8.7549247"><ele>300.6666666666667</ele><time>2026-04-06T08:21:01.899Z</time></trkpt><trkpt lat="45.7315563" lon="8.7548973"><ele>302.5</ele><time>2026-04-06T08:21:03.899Z</time></trkpt><trkpt lat="45.7314878" lon="8.7549401"><ele>304.33333333333337</ele><time>2026-04-06T08:21:04.899Z</time></trkpt><trkpt lat="45.7314049" lon="8.7549846"><ele>306.1666666666667</ele><time>2026-04-06T08:21:05.898Z</time></trkpt><trkpt lat="45.7313026" lon="8.7550245"><ele>308.0</ele><time>2026-04-06T08:21:06.899Z</time></trkpt><trkpt lat="45.7312012" lon="8.7550408"><ele>308.0</ele><time>2026-04-06T08:21:07.899Z</time></trkpt><trkpt lat="45.731103" lon="8.7550531"><ele>308.0</ele><time>2026-04-06T08:21:08.9Z</time></trkpt><trkpt lat="45.7310079" lon="8.7550666"><ele>308.0</ele><time>2026-04-06T08:21:09.899Z</time></trkpt><trkpt lat="45.7309184" lon="8.7550659"><ele>308.0</ele><time>2026-04-06T08:21:10.899Z</time></trkpt><trkpt lat="45.7308321" lon="8.7550534"><ele>308.0</ele><time>2026-04-06T08:21:11.9Z</time></trkpt><trkpt lat="45.7307587" lon="8.7550179"><ele>308.0</ele><time>2026-04-06T08:21:12.9Z</time></trkpt><trkpt lat="45.7306994" lon="8.7549849"><ele>307.83333333333337</ele><time>2026-04-06T08:21:13.899Z</time></trkpt><trkpt lat="45.7307775" lon="8.7550454"><ele>307.6666666666667</ele><time>2026-04-06T08:21:19.899Z</time></trkpt><trkpt lat="45.7307404" lon="8.7551349"><ele>307.5</ele><time>2026-04-06T08:21:22.898Z</time></trkpt><trkpt lat="45.730677" lon="8.7551723"><ele>307.3333333333333</ele><time>2026-04-06T08:21:23.9Z</time></trkpt><trkpt lat="45.7305881" lon="8.7551802"><ele>307.16666666666663</ele><time>2026-04-06T08:21:24.9Z</time></trkpt><trkpt lat="45.7304831" lon="8.7551937"><ele>307.0</ele><time>2026-04-06T08:21:25.899Z</time></trkpt><trkpt lat="45.7303848" lon="8.7552056"><ele>305.4</ele><time>2026-04-06T08:21:26.898Z</time></trkpt><trkpt lat="45.7302927" lon="8.7552229"><ele>303.79999999999995</ele><time>2026-04-06T08:21:27.9Z</time></trkpt><trkpt lat="45.7302003" lon="8.7552326"><ele>302.2</ele><time>2026-04-06T08:21:28.9Z</time></trkpt><trkpt lat="45.7301031" lon="8.7552577"><ele>300.59999999999997</ele><time>2026-04-06T08:21:29.899Z</time></trkpt><trkpt lat="45.7299941" lon="8.7552828"><ele>299.0</ele><time>2026-04-06T08:21:30.898Z</time></trkpt><trkpt lat="45.7298886" lon="8.755325"><ele>299.0</ele><time>2026-04-06T08:21:31.899Z</time></trkpt><trkpt lat="45.7297868" lon="8.7553727"><ele>299.0</ele><time>2026-04-06T08:21:32.898Z</time></trkpt><trkpt lat="45.7296977" lon="8.7554221"><ele>299.0</ele><time>2026-04-06T08:21:33.9Z</time></trkpt><trkpt lat="45.7296073" lon="8.7554593"><ele>299.0</ele><time>2026-04-06T08:21:34.9Z</time></trkpt><trkpt lat="45.7295156" lon="8.7555008"><ele>299.0</ele><time>2026-04-06T08:21:35.899Z</time></trkpt><trkpt lat="45.7294276" lon="8.7555309"><ele>300.4</ele><time>2026-04-06T08:21:36.899Z</time></trkpt><trkpt lat="45.7293441" lon="8.7555794"><ele>301.79999999999995</ele><time>2026-04-06T08:21:37.899Z</time></trkpt><trkpt lat="45.7292618" lon="8.7556194"><ele>303.20000000000005</ele><time>2026-04-06T08:21:38.899Z</time></trkpt><trkpt lat="45.7291765" lon="8.7556432"><ele>304.6</ele><time>2026-04-06T08:21:39.899Z</time></trkpt><trkpt lat="45.729073" lon="8.7556644"><ele>306.0</ele><time>2026-04-06T08:21:40.898Z</time></trkpt><trkpt lat="45.7289646" lon="8.7557077"><ele>306.0</ele><time>2026-04-06T08:21:41.898Z</time></trkpt><trkpt lat="45.7288465" lon="8.755745"><ele>306.0</ele><time>2026-04-06T08:21:42.899Z</time></trkpt><trkpt lat="45.7287254" lon="8.7557728"><ele>306.0</ele><time>2026-04-06T08:21:43.898Z</time></trkpt><trkpt lat="45.7286166" lon="8.7558032"><ele>306.0</ele><time>2026-04-06T08:21:44.899Z</time></trkpt><trkpt lat="45.7285093" lon="8.7558349"><ele>305.8</ele><time>2026-04-06T08:21:45.898Z</time></trkpt><trkpt lat="45.7283941" lon="8.7558621"><ele>305.6</ele><time>2026-04-06T08:21:46.899Z</time></trkpt><trkpt lat="45.7283033" lon="8.7558817"><ele>305.4</ele><time>2026-04-06T08:21:47.9Z</time></trkpt><trkpt lat="45.7282085" lon="8.7558912"><ele>305.2</ele><time>2026-04-06T08:21:48.9Z</time></trkpt><trkpt lat="45.7281295" lon="8.755907"><ele>305.0</ele><time>2026-04-06T08:21:49.9Z</time></trkpt><trkpt lat="45.7280515" lon="8.755924"><ele>305.0</ele><time>2026-04-06T08:21:50.899Z</time></trkpt><trkpt lat="45.727973" lon="8.7559318"><ele>305.0</ele><time>2026-04-06T08:21:51.899Z</time></trkpt><trkpt lat="45.7278939" lon="8.7559974"><ele>305.0</ele><time>2026-04-06T08:21:52.899Z</time></trkpt><trkpt lat="45.7277954" lon="8.7560442"><ele>305.0</ele><time>2026-04-06T08:21:53.9Z</time></trkpt><trkpt lat="45.7276884" lon="8.7561042"><ele>305.0</ele><time>2026-04-06T08:21:54.898Z</time></trkpt><trkpt lat="45.7275901" lon="8.7561338"><ele>303.5</ele><time>2026-04-06T08:21:55.899Z</time></trkpt><trkpt lat="45.7274861" lon="8.7561528"><ele>302.0</ele><time>2026-04-06T08:21:56.899Z</time></trkpt><trkpt lat="45.727337" lon="8.7561609"><ele>300.5</ele><time>2026-04-06T08:21:57.899Z</time></trkpt><trkpt lat="45.7271758" lon="8.7561684"><ele>299.0</ele><time>2026-04-06T08:21:58.898Z</time></trkpt><trkpt lat="45.7270213" lon="8.7561755"><ele>298.59999999999997</ele><time>2026-04-06T08:21:59.899Z</time></trkpt><trkpt lat="45.726882" lon="8.7561843"><ele>298.2</ele><time>2026-04-06T08:22:00.899Z</time></trkpt><trkpt lat="45.7267539" lon="8.7561903"><ele>297.79999999999995</ele><time>2026-04-06T08:22:01.898Z</time></trkpt><trkpt lat="45.7266752" lon="8.7561511"><ele>297.4</ele><time>2026-04-06T08:22:02.898Z</time></trkpt><trkpt lat="45.7265935" lon="8.756124"><ele>297.0</ele><time>2026-04-06T08:22:03.9Z</time></trkpt><trkpt lat="45.7265022" lon="8.7561253"><ele>297.0</ele><time>2026-04-06T08:22:06.9Z</time></trkpt><trkpt lat="45.7263671" lon="8.756179"><ele>297.0</ele><time>2026-04-06T08:22:08.899Z</time></trkpt><trkpt lat="45.726256" lon="8.7562101"><ele>297.0</ele><time>2026-04-06T08:22:09.9Z</time></trkpt><trkpt lat="45.7261389" lon="8.7562537"><ele>297.0</ele><time>2026-04-06T08:22:10.9Z</time></trkpt><trkpt lat="45.7260012" lon="8.7562758"><ele>296.4</ele><time>2026-04-06T08:22:11.899Z</time></trkpt><trkpt lat="45.7258712" lon="8.7562918"><ele>295.79999999999995</ele><time>2026-04-06T08:22:12.899Z</time></trkpt><trkpt lat="45.7257658" lon="8.7563037"><ele>295.2</ele><time>2026-04-06T08:22:13.899Z</time></trkpt><trkpt lat="45.7256778" lon="8.756328"><ele>294.59999999999997</ele><time>2026-04-06T08:22:14.898Z</time></trkpt><trkpt lat="45.725589" lon="8.7563586"><ele>294.0</ele><time>2026-04-06T08:22:15.899Z</time></trkpt><trkpt lat="45.725467" lon="8.7563887"><ele>294.0</ele><time>2026-04-06T08:22:16.899Z</time></trkpt><trkpt lat="45.7253264" lon="8.7564168"><ele>294.0</ele><time>2026-04-06T08:22:17.9Z</time></trkpt><trkpt lat="45.7251726" lon="8.7564748"><ele>294.0</ele><time>2026-04-06T08:22:18.899Z</time></trkpt><trkpt lat="45.7250355" lon="8.7565092"><ele>294.0</ele><time>2026-04-06T08:22:19.898Z</time></trkpt><trkpt lat="45.7248876" lon="8.7565339"><ele>294.75</ele><time>2026-04-06T08:22:20.899Z</time></trkpt><trkpt lat="45.7247447" lon="8.75656"><ele>295.5</ele><time>2026-04-06T08:22:21.898Z</time></trkpt><trkpt lat="45.7246006" lon="8.7565406"><ele>296.25</ele><time>2026-04-06T08:22:22.9Z</time></trkpt><trkpt lat="45.72445" lon="8.7565234"><ele>297.0</ele><time>2026-04-06T08:22:23.899Z</time></trkpt><trkpt lat="45.7242924" lon="8.7565106"><ele>297.0</ele><time>2026-04-06T08:22:24.899Z</time></trkpt><trkpt lat="45.7241306" lon="8.7564961"><ele>297.0</ele><time>2026-04-06T08:22:25.9Z</time></trkpt><trkpt lat="45.723982" lon="8.756485"><ele>297.0</ele><time>2026-04-06T08:22:26.899Z</time></trkpt><trkpt lat="45.7238113" lon="8.7564863"><ele>297.0</ele><time>2026-04-06T08:22:27.898Z</time></trkpt><trkpt lat="45.7236474" lon="8.7564861"><ele>297.0</ele><time>2026-04-06T08:22:28.898Z</time></trkpt><trkpt lat="45.7234697" lon="8.7564798"><ele>297.0</ele><time>2026-04-06T08:22:29.899Z</time></trkpt><trkpt lat="45.7232867" lon="8.7564832"><ele>296.6666666666667</ele><time>2026-04-06T08:22:30.9Z</time></trkpt><trkpt lat="45.7231084" lon="8.7564716"><ele>296.33333333333337</ele><time>2026-04-06T08:22:31.898Z</time></trkpt><trkpt lat="45.7229227" lon="8.7564663"><ele>296.0</ele><time>2026-04-06T08:22:32.899Z</time></trkpt><trkpt lat="45.7227671" lon="8.7564435"><ele>295.8</ele><time>2026-04-06T08:22:33.899Z</time></trkpt><trkpt lat="45.7226386" lon="8.7564122"><ele>295.6</ele><time>2026-04-06T08:22:34.899Z</time></trkpt><trkpt lat="45.7225266" lon="8.7563739"><ele>295.4</ele><time>2026-04-06T08:22:35.899Z</time></trkpt><trkpt lat="45.7224271" lon="8.7563402"><ele>295.2</ele><time>2026-04-06T08:22:36.898Z</time></trkpt><trkpt lat="45.7223358" lon="8.7563239"><ele>295.0</ele><time>2026-04-06T08:22:37.899Z</time></trkpt><trkpt lat="45.7222412" lon="8.7563022"><ele>295.0</ele><time>2026-04-06T08:22:38.899Z</time></trkpt><trkpt lat="45.7221451" lon="8.7562126"><ele>295.0</ele><time>2026-04-06T08:22:39.9Z</time></trkpt><trkpt lat="45.7220402" lon="8.7561266"><ele>295.0</ele><time>2026-04-06T08:22:40.899Z</time></trkpt><trkpt lat="45.7219074" lon="8.7560618"><ele>295.0</ele><time>2026-04-06T08:22:41.899Z</time></trkpt><trkpt lat="45.7217619" lon="8.7559925"><ele>297.0</ele><time>2026-04-06T08:22:42.9Z</time></trkpt><trkpt lat="45.7215829" lon="8.755961"><ele>299.0</ele><time>2026-04-06T08:22:43.898Z</time></trkpt><trkpt lat="45.7214326" lon="8.7559267"><ele>301.0</ele><time>2026-04-06T08:22:44.899Z</time></trkpt><trkpt lat="45.721289" lon="8.7558904"><ele>301.0</ele><time>2026-04-06T08:22:45.899Z</time></trkpt><trkpt lat="45.7211446" lon="8.755836"><ele>301.0</ele><time>2026-04-06T08:22:46.897Z</time></trkpt><trkpt lat="45.7210094" lon="8.7557697"><ele>301.0</ele><time>2026-04-06T08:22:47.899Z</time></trkpt><trkpt lat="45.7208567" lon="8.7557197"><ele>301.0</ele><time>2026-04-06T08:22:48.9Z</time></trkpt><trkpt lat="45.7207396" lon="8.7556765"><ele>300.5</ele><time>2026-04-06T08:22:49.899Z</time></trkpt><trkpt lat="45.7206067" lon="8.7556449"><ele>300.0</ele><time>2026-04-06T08:22:50.9Z</time></trkpt><trkpt lat="45.7204835" lon="8.755621"><ele>299.5</ele><time>2026-04-06T08:22:51.898Z</time></trkpt><trkpt lat="45.7203331" lon="8.7556124"><ele>299.0</ele><time>2026-04-06T08:22:52.9Z</time></trkpt><trkpt lat="45.7201771" lon="8.7555998"><ele>299.0</ele><time>2026-04-06T08:22:53.899Z</time></trkpt><trkpt lat="45.7200017" lon="8.7555839"><ele>299.0</ele><time>2026-04-06T08:22:54.9Z</time></trkpt><trkpt lat="45.7198447" lon="8.7555933"><ele>299.0</ele><time>2026-04-06T08:22:55.899Z</time></trkpt><trkpt lat="45.7197179" lon="8.7556029"><ele>299.0</ele><time>2026-04-06T08:22:56.899Z</time></trkpt><trkpt lat="45.7196222" lon="8.755616"><ele>299.0</ele><time>2026-04-06T08:22:57.899Z</time></trkpt><trkpt lat="45.7195139" lon="8.7556124"><ele>299.0</ele><time>2026-04-06T08:22:58.898Z</time></trkpt><trkpt lat="45.7194011" lon="8.7556033"><ele>299.0</ele><time>2026-04-06T08:22:59.9Z</time></trkpt><trkpt lat="45.7192787" lon="8.7556058"><ele>299.0</ele><time>2026-04-06T08:23:00.899Z</time></trkpt><trkpt lat="45.7191629" lon="8.7555856"><ele>299.0</ele><time>2026-04-06T08:23:01.899Z</time></trkpt><trkpt lat="45.7190208" lon="8.7555795"><ele>299.0</ele><time>2026-04-06T08:23:02.898Z</time></trkpt><trkpt lat="45.718869" lon="8.7555816"><ele>299.0</ele><time>2026-04-06T08:23:03.899Z</time></trkpt><trkpt lat="45.7187367" lon="8.7555802"><ele>299.0</ele><time>2026-04-06T08:23:04.9Z</time></trkpt><trkpt lat="45.7186295" lon="8.7555858"><ele>298.75</ele><time>2026-04-06T08:23:05.899Z</time></trkpt><trkpt lat="45.7185201" lon="8.7556218"><ele>298.5</ele><time>2026-04-06T08:23:06.899Z</time></trkpt><trkpt lat="45.718419" lon="8.7556353"><ele>298.25</ele><time>2026-04-06T08:23:07.899Z</time></trkpt><trkpt lat="45.7182903" lon="8.7555967"><ele>298.0</ele><time>2026-04-06T08:23:08.9Z</time></trkpt><trkpt lat="45.7181802" lon="8.7555903"><ele>298.0</ele><time>2026-04-06T08:23:09.898Z</time></trkpt><trkpt lat="45.7180709" lon="8.7555565"><ele>298.0</ele><time>2026-04-06T08:23:10.899Z</time></trkpt><trkpt lat="45.7179738" lon="8.7555318"><ele>298.0</ele><time>2026-04-06T08:23:11.9Z</time></trkpt><trkpt lat="45.7178837" lon="8.7555103"><ele>298.0</ele><time>2026-04-06T08:23:12.9Z</time></trkpt><trkpt lat="45.7178069" lon="8.7555019"><ele>298.0</ele><time>2026-04-06T08:23:13.9Z</time></trkpt><trkpt lat="45.7177262" lon="8.7554881"><ele>296.8</ele><time>2026-04-06T08:23:14.899Z</time></trkpt><trkpt lat="45.7176296" lon="8.7554802"><ele>295.6</ele><time>2026-04-06T08:23:15.899Z</time></trkpt><trkpt lat="45.717537" lon="8.7554746"><ele>294.4</ele><time>2026-04-06T08:23:16.898Z</time></trkpt><trkpt lat="45.7174401" lon="8.755459"><ele>293.2</ele><time>2026-04-06T08:23:17.899Z</time></trkpt><trkpt lat="45.7173333" lon="8.755408"><ele>292.0</ele><time>2026-04-06T08:23:18.9Z</time></trkpt><trkpt lat="45.717242" lon="8.7553897"><ele>292.0</ele><time>2026-04-06T08:23:19.9Z</time></trkpt><trkpt lat="45.717166" lon="8.7553198"><ele>292.0</ele><time>2026-04-06T08:23:20.9Z</time></trkpt><trkpt lat="45.7170732" lon="8.7552566"><ele>292.0</ele><time>2026-04-06T08:23:21.9Z</time></trkpt><trkpt lat="45.7169818" lon="8.7551972"><ele>292.0</ele><time>2026-04-06T08:23:22.898Z</time></trkpt><trkpt lat="45.7168815" lon="8.7551474"><ele>292.0</ele><time>2026-04-06T08:23:23.9Z</time></trkpt><trkpt lat="45.7167961" lon="8.7550875"><ele>290.8333333333333</ele><time>2026-04-06T08:23:24.897Z</time></trkpt><trkpt lat="45.7167166" lon="8.7550388"><ele>289.66666666666663</ele><time>2026-04-06T08:23:25.897Z</time></trkpt><trkpt lat="45.7166404" lon="8.7549888"><ele>288.5</ele><time>2026-04-06T08:23:26.898Z</time></trkpt><trkpt lat="45.7165717" lon="8.7549518"><ele>287.3333333333333</ele><time>2026-04-06T08:23:27.898Z</time></trkpt><trkpt lat="45.7165105" lon="8.7549168"><ele>286.1666666666667</ele><time>2026-04-06T08:23:28.899Z</time></trkpt><trkpt lat="45.716415" lon="8.7548656"><ele>285.0</ele><time>2026-04-06T08:23:31.9Z</time></trkpt><trkpt lat="45.7162978" lon="8.7547854"><ele>285.0</ele><time>2026-04-06T08:23:33.9Z</time></trkpt><trkpt lat="45.7162299" lon="8.7547221"><ele>285.0</ele><time>2026-04-06T08:23:34.898Z</time></trkpt><trkpt lat="45.7161555" lon="8.7546628"><ele>285.0</ele><time>2026-04-06T08:23:35.899Z</time></trkpt><trkpt lat="45.7161027" lon="8.7546118"><ele>285.0</ele><time>2026-04-06T08:23:36.899Z</time></trkpt><trkpt lat="45.7160531" lon="8.7545519"><ele>285.0</ele><time>2026-04-06T08:23:37.9Z</time></trkpt><trkpt lat="45.7159746" lon="8.754527"><ele>285.0</ele><time>2026-04-06T08:23:39.9Z</time></trkpt><trkpt lat="45.715912" lon="8.7544734"><ele>285.0</ele><time>2026-04-06T08:23:41.9Z</time></trkpt><trkpt lat="45.7158403" lon="8.7543425"><ele>285.75</ele><time>2026-04-06T08:23:44.899Z</time></trkpt><trkpt lat="45.7157088" lon="8.7542259"><ele>286.5</ele><time>2026-04-06T08:23:46.899Z</time></trkpt><trkpt lat="45.7156144" lon="8.7541775"><ele>287.25</ele><time>2026-04-06T08:23:47.899Z</time></trkpt><trkpt lat="45.7155024" lon="8.7541481"><ele>288.0</ele><time>2026-04-06T08:23:48.899Z</time></trkpt><trkpt lat="45.7153669" lon="8.7541086"><ele>288.0</ele><time>2026-04-06T08:23:49.9Z</time></trkpt><trkpt lat="45.715258" lon="8.7540771"><ele>288.0</ele><time>2026-04-06T08:23:50.9Z</time></trkpt><trkpt lat="45.7151325" lon="8.754051"><ele>288.0</ele><time>2026-04-06T08:23:51.9Z</time></trkpt><trkpt lat="45.7149886" lon="8.7540219"><ele>288.0</ele><time>2026-04-06T08:23:52.898Z</time></trkpt><trkpt lat="45.7148485" lon="8.7540003"><ele>287.6</ele><time>2026-04-06T08:23:53.899Z</time></trkpt><trkpt lat="45.7147346" lon="8.7539606"><ele>287.20000000000005</ele><time>2026-04-06T08:23:54.899Z</time></trkpt><trkpt lat="45.7146309" lon="8.753911"><ele>286.8</ele><time>2026-04-06T08:23:55.899Z</time></trkpt><trkpt lat="45.7145246" lon="8.7538618"><ele>286.40000000000003</ele><time>2026-04-06T08:23:56.899Z</time></trkpt><trkpt lat="45.7144279" lon="8.7538127"><ele>286.0</ele><time>2026-04-06T08:23:57.9Z</time></trkpt><trkpt lat="45.7143404" lon="8.7537774"><ele>286.0</ele><time>2026-04-06T08:23:58.899Z</time></trkpt><trkpt lat="45.7142596" lon="8.7537377"><ele>286.0</ele><time>2026-04-06T08:23:59.9Z</time></trkpt><trkpt lat="45.7141561" lon="8.7537374"><ele>286.0</ele><time>2026-04-06T08:24:00.9Z</time></trkpt><trkpt lat="45.7140822" lon="8.7537204"><ele>286.0</ele><time>2026-04-06T08:24:01.898Z</time></trkpt><trkpt lat="45.7140153" lon="8.7536813"><ele>286.0</ele><time>2026-04-06T08:24:03.899Z</time></trkpt><trkpt lat="45.7139204" lon="8.7537031"><ele>286.0</ele><time>2026-04-06T08:24:05.899Z</time></trkpt><trkpt lat="45.7138367" lon="8.7536631"><ele>286.0</ele><time>2026-04-06T08:24:07.899Z</time></trkpt><trkpt lat="45.7137764" lon="8.7536948"><ele>286.0</ele><time>2026-04-06T08:24:09.9Z</time></trkpt><trkpt lat="45.7137097" lon="8.753661"><ele>286.0</ele><time>2026-04-06T08:24:12.898Z</time></trkpt><trkpt lat="45.7136992" lon="8.7535465"><ele>286.0</ele><time>2026-04-06T08:24:13.898Z</time></trkpt><trkpt lat="45.713612" lon="8.7534179"><ele>286.0</ele><time>2026-04-06T08:24:15.899Z</time></trkpt><trkpt lat="45.7135515" lon="8.7533355"><ele>286.0</ele><time>2026-04-06T08:24:16.9Z</time></trkpt><trkpt lat="45.7134503" lon="8.7531913"><ele>285.8</ele><time>2026-04-06T08:24:17.897Z</time></trkpt><trkpt lat="45.7133783" lon="8.7530829"><ele>285.6</ele><time>2026-04-06T08:24:18.899Z</time></trkpt><trkpt lat="45.7133241" lon="8.752958"><ele>285.4</ele><time>2026-04-06T08:24:19.9Z</time></trkpt><trkpt lat="45.7132843" lon="8.7528246"><ele>285.2</ele><time>2026-04-06T08:24:20.899Z</time></trkpt><trkpt lat="45.7132548" lon="8.7526941"><ele>285.0</ele><time>2026-04-06T08:24:21.899Z</time></trkpt><trkpt lat="45.713237" lon="8.7525256"><ele>285.4</ele><time>2026-04-06T08:24:22.899Z</time></trkpt><trkpt lat="45.7132189" lon="8.7523624"><ele>285.8</ele><time>2026-04-06T08:24:23.9Z</time></trkpt><trkpt lat="45.7132023" lon="8.752213"><ele>286.2</ele><time>2026-04-06T08:24:24.9Z</time></trkpt><trkpt lat="45.7131797" lon="8.7520792"><ele>286.6</ele><time>2026-04-06T08:24:25.898Z</time></trkpt><trkpt lat="45.7131449" lon="8.7519545"><ele>287.0</ele><time>2026-04-06T08:24:26.9Z</time></trkpt><trkpt lat="45.7131039" lon="8.7518372"><ele>287.33333333333337</ele><time>2026-04-06T08:24:27.899Z</time></trkpt><trkpt lat="45.7130585" lon="8.7517549"><ele>287.6666666666667</ele><time>2026-04-06T08:24:28.899Z</time></trkpt><trkpt lat="45.7129987" lon="8.7516902"><ele>288.0</ele><time>2026-04-06T08:24:29.899Z</time></trkpt><trkpt lat="45.7129278" lon="8.7516605"><ele>288.3333333333333</ele><time>2026-04-06T08:24:30.9Z</time></trkpt><trkpt lat="45.7128492" lon="8.7515482"><ele>288.66666666666663</ele><time>2026-04-06T08:24:32.9Z</time></trkpt><trkpt lat="45.712818" lon="8.7514446"><ele>289.0</ele><time>2026-04-06T08:24:33.9Z</time></trkpt><trkpt lat="45.7127899" lon="8.7513541"><ele>289.0</ele><time>2026-04-06T08:24:34.9Z</time></trkpt><trkpt lat="45.7127469" lon="8.7511934"><ele>289.0</ele><time>2026-04-06T08:24:36.9Z</time></trkpt><trkpt lat="45.7127413" lon="8.7510983"><ele>289.0</ele><time>2026-04-06T08:24:37.898Z</time></trkpt><trkpt lat="45.7127648" lon="8.7509411"><ele>289.0</ele><time>2026-04-06T08:24:39.898Z</time></trkpt><trkpt lat="45.712815" lon="8.7508071"><ele>289.0</ele><time>2026-04-06T08:24:41.899Z</time></trkpt><trkpt lat="45.7128323" lon="8.7506681"><ele>289.14285714285717</ele><time>2026-04-06T08:24:43.899Z</time></trkpt><trkpt lat="45.7128535" lon="8.7505754"><ele>289.2857142857143</ele><time>2026-04-06T08:24:44.899Z</time></trkpt><trkpt lat="45.7128899" lon="8.7504942"><ele>289.42857142857144</ele><time>2026-04-06T08:24:45.898Z</time></trkpt><trkpt lat="45.7129419" lon="8.7504317"><ele>289.57142857142856</ele><time>2026-04-06T08:24:46.9Z</time></trkpt><trkpt lat="45.7130078" lon="8.7503601"><ele>289.7142857142857</ele><time>2026-04-06T08:24:47.898Z</time></trkpt><trkpt lat="45.7130763" lon="8.7502956"><ele>289.8571428571429</ele><time>2026-04-06T08:24:48.899Z</time></trkpt><trkpt lat="45.713129" lon="8.7502419"><ele>290.0</ele><time>2026-04-06T08:24:49.9Z</time></trkpt><trkpt lat="45.7131874" lon="8.7501768"><ele>290.0</ele><time>2026-04-06T08:24:51.9Z</time></trkpt><trkpt lat="45.7131389" lon="8.7500424"><ele>290.0</ele><time>2026-04-06T08:24:53.9Z</time></trkpt><trkpt lat="45.713108" lon="8.7499633"><ele>290.0</ele><time>2026-04-06T08:24:55.9Z</time></trkpt><trkpt lat="45.7130717" lon="8.7498649"><ele>290.0</ele><time>2026-04-06T08:25:09.898Z</time></trkpt><trkpt lat="45.7130379" lon="8.749772"><ele>290.0</ele><time>2026-04-06T08:26:58.898Z</time></trkpt><trkpt lat="45.7129932" lon="8.7497061"><ele>290.0</ele><time>2026-04-06T08:26:59.899Z</time></trkpt><trkpt lat="45.7129564" lon="8.7496255"><ele>290.0</ele><time>2026-04-06T08:27:00.899Z</time></trkpt><trkpt lat="45.7129251" lon="8.7495397"><ele>290.0</ele><time>2026-04-06T08:27:01.899Z</time></trkpt><trkpt lat="45.712907" lon="8.7494469"><ele>290.0</ele><time>2026-04-06T08:27:02.899Z</time></trkpt><trkpt lat="45.7129011" lon="8.7492764"><ele>290.0</ele><time>2026-04-06T08:27:04.9Z</time></trkpt><trkpt lat="45.7129197" lon="8.7491579"><ele>290.0</ele><time>2026-04-06T08:27:06.899Z</time></trkpt><trkpt lat="45.7129661" lon="8.7490811"><ele>290.0</ele><time>2026-04-06T08:27:09.898Z</time></trkpt><trkpt lat="45.7131037" lon="8.7491154"><ele>290.1666666666667</ele><time>2026-04-06T08:32:35.899Z</time></trkpt><trkpt lat="45.7131818" lon="8.7491337"><ele>290.33333333333337</ele><time>2026-04-06T08:32:36.899Z</time></trkpt><trkpt lat="45.713287" lon="8.7492158"><ele>290.5</ele><time>2026-04-06T08:32:38.898Z</time></trkpt><trkpt lat="45.7133704" lon="8.7492497"><ele>290.6666666666667</ele><time>2026-04-06T08:32:39.898Z</time></trkpt><trkpt lat="45.7134356" lon="8.7492826"><ele>290.8333333333333</ele><time>2026-04-06T08:32:40.898Z</time></trkpt><trkpt lat="45.7135154" lon="8.749292"><ele>291.0</ele><time>2026-04-06T08:32:41.9Z</time></trkpt><trkpt lat="45.7136449" lon="8.7493127"><ele>291.6</ele><time>2026-04-06T08:32:43.898Z</time></trkpt><trkpt lat="45.713711" lon="8.74923"><ele>292.20000000000005</ele><time>2026-04-06T08:32:45.899Z</time></trkpt><trkpt lat="45.7136217" lon="8.7491743"><ele>292.79999999999995</ele><time>2026-04-06T08:32:47.899Z</time></trkpt><trkpt lat="45.7135779" lon="8.7490568"><ele>293.4</ele><time>2026-04-06T08:32:49.9Z</time></trkpt><trkpt lat="45.713665" lon="8.7490027"><ele>294.0</ele><time>2026-04-06T08:32:51.899Z</time></trkpt><trkpt lat="45.7137831" lon="8.7490045"><ele>294.0</ele><time>2026-04-06T08:32:53.899Z</time></trkpt><trkpt lat="45.713839" lon="8.74905"><ele>294.0</ele><time>2026-04-06T08:32:54.899Z</time></trkpt><trkpt lat="45.7138728" lon="8.7491307"><ele>294.0</ele><time>2026-04-06T08:32:55.899Z</time></trkpt><trkpt lat="45.7139455" lon="8.7492427"><ele>294.0</ele><time>2026-04-06T08:32:57.898Z</time></trkpt><trkpt lat="45.7140081" lon="8.7492035"><ele>294.0</ele><time>2026-04-06T08:33:01.898Z</time></trkpt><trkpt lat="45.7139979" lon="8.749058"><ele>294.0</ele><time>2026-04-06T08:33:04.899Z</time></trkpt><trkpt lat="45.7140375" lon="8.7489089"><ele>294.0</ele><time>2026-04-06T08:33:06.901Z</time></trkpt><trkpt lat="45.714061" lon="8.7487415"><ele>294.0</ele><time>2026-04-06T08:33:08.9Z</time></trkpt><trkpt lat="45.714081" lon="8.7485966"><ele>294.0</ele><time>2026-04-06T08:33:10.899Z</time></trkpt><trkpt lat="45.7141636" lon="8.7485027"><ele>294.0</ele><time>2026-04-06T08:33:12.9Z</time></trkpt><trkpt lat="45.7141733" lon="8.7484004"><ele>294.0</ele><time>2026-04-06T08:33:14.899Z</time></trkpt><trkpt lat="45.7141176" lon="8.7483464"><ele>294.0</ele><time>2026-04-06T08:33:16.9Z</time></trkpt><trkpt lat="45.7140289" lon="8.748369"><ele>294.0</ele><time>2026-04-06T08:33:18.9Z</time></trkpt><trkpt lat="45.7139541" lon="8.7484281"><ele>294.0</ele><time>2026-04-06T08:33:20.899Z</time></trkpt><trkpt lat="45.7139366" lon="8.7485527"><ele>294.0</ele><time>2026-04-06T08:33:22.9Z</time></trkpt><trkpt lat="45.7139227" lon="8.7486615"><ele>294.0</ele><time>2026-04-06T08:33:24.898Z</time></trkpt><trkpt lat="45.7138306" lon="8.7487412"><ele>294.0</ele><time>2026-04-06T08:33:26.9Z</time></trkpt><trkpt lat="45.7137443" lon="8.7488623"><ele>294.0</ele><time>2026-04-06T08:33:28.9Z</time></trkpt><trkpt lat="45.7136306" lon="8.7488844"><ele>294.0</ele><time>2026-04-06T08:33:30.899Z</time></trkpt><trkpt lat="45.7135623" lon="8.7488691"><ele>294.0</ele><time>2026-04-06T08:33:31.899Z</time></trkpt><trkpt lat="45.7134973" lon="8.7488547"><ele>294.0</ele><time>2026-04-06T08:33:32.899Z</time></trkpt><trkpt lat="45.7133637" lon="8.7489005"><ele>294.0</ele><time>2026-04-06T08:33:34.9Z</time></trkpt><trkpt lat="45.7132971" lon="8.7489521"><ele>293.5</ele><time>2026-04-06T08:33:35.9Z</time></trkpt><trkpt lat="45.7132342" lon="8.7489691"><ele>293.0</ele><time>2026-04-06T08:33:36.899Z</time></trkpt><trkpt lat="45.7131408" lon="8.7489052"><ele>292.5</ele><time>2026-04-06T08:33:38.899Z</time></trkpt><trkpt lat="45.7130724" lon="8.7488657"><ele>292.0</ele><time>2026-04-06T08:33:40.9Z</time></trkpt><trkpt lat="45.7130054" lon="8.7488211"><ele>291.5</ele><time>2026-04-06T08:33:42.899Z</time></trkpt><trkpt lat="45.7129445" lon="8.7487484"><ele>291.0</ele><time>2026-04-06T08:33:44.899Z</time></trkpt><trkpt lat="45.7128568" lon="8.7487496"><ele>291.0</ele><time>2026-04-06T08:33:46.9Z</time></trkpt><trkpt lat="45.7127805" lon="8.748704"><ele>291.0</ele><time>2026-04-06T08:33:48.9Z</time></trkpt><trkpt lat="45.7127369" lon="8.7485923"><ele>291.0</ele><time>2026-04-06T08:33:51.9Z</time></trkpt><trkpt lat="45.7127732" lon="8.748518"><ele>291.0</ele><time>2026-04-06T08:33:53.899Z</time></trkpt><trkpt lat="45.7128581" lon="8.7485576"><ele>291.0</ele><time>2026-04-06T08:33:55.898Z</time></trkpt><trkpt lat="45.7129114" lon="8.748468"><ele>291.0</ele><time>2026-04-06T08:33:58.899Z</time></trkpt><trkpt lat="45.7128395" lon="8.7484536"><ele>290.2</ele><time>2026-04-06T08:34:00.899Z</time></trkpt><trkpt lat="45.7127608" lon="8.7484597"><ele>289.40000000000003</ele><time>2026-04-06T08:34:02.899Z</time></trkpt><trkpt lat="45.7127092" lon="8.7485353"><ele>288.6</ele><time>2026-04-06T08:34:03.9Z</time></trkpt><trkpt lat="45.712592" lon="8.7485929"><ele>287.8</ele><time>2026-04-06T08:34:05.9Z</time></trkpt><trkpt lat="45.7124883" lon="8.7486596"><ele>287.0</ele><time>2026-04-06T08:34:07.9Z</time></trkpt><trkpt lat="45.7123953" lon="8.7487247"><ele>286.4</ele><time>2026-04-06T08:34:09.9Z</time></trkpt><trkpt lat="45.7123392" lon="8.7487976"><ele>285.79999999999995</ele><time>2026-04-06T08:34:11.899Z</time></trkpt><trkpt lat="45.7122599" lon="8.7489332"><ele>285.2</ele><time>2026-04-06T08:34:13.899Z</time></trkpt><trkpt lat="45.7122373" lon="8.7490645"><ele>284.59999999999997</ele><time>2026-04-06T08:34:15.9Z</time></trkpt><trkpt lat="45.7121439" lon="8.7491573"><ele>284.0</ele><time>2026-04-06T08:34:17.899Z</time></trkpt><trkpt lat="45.7120698" lon="8.7492104"><ele>284.0</ele><time>2026-04-06T08:34:19.899Z</time></trkpt><trkpt lat="45.712002" lon="8.7492803"><ele>284.0</ele><time>2026-04-06T08:34:21.898Z</time></trkpt><trkpt lat="45.7119583" lon="8.7493466"><ele>284.0</ele><time>2026-04-06T08:34:22.899Z</time></trkpt><trkpt lat="45.7119001" lon="8.7493933"><ele>284.0</ele><time>2026-04-06T08:34:23.9Z</time></trkpt><trkpt lat="45.7118376" lon="8.7494073"><ele>284.0</ele><time>2026-04-06T08:34:24.899Z</time></trkpt><trkpt lat="45.7117338" lon="8.7494255"><ele>284.0</ele><time>2026-04-06T08:34:25.897Z</time></trkpt><trkpt lat="45.7116435" lon="8.7494472"><ele>283.83333333333337</ele><time>2026-04-06T08:34:26.9Z</time></trkpt><trkpt lat="45.7115682" lon="8.7494205"><ele>283.6666666666667</ele><time>2026-04-06T08:34:27.9Z</time></trkpt><trkpt lat="45.7114728" lon="8.7494225"><ele>283.5</ele><time>2026-04-06T08:34:29.899Z</time></trkpt><trkpt lat="45.7113962" lon="8.7494321"><ele>283.3333333333333</ele><time>2026-04-06T08:34:31.899Z</time></trkpt><trkpt lat="45.7112984" lon="8.7494543"><ele>283.16666666666663</ele><time>2026-04-06T08:34:33.899Z</time></trkpt><trkpt lat="45.7112292" lon="8.7494879"><ele>283.0</ele><time>2026-04-06T08:34:35.9Z</time></trkpt><trkpt lat="45.7111792" lon="8.7496006"><ele>283.0</ele><time>2026-04-06T08:34:37.899Z</time></trkpt><trkpt lat="45.7111392" lon="8.7496781"><ele>283.0</ele><time>2026-04-06T08:34:39.898Z</time></trkpt><trkpt lat="45.7111713" lon="8.7498116"><ele>283.0</ele><time>2026-04-06T08:34:42.899Z</time></trkpt><trkpt lat="45.7112637" lon="8.7499477"><ele>283.0</ele><time>2026-04-06T08:34:44.898Z</time></trkpt><trkpt lat="45.7113207" lon="8.7501234"><ele>283.0</ele><time>2026-04-06T08:34:46.898Z</time></trkpt><trkpt lat="45.7113265" lon="8.7502799"><ele>282.66666666666663</ele><time>2026-04-06T08:34:48.898Z</time></trkpt><trkpt lat="45.7112956" lon="8.7504288"><ele>282.3333333333333</ele><time>2026-04-06T08:34:50.898Z</time></trkpt><trkpt lat="45.7113031" lon="8.7505552"><ele>282.0</ele><time>2026-04-06T08:34:52.9Z</time></trkpt><trkpt lat="45.7113465" lon="8.7506386"><ele>281.6666666666667</ele><time>2026-04-06T08:34:54.899Z</time></trkpt><trkpt lat="45.7114329" lon="8.7505952"><ele>281.33333333333337</ele><time>2026-04-06T08:34:57.9Z</time></trkpt><trkpt lat="45.7114942" lon="8.7505515"><ele>281.0</ele><time>2026-04-06T08:34:58.898Z</time></trkpt><trkpt lat="45.7115893" lon="8.7504836"><ele>281.0</ele><time>2026-04-06T08:35:00.9Z</time></trkpt><trkpt lat="45.7116685" lon="8.7503269"><ele>281.0</ele><time>2026-04-06T08:35:02.898Z</time></trkpt><trkpt lat="45.7117142" lon="8.7502222"><ele>281.0</ele><time>2026-04-06T08:35:03.899Z</time></trkpt><trkpt lat="45.7117513" lon="8.7500651"><ele>281.0</ele><time>2026-04-06T08:35:04.899Z</time></trkpt><trkpt lat="45.7117836" lon="8.749942"><ele>281.0</ele><time>2026-04-06T08:35:05.898Z</time></trkpt><trkpt lat="45.711786" lon="8.7498394"><ele>281.0</ele><time>2026-04-06T08:35:06.899Z</time></trkpt><trkpt lat="45.7118039" lon="8.7497398"><ele>281.0</ele><time>2026-04-06T08:35:07.9Z</time></trkpt><trkpt lat="45.7117892" lon="8.7496491"><ele>281.0</ele><time>2026-04-06T08:35:08.898Z</time></trkpt><trkpt lat="45.7117764" lon="8.7495589"><ele>281.0</ele><time>2026-04-06T08:35:09.899Z</time></trkpt><trkpt lat="45.7119156" lon="8.7495181"><ele>281.0</ele><time>2026-04-06T08:35:11.9Z</time></trkpt><trkpt lat="45.711995" lon="8.7494988"><ele>281.0</ele><time>2026-04-06T08:35:12.9Z</time></trkpt><trkpt lat="45.7120762" lon="8.749478"><ele>281.0</ele><time>2026-04-06T08:35:13.899Z</time></trkpt><trkpt lat="45.712158" lon="8.7493823"><ele>281.0</ele><time>2026-04-06T08:35:15.899Z</time></trkpt><trkpt lat="45.7122334" lon="8.7492475"><ele>281.0</ele><time>2026-04-06T08:35:17.898Z</time></trkpt><trkpt lat="45.7123158" lon="8.7492081"><ele>281.0</ele><time>2026-04-06T08:35:18.899Z</time></trkpt><trkpt lat="45.712388" lon="8.7491704"><ele>281.0</ele><time>2026-04-06T08:35:19.899Z</time></trkpt><trkpt lat="45.7124512" lon="8.7491609"><ele>281.5</ele><time>2026-04-06T08:35:20.898Z</time></trkpt><trkpt lat="45.7125325" lon="8.7491778"><ele>282.0</ele><time>2026-04-06T08:35:22.899Z</time></trkpt><trkpt lat="45.7126293" lon="8.749303"><ele>282.5</ele><time>2026-04-06T08:35:24.9Z</time></trkpt><trkpt lat="45.7126865" lon="8.7493646"><ele>283.0</ele><time>2026-04-06T08:35:25.898Z</time></trkpt><trkpt lat="45.7127524" lon="8.7494092"><ele>283.5</ele><time>2026-04-06T08:35:26.899Z</time></trkpt><trkpt lat="45.7128046" lon="8.7495144"><ele>284.0</ele><time>2026-04-06T08:35:28.9Z</time></trkpt><trkpt lat="45.7128771" lon="8.7496267"><ele>285.0</ele><time>2026-04-06T08:35:30.9Z</time></trkpt><trkpt lat="45.7128923" lon="8.7497256"><ele>286.0</ele><time>2026-04-06T08:35:32.899Z</time></trkpt><trkpt lat="45.7127975" lon="8.749773"><ele>287.0</ele><time>2026-04-06T08:35:34.9Z</time></trkpt><trkpt lat="45.7127741" lon="8.7498681"><ele>288.0</ele><time>2026-04-06T08:35:36.899Z</time></trkpt><trkpt lat="45.7127492" lon="8.7500286"><ele>289.0</ele><time>2026-04-06T08:35:38.899Z</time></trkpt><trkpt lat="45.7128026" lon="8.7500982"><ele>290.0</ele><time>2026-04-06T08:35:41.898Z</time></trkpt><trkpt lat="45.7128891" lon="8.7500782"><ele>290.0</ele><time>2026-04-06T08:35:43.9Z</time></trkpt><trkpt lat="45.7129697" lon="8.7500573"><ele>290.0</ele><time>2026-04-06T08:35:45.898Z</time></trkpt><trkpt lat="45.713011" lon="8.7499424"><ele>290.0</ele><time>2026-04-06T08:35:48.899Z</time></trkpt><trkpt lat="45.7131446" lon="8.7498739"><ele>290.0</ele><time>2026-04-06T08:35:51.898Z</time></trkpt><trkpt lat="45.7132152" lon="8.7498531"><ele>290.0</ele><time>2026-04-06T08:35:52.898Z</time></trkpt><trkpt lat="45.7132941" lon="8.7498446"><ele>290.0</ele><time>2026-04-06T08:35:53.898Z</time></trkpt><trkpt lat="45.713362" lon="8.7498274"><ele>290.0</ele><time>2026-04-06T08:35:54.899Z</time></trkpt><trkpt lat="45.7134554" lon="8.749792"><ele>290.0</ele><time>2026-04-06T08:35:56.9Z</time></trkpt><trkpt lat="45.7134564" lon="8.7496929"><ele>290.0</ele><time>2026-04-06T08:36:00.899Z</time></trkpt><trkpt lat="45.7135103" lon="8.7496448"><ele>290.0</ele><time>2026-04-06T08:36:02.899Z</time></trkpt><trkpt lat="45.7136142" lon="8.749676"><ele>290.0</ele><time>2026-04-06T08:36:04.9Z</time></trkpt><trkpt lat="45.7136962" lon="8.7496551"><ele>290.0</ele><time>2026-04-06T08:36:05.9Z</time></trkpt><trkpt lat="45.7137675" lon="8.7496183"><ele>290.0</ele><time>2026-04-06T08:36:06.899Z</time></trkpt><trkpt lat="45.7138336" lon="8.7495223"><ele>290.0</ele><time>2026-04-06T08:36:08.899Z</time></trkpt><trkpt lat="45.7137462" lon="8.749468"><ele>290.0</ele><time>2026-04-06T08:36:11.898Z</time></trkpt><trkpt lat="45.7136703" lon="8.7494697"><ele>290.0</ele><time>2026-04-06T08:36:12.898Z</time></trkpt><trkpt lat="45.7135905" lon="8.7494758"><ele>290.0</ele><time>2026-04-06T08:36:13.898Z</time></trkpt><trkpt lat="45.7134887" lon="8.7494694"><ele>290.0</ele><time>2026-04-06T08:36:15.898Z</time></trkpt><trkpt lat="45.7133916" lon="8.7495396"><ele>290.0</ele><time>2026-04-06T08:36:17.9Z</time></trkpt><trkpt lat="45.7132946" lon="8.7495555"><ele>290.0</ele><time>2026-04-06T08:36:19.9Z</time></trkpt><trkpt lat="45.713227" lon="8.7496058"><ele>290.0</ele><time>2026-04-06T08:36:21.899Z</time></trkpt><trkpt lat="45.7131417" lon="8.749654"><ele>290.0</ele><time>2026-04-06T08:36:23.898Z</time></trkpt><trkpt lat="45.7130786" lon="8.749644"><ele>290.0</ele><time>2026-04-06T08:36:25.899Z</time></trkpt><trkpt lat="45.7130558" lon="8.7494635"><ele>290.1666666666667</ele><time>2026-04-06T08:36:27.899Z</time></trkpt><trkpt lat="45.7130569" lon="8.7493611"><ele>290.33333333333337</ele><time>2026-04-06T08:36:28.899Z</time></trkpt><trkpt lat="45.7130445" lon="8.7491951"><ele>290.5</ele><time>2026-04-06T08:36:30.899Z</time></trkpt><trkpt lat="45.713064" lon="8.7491032"><ele>290.6666666666667</ele><time>2026-04-06T08:36:32.899Z</time></trkpt><trkpt lat="45.713128" lon="8.7491177"><ele>290.8333333333333</ele><time>2026-04-06T08:36:33.9Z</time></trkpt><trkpt lat="45.7132035" lon="8.7491244"><ele>291.0</ele><time>2026-04-06T08:36:34.9Z</time></trkpt><trkpt lat="45.7132678" lon="8.7491726"><ele>291.0</ele><time>2026-04-06T08:36:35.9Z</time></trkpt><trkpt lat="45.7133384" lon="8.7492274"><ele>291.0</ele><time>2026-04-06T08:36:36.899Z</time></trkpt><trkpt lat="45.7134008" lon="8.7492707"><ele>291.0</ele><time>2026-04-06T08:36:37.899Z</time></trkpt><trkpt lat="45.7135215" lon="8.7492974"><ele>291.0</ele><time>2026-04-06T08:36:39.9Z</time></trkpt><trkpt lat="45.7136458" lon="8.7493033"><ele>291.0</ele><time>2026-04-06T08:36:41.899Z</time></trkpt><trkpt lat="45.7136939" lon="8.7492269"><ele>291.6</ele><time>2026-04-06T08:36:43.898Z</time></trkpt><trkpt lat="45.7136144" lon="8.749145"><ele>292.20000000000005</ele><time>2026-04-06T08:36:46.899Z</time></trkpt><trkpt lat="45.7136234" lon="8.7490123"><ele>292.79999999999995</ele><time>2026-04-06T08:36:48.897Z</time></trkpt><trkpt lat="45.7137324" lon="8.7489797"><ele>293.4</ele><time>2026-04-06T08:36:50.9Z</time></trkpt><trkpt lat="45.7138368" lon="8.749049"><ele>294.0</ele><time>2026-04-06T08:36:52.898Z</time></trkpt><trkpt lat="45.7138991" lon="8.7491891"><ele>294.0</ele><time>2026-04-06T08:36:54.898Z</time></trkpt><trkpt lat="45.7139623" lon="8.7492974"><ele>294.0</ele><time>2026-04-06T08:36:56.898Z</time></trkpt><trkpt lat="45.7139987" lon="8.7491971"><ele>294.0</ele><time>2026-04-06T08:36:59.9Z</time></trkpt><trkpt lat="45.7140001" lon="8.7490447"><ele>294.0</ele><time>2026-04-06T08:37:01.897Z</time></trkpt><trkpt lat="45.7140143" lon="8.7489514"><ele>294.0</ele><time>2026-04-06T08:37:02.899Z</time></trkpt><trkpt lat="45.7140196" lon="8.7488449"><ele>294.0</ele><time>2026-04-06T08:37:03.899Z</time></trkpt><trkpt lat="45.7140244" lon="8.7487465"><ele>294.0</ele><time>2026-04-06T08:37:04.899Z</time></trkpt><trkpt lat="45.7140823" lon="8.7486061"><ele>294.0</ele><time>2026-04-06T08:37:06.899Z</time></trkpt><trkpt lat="45.7141438" lon="8.7485096"><ele>294.0</ele><time>2026-04-06T08:37:08.898Z</time></trkpt><trkpt lat="45.7141331" lon="8.748398"><ele>294.0</ele><time>2026-04-06T08:37:10.897Z</time></trkpt><trkpt lat="45.7140653" lon="8.7483605"><ele>294.0</ele><time>2026-04-06T08:37:12.899Z</time></trkpt><trkpt lat="45.7139576" lon="8.7484348"><ele>294.0</ele><time>2026-04-06T08:37:14.9Z</time></trkpt><trkpt lat="45.7139336" lon="8.7485516"><ele>294.0</ele><time>2026-04-06T08:37:16.899Z</time></trkpt><trkpt lat="45.7139148" lon="8.7487011"><ele>294.0</ele><time>2026-04-06T08:37:18.9Z</time></trkpt><trkpt lat="45.7138634" lon="8.748772"><ele>294.0</ele><time>2026-04-06T08:37:20.899Z</time></trkpt><trkpt lat="45.7137842" lon="8.7488405"><ele>294.0</ele><time>2026-04-06T08:37:22.9Z</time></trkpt><trkpt lat="45.7136954" lon="8.7489274"><ele>294.0</ele><time>2026-04-06T08:37:24.898Z</time></trkpt><trkpt lat="45.7136188" lon="8.7489315"><ele>294.0</ele><time>2026-04-06T08:37:25.897Z</time></trkpt><trkpt lat="45.7135441" lon="8.7489308"><ele>294.0</ele><time>2026-04-06T08:37:26.9Z</time></trkpt><trkpt lat="45.7134532" lon="8.7488428"><ele>294.0</ele><time>2026-04-06T08:37:28.899Z</time></trkpt><trkpt lat="45.7133743" lon="8.7488056"><ele>294.0</ele><time>2026-04-06T08:37:30.899Z</time></trkpt><trkpt lat="45.7133111" lon="8.748814"><ele>294.0</ele><time>2026-04-06T08:37:31.897Z</time></trkpt><trkpt lat="45.713202" lon="8.7487864"><ele>293.4</ele><time>2026-04-06T08:37:33.898Z</time></trkpt><trkpt lat="45.7130918" lon="8.7487725"><ele>292.79999999999995</ele><time>2026-04-06T08:37:35.9Z</time></trkpt><trkpt lat="45.7129818" lon="8.7487824"><ele>292.20000000000005</ele><time>2026-04-06T08:37:37.899Z</time></trkpt><trkpt lat="45.7128921" lon="8.748787"><ele>291.6</ele><time>2026-04-06T08:37:39.899Z</time></trkpt><trkpt lat="45.7128185" lon="8.7487894"><ele>291.0</ele><time>2026-04-06T08:37:41.898Z</time></trkpt><trkpt lat="45.7127536" lon="8.7487325"><ele>291.0</ele><time>2026-04-06T08:37:43.899Z</time></trkpt><trkpt lat="45.7127291" lon="8.7486403"><ele>291.0</ele><time>2026-04-06T08:37:45.899Z</time></trkpt><trkpt lat="45.7127791" lon="8.7485675"><ele>291.0</ele><time>2026-04-06T08:37:47.9Z</time></trkpt><trkpt lat="45.7128451" lon="8.7485702"><ele>291.0</ele><time>2026-04-06T08:37:49.9Z</time></trkpt><trkpt lat="45.712902" lon="8.7485151"><ele>291.0</ele><time>2026-04-06T08:37:52.899Z</time></trkpt><trkpt lat="45.7128062" lon="8.748459"><ele>291.0</ele><time>2026-04-06T08:37:55.898Z</time></trkpt><trkpt lat="45.7126876" lon="8.7485358"><ele>289.8333333333333</ele><time>2026-04-06T08:37:57.899Z</time></trkpt><trkpt lat="45.7126141" lon="8.7485762"><ele>288.6666666666667</ele><time>2026-04-06T08:37:58.899Z</time></trkpt><trkpt lat="45.7125496" lon="8.7486263"><ele>287.5</ele><time>2026-04-06T08:37:59.898Z</time></trkpt><trkpt lat="45.7124877" lon="8.7486782"><ele>286.33333333333337</ele><time>2026-04-06T08:38:00.899Z</time></trkpt><trkpt lat="45.7124012" lon="8.7487643"><ele>285.1666666666667</ele><time>2026-04-06T08:38:02.9Z</time></trkpt><trkpt lat="45.7123376" lon="8.7488256"><ele>284.0</ele><time>2026-04-06T08:38:05.898Z</time></trkpt><trkpt lat="45.712263" lon="8.7489461"><ele>284.0</ele><time>2026-04-06T08:38:07.899Z</time></trkpt><trkpt lat="45.7122044" lon="8.7490888"><ele>284.0</ele><time>2026-04-06T08:38:09.899Z</time></trkpt><trkpt lat="45.7121212" lon="8.7491682"><ele>284.0</ele><time>2026-04-06T08:38:11.898Z</time></trkpt><trkpt lat="45.7120473" lon="8.7492129"><ele>284.0</ele><time>2026-04-06T08:38:13.898Z</time></trkpt><trkpt lat="45.7119847" lon="8.7492771"><ele>284.0</ele><time>2026-04-06T08:38:15.899Z</time></trkpt><trkpt lat="45.7119355" lon="8.7493495"><ele>284.0</ele><time>2026-04-06T08:38:16.899Z</time></trkpt><trkpt lat="45.7118159" lon="8.749401"><ele>283.8</ele><time>2026-04-06T08:38:18.899Z</time></trkpt><trkpt lat="45.711712" lon="8.749437"><ele>283.59999999999997</ele><time>2026-04-06T08:38:19.899Z</time></trkpt><trkpt lat="45.7116334" lon="8.7494298"><ele>283.4</ele><time>2026-04-06T08:38:20.899Z</time></trkpt><trkpt lat="45.7115697" lon="8.7494214"><ele>283.2</ele><time>2026-04-06T08:38:21.899Z</time></trkpt><trkpt lat="45.7114537" lon="8.7494291"><ele>283.0</ele><time>2026-04-06T08:38:23.899Z</time></trkpt><trkpt lat="45.7113511" lon="8.7494366"><ele>283.0</ele><time>2026-04-06T08:38:25.899Z</time></trkpt><trkpt lat="45.7112739" lon="8.7494574"><ele>283.0</ele><time>2026-04-06T08:38:27.898Z</time></trkpt><trkpt lat="45.7112143" lon="8.7495535"><ele>283.0</ele><time>2026-04-06T08:38:29.898Z</time></trkpt><trkpt lat="45.7111506" lon="8.7496556"><ele>283.0</ele><time>2026-04-06T08:38:31.9Z</time></trkpt><trkpt lat="45.7111583" lon="8.7497894"><ele>283.0</ele><time>2026-04-06T08:38:34.899Z</time></trkpt><trkpt lat="45.7112046" lon="8.7498597"><ele>283.0</ele><time>2026-04-06T08:38:35.899Z</time></trkpt><trkpt lat="45.7112453" lon="8.7499367"><ele>283.0</ele><time>2026-04-06T08:38:36.898Z</time></trkpt><trkpt lat="45.7112896" lon="8.7500183"><ele>283.0</ele><time>2026-04-06T08:38:37.899Z</time></trkpt><trkpt lat="45.7113122" lon="8.7501192"><ele>283.0</ele><time>2026-04-06T08:38:38.9Z</time></trkpt><trkpt lat="45.7113255" lon="8.7502204"><ele>283.0</ele><time>2026-04-06T08:38:39.898Z</time></trkpt><trkpt lat="45.7113053" lon="8.7503708"><ele>283.0</ele><time>2026-04-06T08:38:41.898Z</time></trkpt><trkpt lat="45.7112797" lon="8.7504906"><ele>283.0</ele><time>2026-04-06T08:38:43.898Z</time></trkpt><trkpt lat="45.7113299" lon="8.75061"><ele>283.0</ele><time>2026-04-06T08:38:45.898Z</time></trkpt><trkpt lat="45.7113958" lon="8.7505944"><ele>283.0</ele><time>2026-04-06T08:38:48.899Z</time></trkpt><trkpt lat="45.711487" lon="8.7505295"><ele>283.0</ele><time>2026-04-06T08:38:50.899Z</time></trkpt><trkpt lat="45.711574" lon="8.7504564"><ele>283.0</ele><time>2026-04-06T08:38:52.899Z</time></trkpt><trkpt lat="45.7116244" lon="8.7503748"><ele>283.0</ele><time>2026-04-06T08:38:53.9Z</time></trkpt><trkpt lat="45.7116692" lon="8.7502868"><ele>283.0</ele><time>2026-04-06T08:38:54.898Z</time></trkpt><trkpt lat="45.7116901" lon="8.7501381"><ele>283.0</ele><time>2026-04-06T08:38:55.899Z</time></trkpt><trkpt lat="45.7117266" lon="8.7499961"><ele>283.0</ele><time>2026-04-06T08:38:56.898Z</time></trkpt><trkpt lat="45.7117495" lon="8.7498695"><ele>283.0</ele><time>2026-04-06T08:38:57.898Z</time></trkpt><trkpt lat="45.7117752" lon="8.7497737"><ele>283.0</ele><time>2026-04-06T08:38:58.899Z</time></trkpt><trkpt lat="45.711771" lon="8.749677"><ele>283.0</ele><time>2026-04-06T08:38:59.9Z</time></trkpt><trkpt lat="45.711795" lon="8.7495544"><ele>283.0</ele><time>2026-04-06T08:39:01.898Z</time></trkpt><trkpt lat="45.711922" lon="8.749499"><ele>283.2</ele><time>2026-04-06T08:39:03.898Z</time></trkpt><trkpt lat="45.7120505" lon="8.7494538"><ele>283.4</ele><time>2026-04-06T08:39:05.899Z</time></trkpt><trkpt lat="45.7121533" lon="8.7493746"><ele>283.59999999999997</ele><time>2026-04-06T08:39:07.899Z</time></trkpt><trkpt lat="45.7121936" lon="8.7492988"><ele>283.8</ele><time>2026-04-06T08:39:08.9Z</time></trkpt><trkpt lat="45.7122616" lon="8.7492396"><ele>284.0</ele><time>2026-04-06T08:39:09.899Z</time></trkpt><trkpt lat="45.7123406" lon="8.7491777"><ele>284.0</ele><time>2026-04-06T08:39:10.899Z</time></trkpt><trkpt lat="45.7124005" lon="8.7491293"><ele>284.0</ele><time>2026-04-06T08:39:11.9Z</time></trkpt><trkpt lat="45.712507" lon="8.7491247"><ele>284.0</ele><time>2026-04-06T08:39:13.898Z</time></trkpt><trkpt lat="45.7125584" lon="8.749188"><ele>284.0</ele><time>2026-04-06T08:39:14.899Z</time></trkpt><trkpt lat="45.7126085" lon="8.7492832"><ele>284.0</ele><time>2026-04-06T08:39:15.898Z</time></trkpt><trkpt lat="45.7126702" lon="8.7493604"><ele>284.0</ele><time>2026-04-06T08:39:16.898Z</time></trkpt><trkpt lat="45.7127336" lon="8.7493968"><ele>285.0</ele><time>2026-04-06T08:39:17.898Z</time></trkpt><trkpt lat="45.7128115" lon="8.749496"><ele>286.0</ele><time>2026-04-06T08:39:19.901Z</time></trkpt><trkpt lat="45.7128943" lon="8.7495649"><ele>287.0</ele><time>2026-04-06T08:39:21.899Z</time></trkpt><trkpt lat="45.7129218" lon="8.7497007"><ele>288.0</ele><time>2026-04-06T08:39:23.899Z</time></trkpt><trkpt lat="45.7128671" lon="8.7497884"><ele>289.0</ele><time>2026-04-06T08:39:25.898Z</time></trkpt><trkpt lat="45.7127992" lon="8.7497831"><ele>290.0</ele><time>2026-04-06T08:39:26.899Z</time></trkpt><trkpt lat="45.7127717" lon="8.7498862"><ele>290.0</ele><time>2026-04-06T08:39:28.899Z</time></trkpt><trkpt lat="45.712757" lon="8.7500405"><ele>290.0</ele><time>2026-04-06T08:39:30.899Z</time></trkpt><trkpt lat="45.7128225" lon="8.7501043"><ele>290.0</ele><time>2026-04-06T08:39:33.898Z</time></trkpt><trkpt lat="45.7129248" lon="8.7500981"><ele>290.0</ele><time>2026-04-06T08:39:35.898Z</time></trkpt><trkpt lat="45.7129862" lon="8.7500643"><ele>290.0</ele><time>2026-04-06T08:39:37.899Z</time></trkpt><trkpt lat="45.7130272" lon="8.7499642"><ele>290.0</ele><time>2026-04-06T08:39:39.9Z</time></trkpt><trkpt lat="45.7131125" lon="8.7499072"><ele>290.0</ele><time>2026-04-06T08:39:41.9Z</time></trkpt><trkpt lat="45.7132294" lon="8.7498487"><ele>290.0</ele><time>2026-04-06T08:39:43.9Z</time></trkpt><trkpt lat="45.7133037" lon="8.7498363"><ele>290.0</ele><time>2026-04-06T08:39:44.898Z</time></trkpt><trkpt lat="45.7133725" lon="8.7498219"><ele>290.0</ele><time>2026-04-06T08:39:45.899Z</time></trkpt><trkpt lat="45.7134696" lon="8.7497896"><ele>290.0</ele><time>2026-04-06T08:39:47.899Z</time></trkpt><trkpt lat="45.7134747" lon="8.7496926"><ele>290.0</ele><time>2026-04-06T08:39:50.899Z</time></trkpt><trkpt lat="45.7135297" lon="8.7496369"><ele>290.0</ele><time>2026-04-06T08:39:54.898Z</time></trkpt><trkpt lat="45.7136561" lon="8.7496342"><ele>290.0</ele><time>2026-04-06T08:39:56.899Z</time></trkpt><trkpt lat="45.7137375" lon="8.749584"><ele>290.0</ele><time>2026-04-06T08:39:57.898Z</time></trkpt><trkpt lat="45.7138182" lon="8.7495164"><ele>290.0</ele><time>2026-04-06T08:39:59.899Z</time></trkpt><trkpt lat="45.71375" lon="8.7494832"><ele>290.0</ele><time>2026-04-06T08:40:01.899Z</time></trkpt><trkpt lat="45.7136687" lon="8.7494897"><ele>290.0</ele><time>2026-04-06T08:40:02.9Z</time></trkpt><trkpt lat="45.7135959" lon="8.7494937"><ele>290.0</ele><time>2026-04-06T08:40:03.899Z</time></trkpt><trkpt lat="45.7135274" lon="8.7494882"><ele>290.0</ele><time>2026-04-06T08:40:04.898Z</time></trkpt><trkpt lat="45.7134413" lon="8.7495092"><ele>290.0</ele><time>2026-04-06T08:40:06.9Z</time></trkpt><trkpt lat="45.7133867" lon="8.7495601"><ele>290.0</ele><time>2026-04-06T08:40:07.899Z</time></trkpt><trkpt lat="45.7132995" lon="8.7495554"><ele>290.0</ele><time>2026-04-06T08:40:09.898Z</time></trkpt><trkpt lat="45.7132266" lon="8.7496009"><ele>290.0</ele><time>2026-04-06T08:40:11.899Z</time></trkpt><trkpt lat="45.7131396" lon="8.7496482"><ele>290.0</ele><time>2026-04-06T08:40:13.9Z</time></trkpt><trkpt lat="45.71308" lon="8.749614"><ele>290.0</ele><time>2026-04-06T08:40:15.899Z</time></trkpt><trkpt lat="45.7130653" lon="8.7495144"><ele>290.0</ele><time>2026-04-06T08:40:16.899Z</time></trkpt><trkpt lat="45.7130539" lon="8.7494183"><ele>290.0</ele><time>2026-04-06T08:40:17.898Z</time></trkpt><trkpt lat="45.7130519" lon="8.7493267"><ele>290.0</ele><time>2026-04-06T08:40:18.9Z</time></trkpt><trkpt lat="45.713049" lon="8.7492366"><ele>290.0</ele><time>2026-04-06T08:40:20.899Z</time></trkpt><trkpt lat="45.7130027" lon="8.7491677"><ele>290.1666666666667</ele><time>2026-04-06T08:40:23.899Z</time></trkpt><trkpt lat="45.7129312" lon="8.7491536"><ele>290.33333333333337</ele><time>2026-04-06T08:40:26.898Z</time></trkpt><trkpt lat="45.7128738" lon="8.7492024"><ele>290.5</ele><time>2026-04-06T08:40:35.898Z</time></trkpt><trkpt lat="45.7129262" lon="8.7491472"><ele>290.6666666666667</ele><time>2026-04-06T08:40:46.898Z</time></trkpt><trkpt lat="45.7130287" lon="8.7491097"><ele>290.8333333333333</ele><time>2026-04-06T08:47:22.899Z</time></trkpt><trkpt lat="45.713129" lon="8.7491316"><ele>291.0</ele><time>2026-04-06T08:47:24.899Z</time></trkpt><trkpt lat="45.7131923" lon="8.7491609"><ele>291.0</ele><time>2026-04-06T08:47:25.899Z</time></trkpt><trkpt lat="45.7132515" lon="8.7491946"><ele>291.0</ele><time>2026-04-06T08:47:26.898Z</time></trkpt><trkpt lat="45.7133123" lon="8.7492386"><ele>291.0</ele><time>2026-04-06T08:47:27.899Z</time></trkpt><trkpt lat="45.7133809" lon="8.7492699"><ele>291.0</ele><time>2026-04-06T08:47:28.899Z</time></trkpt><trkpt lat="45.713448" lon="8.7492996"><ele>291.0</ele><time>2026-04-06T08:47:29.898Z</time></trkpt><trkpt lat="45.7135213" lon="8.7493003"><ele>291.0</ele><time>2026-04-06T08:47:30.898Z</time></trkpt><trkpt lat="45.7136353" lon="8.7493218"><ele>291.42857142857144</ele><time>2026-04-06T08:47:32.898Z</time></trkpt><trkpt lat="45.713686" lon="8.7492372"><ele>291.85714285714283</ele><time>2026-04-06T08:47:34.899Z</time></trkpt><trkpt lat="45.7136325" lon="8.7491827"><ele>292.2857142857143</ele><time>2026-04-06T08:47:36.899Z</time></trkpt><trkpt lat="45.7135798" lon="8.7490756"><ele>292.7142857142857</ele><time>2026-04-06T08:47:38.899Z</time></trkpt><trkpt lat="45.7136252" lon="8.7490058"><ele>293.1428571428571</ele><time>2026-04-06T08:47:40.898Z</time></trkpt><trkpt lat="45.7136853" lon="8.7489689"><ele>293.57142857142856</ele><time>2026-04-06T08:47:41.899Z</time></trkpt><trkpt lat="45.7137516" lon="8.7489515"><ele>294.0</ele><time>2026-04-06T08:47:42.899Z</time></trkpt><trkpt lat="45.713821" lon="8.7490417"><ele>294.0</ele><time>2026-04-06T08:47:44.898Z</time></trkpt><trkpt lat="45.7138493" lon="8.7491244"><ele>294.0</ele><time>2026-04-06T08:47:45.899Z</time></trkpt><trkpt lat="45.7138849" lon="8.7492007"><ele>294.0</ele><time>2026-04-06T08:47:46.898Z</time></trkpt><trkpt lat="45.7139546" lon="8.7492972"><ele>294.0</ele><time>2026-04-06T08:47:48.899Z</time></trkpt><trkpt lat="45.7139946" lon="8.7491865"><ele>294.0</ele><time>2026-04-06T08:47:51.898Z</time></trkpt><trkpt lat="45.7139913" lon="8.7490339"><ele>294.0</ele><time>2026-04-06T08:47:53.898Z</time></trkpt><trkpt lat="45.7140247" lon="8.7488873"><ele>294.0</ele><time>2026-04-06T08:47:55.899Z</time></trkpt><trkpt lat="45.7140407" lon="8.7487771"><ele>294.0</ele><time>2026-04-06T08:47:57.898Z</time></trkpt><trkpt lat="45.7140739" lon="8.7486451"><ele>294.0</ele><time>2026-04-06T08:47:59.897Z</time></trkpt><trkpt lat="45.7141649" lon="8.7485529"><ele>294.0</ele><time>2026-04-06T08:48:01.898Z</time></trkpt><trkpt lat="45.7141735" lon="8.7484124"><ele>294.0</ele><time>2026-04-06T08:48:04.897Z</time></trkpt><trkpt lat="45.7140974" lon="8.7483611"><ele>294.0</ele><time>2026-04-06T08:48:06.899Z</time></trkpt><trkpt lat="45.7140081" lon="8.7484047"><ele>294.0</ele><time>2026-04-06T08:48:08.899Z</time></trkpt><trkpt lat="45.7139412" lon="8.7485156"><ele>294.0</ele><time>2026-04-06T08:48:10.898Z</time></trkpt><trkpt lat="45.713941" lon="8.7486707"><ele>294.0</ele><time>2026-04-06T08:48:12.898Z</time></trkpt><trkpt lat="45.7138968" lon="8.7487539"><ele>294.0</ele><time>2026-04-06T08:48:14.897Z</time></trkpt><trkpt lat="45.7138225" lon="8.7487983"><ele>294.0</ele><time>2026-04-06T08:48:16.898Z</time></trkpt><trkpt lat="45.7137636" lon="8.7488968"><ele>294.0</ele><time>2026-04-06T08:48:18.898Z</time></trkpt><trkpt lat="45.7136813" lon="8.748924"><ele>294.0</ele><time>2026-04-06T08:48:25.897Z</time></trkpt><trkpt lat="45.7135675" lon="8.7489213"><ele>294.0</ele><time>2026-04-06T08:48:27.898Z</time></trkpt><trkpt lat="45.7134509" lon="8.7488676"><ele>294.0</ele><time>2026-04-06T08:48:29.898Z</time></trkpt><trkpt lat="45.7133774" lon="8.7488052"><ele>293.4</ele><time>2026-04-06T08:48:31.899Z</time></trkpt><trkpt lat="45.7132763" lon="8.7488149"><ele>292.79999999999995</ele><time>2026-04-06T08:48:33.898Z</time></trkpt><trkpt lat="45.7131688" lon="8.7487815"><ele>292.20000000000005</ele><time>2026-04-06T08:48:35.898Z</time></trkpt><trkpt lat="45.7130639" lon="8.748785"><ele>291.6</ele><time>2026-04-06T08:48:37.898Z</time></trkpt><trkpt lat="45.7129568" lon="8.7487807"><ele>291.0</ele><time>2026-04-06T08:48:39.897Z</time></trkpt><trkpt lat="45.7128662" lon="8.7487841"><ele>291.0</ele><time>2026-04-06T08:48:41.898Z</time></trkpt><trkpt lat="45.7128002" lon="8.7487773"><ele>291.0</ele><time>2026-04-06T08:48:43.897Z</time></trkpt><trkpt lat="45.7127369" lon="8.748713"><ele>291.0</ele><time>2026-04-06T08:48:45.898Z</time></trkpt><trkpt lat="45.7127137" lon="8.7486218"><ele>291.0</ele><time>2026-04-06T08:48:47.898Z</time></trkpt><trkpt lat="45.7127453" lon="8.7485417"><ele>291.0</ele><time>2026-04-06T08:48:49.899Z</time></trkpt><trkpt lat="45.7128179" lon="8.7485818"><ele>291.0</ele><time>2026-04-06T08:48:50.898Z</time></trkpt><trkpt lat="45.7128954" lon="8.7485507"><ele>291.0</ele><time>2026-04-06T08:48:52.899Z</time></trkpt><trkpt lat="45.7128324" lon="8.7484592"><ele>291.0</ele><time>2026-04-06T08:48:56.899Z</time></trkpt><trkpt lat="45.7127686" lon="8.7484739"><ele>291.0</ele><time>2026-04-06T08:48:57.899Z</time></trkpt><trkpt lat="45.7127161" lon="8.7485303"><ele>291.0</ele><time>2026-04-06T08:48:58.898Z</time></trkpt><trkpt lat="45.7126763" lon="8.7486017"><ele>291.0</ele><time>2026-04-06T08:48:59.899Z</time></trkpt><trkpt lat="45.7126768" lon="8.7487275"><ele>291.0</ele><time>2026-04-06T08:49:01.899Z</time></trkpt><trkpt lat="45.7127424" lon="8.7488773"><ele>291.0</ele><time>2026-04-06T08:49:03.898Z</time></trkpt><trkpt lat="45.7127856" lon="8.7489493"><ele>291.0</ele><time>2026-04-06T08:49:04.899Z</time></trkpt><trkpt lat="45.7128531" lon="8.7490737"><ele>291.0</ele><time>2026-04-06T08:49:06.898Z</time></trkpt><trkpt lat="45.7129032" lon="8.749146"><ele>291.0</ele><time>2026-04-06T08:49:09.896Z</time></trkpt><trkpt lat="45.7130054" lon="8.7491121"><ele>291.0</ele><time>2026-04-06T08:49:10.898Z</time></trkpt><trkpt lat="45.7130741" lon="8.749111"><ele>291.0</ele><time>2026-04-06T08:49:11.897Z</time></trkpt><trkpt lat="45.7131368" lon="8.7491231"><ele>291.0</ele><time>2026-04-06T08:49:12.898Z</time></trkpt><trkpt lat="45.713202" lon="8.7491488"><ele>291.0</ele><time>2026-04-06T08:49:13.899Z</time></trkpt><trkpt lat="45.7133194" lon="8.7492289"><ele>291.0</ele><time>2026-04-06T08:49:15.898Z</time></trkpt><trkpt lat="45.7133812" lon="8.7492628"><ele>291.0</ele><time>2026-04-06T08:49:16.899Z</time></trkpt><trkpt lat="45.7135033" lon="8.7493005"><ele>291.0</ele><time>2026-04-06T08:49:18.898Z</time></trkpt><trkpt lat="45.7135684" lon="8.7493135"><ele>291.0</ele><time>2026-04-06T08:49:19.898Z</time></trkpt><trkpt lat="45.7136739" lon="8.7492899"><ele>291.0</ele><time>2026-04-06T08:49:21.899Z</time></trkpt><trkpt lat="45.7136081" lon="8.74919"><ele>291.0</ele><time>2026-04-06T08:49:24.898Z</time></trkpt><trkpt lat="45.7135652" lon="8.7490592"><ele>291.0</ele><time>2026-04-06T08:49:26.899Z</time></trkpt><trkpt lat="45.7136681" lon="8.7489821"><ele>291.0</ele><time>2026-04-06T08:49:28.898Z</time></trkpt><trkpt lat="45.7137796" lon="8.7489918"><ele>291.0</ele><time>2026-04-06T08:49:30.898Z</time></trkpt><trkpt lat="45.7138572" lon="8.7491382"><ele>291.5</ele><time>2026-04-06T08:49:32.898Z</time></trkpt><trkpt lat="45.713903" lon="8.749211"><ele>292.0</ele><time>2026-04-06T08:49:33.898Z</time></trkpt><trkpt lat="45.7139622" lon="8.749309"><ele>292.5</ele><time>2026-04-06T08:49:35.897Z</time></trkpt><trkpt lat="45.7139939" lon="8.7492129"><ele>293.0</ele><time>2026-04-06T08:49:37.898Z</time></trkpt><trkpt lat="45.7139704" lon="8.7491237"><ele>293.5</ele><time>2026-04-06T08:49:38.899Z</time></trkpt><trkpt lat="45.7140084" lon="8.7489513"><ele>294.0</ele><time>2026-04-06T08:49:40.898Z</time></trkpt><trkpt lat="45.7140303" lon="8.748864"><ele>294.0</ele><time>2026-04-06T08:49:41.897Z</time></trkpt><trkpt lat="45.7140584" lon="8.7487003"><ele>294.0</ele><time>2026-04-06T08:49:43.897Z</time></trkpt><trkpt lat="45.7141227" lon="8.7485898"><ele>294.0</ele><time>2026-04-06T08:49:45.898Z</time></trkpt><trkpt lat="45.7141734" lon="8.7484538"><ele>294.0</ele><time>2026-04-06T08:49:47.899Z</time></trkpt><trkpt lat="45.7141344" lon="8.7483452"><ele>294.0</ele><time>2026-04-06T08:49:49.898Z</time></trkpt><trkpt lat="45.7140498" lon="8.7483484"><ele>294.0</ele><time>2026-04-06T08:49:51.898Z</time></trkpt><trkpt lat="45.7139572" lon="8.7484345"><ele>294.0</ele><time>2026-04-06T08:49:53.898Z</time></trkpt><trkpt lat="45.713923" lon="8.748564"><ele>294.0</ele><time>2026-04-06T08:49:55.898Z</time></trkpt><trkpt lat="45.7139094" lon="8.7486938"><ele>294.0</ele><time>2026-04-06T08:49:57.898Z</time></trkpt><trkpt lat="45.7138497" lon="8.7487789"><ele>294.0</ele><time>2026-04-06T08:49:59.897Z</time></trkpt><trkpt lat="45.7137739" lon="8.7488769"><ele>294.0</ele><time>2026-04-06T08:50:01.898Z</time></trkpt><trkpt lat="45.7136622" lon="8.7489371"><ele>294.0</ele><time>2026-04-06T08:50:03.898Z</time></trkpt><trkpt lat="45.7135897" lon="8.7489265"><ele>294.0</ele><time>2026-04-06T08:50:04.897Z</time></trkpt><trkpt lat="45.7135292" lon="8.7488817"><ele>294.0</ele><time>2026-04-06T08:50:05.897Z</time></trkpt><trkpt lat="45.7134663" lon="8.7488429"><ele>294.0</ele><time>2026-04-06T08:50:06.898Z</time></trkpt><trkpt lat="45.7133675" lon="8.7487981"><ele>294.0</ele><time>2026-04-06T08:50:08.898Z</time></trkpt><trkpt lat="45.7132717" lon="8.7487973"><ele>293.4</ele><time>2026-04-06T08:50:10.897Z</time></trkpt><trkpt lat="45.7131725" lon="8.7487873"><ele>292.79999999999995</ele><time>2026-04-06T08:50:12.898Z</time></trkpt><trkpt lat="45.7130643" lon="8.7487867"><ele>292.20000000000005</ele><time>2026-04-06T08:50:14.898Z</time></trkpt><trkpt lat="45.71295" lon="8.748782"><ele>291.6</ele><time>2026-04-06T08:50:16.897Z</time></trkpt><trkpt lat="45.7128795" lon="8.7487886"><ele>291.0</ele><time>2026-04-06T08:50:17.898Z</time></trkpt><trkpt lat="45.7127992" lon="8.7487802"><ele>291.0</ele><time>2026-04-06T08:50:19.897Z</time></trkpt><trkpt lat="45.7127441" lon="8.7487099"><ele>291.0</ele><time>2026-04-06T08:50:21.898Z</time></trkpt><trkpt lat="45.712719" lon="8.748623"><ele>291.0</ele><time>2026-04-06T08:50:23.898Z</time></trkpt><trkpt lat="45.7127987" lon="8.748553"><ele>291.0</ele><time>2026-04-06T08:50:26.899Z</time></trkpt><trkpt lat="45.7128835" lon="8.7485394"><ele>291.0</ele><time>2026-04-06T08:50:28.898Z</time></trkpt><trkpt lat="45.7127884" lon="8.7484753"><ele>291.0</ele><time>2026-04-06T08:50:32.898Z</time></trkpt><trkpt lat="45.7127459" lon="8.7485527"><ele>291.0</ele><time>2026-04-06T08:50:33.898Z</time></trkpt><trkpt lat="45.7126915" lon="8.7486095"><ele>291.0</ele><time>2026-04-06T08:50:34.898Z</time></trkpt><trkpt lat="45.7127366" lon="8.7487519"><ele>291.0</ele><time>2026-04-06T08:50:37.896Z</time></trkpt><trkpt lat="45.7127797" lon="8.7488923"><ele>291.0</ele><time>2026-04-06T08:50:39.899Z</time></trkpt><trkpt lat="45.7128329" lon="8.7490022"><ele>291.0</ele><time>2026-04-06T08:50:41.898Z</time></trkpt><trkpt lat="45.7128462" lon="8.7490914"><ele>291.0</ele><time>2026-04-06T08:50:43.897Z</time></trkpt><trkpt lat="45.7129014" lon="8.7491378"><ele>291.0</ele><time>2026-04-06T08:50:46.898Z</time></trkpt><trkpt lat="45.7130302" lon="8.7491664"><ele>291.0</ele><time>2026-04-06T08:53:45.898Z</time></trkpt><trkpt lat="45.7130512" lon="8.7492865"><ele>291.0</ele><time>2026-04-06T08:53:48.899Z</time></trkpt><trkpt lat="45.7130509" lon="8.7494248"><ele>291.0</ele><time>2026-04-06T08:53:50.899Z</time></trkpt><trkpt lat="45.7130127" lon="8.7495669"><ele>291.0</ele><time>2026-04-06T08:53:52.898Z</time></trkpt><trkpt lat="45.7129824" lon="8.749656"><ele>290.8</ele><time>2026-04-06T08:53:54.898Z</time></trkpt><trkpt lat="45.7130244" lon="8.7497727"><ele>290.6</ele><time>2026-04-06T08:53:56.897Z</time></trkpt><trkpt lat="45.713104" lon="8.7499231"><ele>290.4</ele><time>2026-04-06T08:53:58.897Z</time></trkpt><trkpt lat="45.713129" lon="8.7500077"><ele>290.2</ele><time>2026-04-06T08:53:59.897Z</time></trkpt><trkpt lat="45.713168" lon="8.7501383"><ele>290.0</ele><time>2026-04-06T08:54:01.897Z</time></trkpt><trkpt lat="45.7131436" lon="8.7502603"><ele>290.0</ele><time>2026-04-06T08:54:04.899Z</time></trkpt><trkpt lat="45.7130661" lon="8.7503367"><ele>290.0</ele><time>2026-04-06T08:54:06.897Z</time></trkpt><trkpt lat="45.71301" lon="8.7503778"><ele>290.0</ele><time>2026-04-06T08:54:07.897Z</time></trkpt><trkpt lat="45.712956" lon="8.7504245"><ele>290.0</ele><time>2026-04-06T08:54:08.899Z</time></trkpt><trkpt lat="45.7128658" lon="8.7505416"><ele>290.0</ele><time>2026-04-06T08:54:10.896Z</time></trkpt><trkpt lat="45.7127973" lon="8.7505848"><ele>290.0</ele><time>2026-04-06T08:54:12.896Z</time></trkpt><trkpt lat="45.712737" lon="8.7506215"><ele>288.1666666666667</ele><time>2026-04-06T08:54:13.899Z</time></trkpt><trkpt lat="45.7126689" lon="8.7506696"><ele>286.33333333333337</ele><time>2026-04-06T08:54:14.899Z</time></trkpt><trkpt lat="45.7125881" lon="8.7507226"><ele>284.5</ele><time>2026-04-06T08:54:15.897Z</time></trkpt><trkpt lat="45.7124996" lon="8.7507878"><ele>282.6666666666667</ele><time>2026-04-06T08:54:16.897Z</time></trkpt><trkpt lat="45.7124142" lon="8.7508395"><ele>280.8333333333333</ele><time>2026-04-06T08:54:17.899Z</time></trkpt><trkpt lat="45.7123421" lon="8.7508913"><ele>279.0</ele><time>2026-04-06T08:54:18.898Z</time></trkpt><trkpt lat="45.7122683" lon="8.7509459"><ele>279.0</ele><time>2026-04-06T08:54:19.897Z</time></trkpt><trkpt lat="45.7121972" lon="8.750994"><ele>279.0</ele><time>2026-04-06T08:54:20.898Z</time></trkpt><trkpt lat="45.7121408" lon="8.7511095"><ele>279.0</ele><time>2026-04-06T08:54:22.897Z</time></trkpt><trkpt lat="45.712131" lon="8.751201"><ele>279.0</ele><time>2026-04-06T08:54:28.898Z</time></trkpt><trkpt lat="45.7120382" lon="8.7511659"><ele>279.0</ele><time>2026-04-06T08:54:32.898Z</time></trkpt><trkpt lat="45.7119553" lon="8.7512152"><ele>279.0</ele><time>2026-04-06T08:54:34.896Z</time></trkpt><trkpt lat="45.7118942" lon="8.7512651"><ele>279.1666666666667</ele><time>2026-04-06T08:54:37.897Z</time></trkpt><trkpt lat="45.7119075" lon="8.7513717"><ele>279.3333333333333</ele><time>2026-04-06T08:54:56.899Z</time></trkpt><trkpt lat="45.7118821" lon="8.7514702"><ele>279.5</ele><time>2026-04-06T08:55:00.896Z</time></trkpt><trkpt lat="45.7117984" lon="8.7514607"><ele>279.66666666666663</ele><time>2026-04-06T08:55:03.898Z</time></trkpt><trkpt lat="45.711727" lon="8.7514449"><ele>279.8333333333333</ele><time>2026-04-06T08:55:05.898Z</time></trkpt><trkpt lat="45.711613" lon="8.7514949"><ele>280.0</ele><time>2026-04-06T08:55:07.896Z</time></trkpt><trkpt lat="45.7114957" lon="8.7515465"><ele>280.2</ele><time>2026-04-06T08:55:09.898Z</time></trkpt><trkpt lat="45.7114292" lon="8.7516068"><ele>280.4</ele><time>2026-04-06T08:55:10.899Z</time></trkpt><trkpt lat="45.7113199" lon="8.7517066"><ele>280.6</ele><time>2026-04-06T08:55:12.898Z</time></trkpt><trkpt lat="45.7112689" lon="8.7517601"><ele>280.8</ele><time>2026-04-06T08:55:13.897Z</time></trkpt><trkpt lat="45.7111771" lon="8.7518267"><ele>281.0</ele><time>2026-04-06T08:55:15.898Z</time></trkpt><trkpt lat="45.7111263" lon="8.7519079"><ele>282.0</ele><time>2026-04-06T08:55:17.897Z</time></trkpt><trkpt lat="45.7111286" lon="8.7520653"><ele>283.0</ele><time>2026-04-06T08:55:19.898Z</time></trkpt><trkpt lat="45.7111262" lon="8.7521641"><ele>284.0</ele><time>2026-04-06T08:55:20.898Z</time></trkpt><trkpt lat="45.7111197" lon="8.752279"><ele>285.0</ele><time>2026-04-06T08:55:21.898Z</time></trkpt><trkpt lat="45.7111108" lon="8.7523928"><ele>286.0</ele><time>2026-04-06T08:55:22.897Z</time></trkpt><trkpt lat="45.7110766" lon="8.7525121"><ele>287.0</ele><time>2026-04-06T08:55:23.899Z</time></trkpt><trkpt lat="45.7110531" lon="8.7526207"><ele>288.0</ele><time>2026-04-06T08:55:24.897Z</time></trkpt><trkpt lat="45.7110262" lon="8.7527218"><ele>289.0</ele><time>2026-04-06T08:55:25.897Z</time></trkpt><trkpt lat="45.711028" lon="8.7528406"><ele>290.0</ele><time>2026-04-06T08:55:27.898Z</time></trkpt><trkpt lat="45.7110989" lon="8.7529172"><ele>291.0</ele><time>2026-04-06T08:55:29.897Z</time></trkpt><trkpt lat="45.7111702" lon="8.7529692"><ele>292.0</ele><time>2026-04-06T08:55:30.897Z</time></trkpt><trkpt lat="45.7112251" lon="8.7530218"><ele>293.0</ele><time>2026-04-06T08:55:31.897Z</time></trkpt><trkpt lat="45.7112903" lon="8.7530751"><ele>293.0</ele><time>2026-04-06T08:55:35.898Z</time></trkpt><trkpt lat="45.7113302" lon="8.753153"><ele>293.0</ele><time>2026-04-06T08:55:40.898Z</time></trkpt><trkpt lat="45.7114034" lon="8.7532314"><ele>293.0</ele><time>2026-04-06T08:55:42.898Z</time></trkpt><trkpt lat="45.7115187" lon="8.7532975"><ele>293.0</ele><time>2026-04-06T08:55:44.898Z</time></trkpt><trkpt lat="45.7116108" lon="8.7533034"><ele>293.0</ele><time>2026-04-06T08:55:46.896Z</time></trkpt><trkpt lat="45.7117372" lon="8.7532223"><ele>293.0</ele><time>2026-04-06T08:55:48.898Z</time></trkpt><trkpt lat="45.7117788" lon="8.7531404"><ele>293.0</ele><time>2026-04-06T08:55:49.899Z</time></trkpt><trkpt lat="45.7118014" lon="8.7530536"><ele>293.0</ele><time>2026-04-06T08:55:50.898Z</time></trkpt><trkpt lat="45.7118178" lon="8.7529519"><ele>293.0</ele><time>2026-04-06T08:55:51.899Z</time></trkpt><trkpt lat="45.7118685" lon="8.7527959"><ele>293.0</ele><time>2026-04-06T08:55:53.898Z</time></trkpt><trkpt lat="45.7119105" lon="8.7527133"><ele>293.0</ele><time>2026-04-06T08:55:54.896Z</time></trkpt><trkpt lat="45.7119691" lon="8.752657"><ele>288.75</ele><time>2026-04-06T08:55:55.897Z</time></trkpt><trkpt lat="45.7120792" lon="8.7526746"><ele>284.5</ele><time>2026-04-06T08:55:56.896Z</time></trkpt><trkpt lat="45.7121125" lon="8.7524991"><ele>280.25</ele><time>2026-04-06T08:55:58.897Z</time></trkpt><trkpt lat="45.7121985" lon="8.7524016"><ele>276.0</ele><time>2026-04-06T08:56:00.897Z</time></trkpt><trkpt lat="45.7122924" lon="8.7523064"><ele>276.0</ele><time>2026-04-06T08:56:02.898Z</time></trkpt><trkpt lat="45.7123632" lon="8.7522217"><ele>276.0</ele><time>2026-04-06T08:56:03.899Z</time></trkpt><trkpt lat="45.712433" lon="8.7521458"><ele>276.0</ele><time>2026-04-06T08:56:04.897Z</time></trkpt><trkpt lat="45.7124998" lon="8.7520614"><ele>276.0</ele><time>2026-04-06T08:56:05.897Z</time></trkpt><trkpt lat="45.7125436" lon="8.7519652"><ele>276.0</ele><time>2026-04-06T08:56:06.896Z</time></trkpt><trkpt lat="45.712581" lon="8.7518739"><ele>276.0</ele><time>2026-04-06T08:56:07.897Z</time></trkpt><trkpt lat="45.7126297" lon="8.7518125"><ele>276.6666666666667</ele><time>2026-04-06T08:56:08.897Z</time></trkpt><trkpt lat="45.7126841" lon="8.7517623"><ele>277.3333333333333</ele><time>2026-04-06T08:56:09.897Z</time></trkpt><trkpt lat="45.7127651" lon="8.7517417"><ele>278.0</ele><time>2026-04-06T08:56:10.898Z</time></trkpt><trkpt lat="45.712824" lon="8.7517098"><ele>278.66666666666663</ele><time>2026-04-06T08:56:11.897Z</time></trkpt><trkpt lat="45.7129008" lon="8.7516601"><ele>279.3333333333333</ele><time>2026-04-06T08:56:13.898Z</time></trkpt><trkpt lat="45.712968" lon="8.7516778"><ele>280.0</ele><time>2026-04-06T08:56:15.898Z</time></trkpt><trkpt lat="45.7130647" lon="8.7517496"><ele>281.4</ele><time>2026-04-06T08:56:17.897Z</time></trkpt><trkpt lat="45.7131294" lon="8.7518928"><ele>282.8</ele><time>2026-04-06T08:56:19.897Z</time></trkpt><trkpt lat="45.7131589" lon="8.7519921"><ele>284.2</ele><time>2026-04-06T08:56:20.897Z</time></trkpt><trkpt lat="45.7131909" lon="8.7521007"><ele>285.6</ele><time>2026-04-06T08:56:21.899Z</time></trkpt><trkpt lat="45.713212" lon="8.7522187"><ele>287.0</ele><time>2026-04-06T08:56:22.899Z</time></trkpt><trkpt lat="45.7132341" lon="8.7523572"><ele>287.0</ele><time>2026-04-06T08:56:23.897Z</time></trkpt><trkpt lat="45.7132466" lon="8.7524927"><ele>287.0</ele><time>2026-04-06T08:56:24.896Z</time></trkpt><trkpt lat="45.7132591" lon="8.7526276"><ele>287.0</ele><time>2026-04-06T08:56:25.897Z</time></trkpt><trkpt lat="45.7132757" lon="8.75274"><ele>287.0</ele><time>2026-04-06T08:56:26.897Z</time></trkpt><trkpt lat="45.7132963" lon="8.7528611"><ele>287.0</ele><time>2026-04-06T08:56:27.897Z</time></trkpt><trkpt lat="45.7133248" lon="8.7529688"><ele>287.0</ele><time>2026-04-06T08:56:28.897Z</time></trkpt><trkpt lat="45.7133806" lon="8.7530739"><ele>286.8</ele><time>2026-04-06T08:56:29.897Z</time></trkpt><trkpt lat="45.7134269" lon="8.7531835"><ele>286.6</ele><time>2026-04-06T08:56:30.898Z</time></trkpt><trkpt lat="45.7134854" lon="8.7532973"><ele>286.40000000000003</ele><time>2026-04-06T08:56:31.897Z</time></trkpt><trkpt lat="45.7135569" lon="8.7534022"><ele>286.2</ele><time>2026-04-06T08:56:32.897Z</time></trkpt><trkpt lat="45.71363" lon="8.7534777"><ele>286.0</ele><time>2026-04-06T08:56:33.897Z</time></trkpt><trkpt lat="45.7137052" lon="8.7535945"><ele>286.0</ele><time>2026-04-06T08:56:35.897Z</time></trkpt><trkpt lat="45.7137295" lon="8.7537165"><ele>286.0</ele><time>2026-04-06T08:56:37.897Z</time></trkpt><trkpt lat="45.7138219" lon="8.7536911"><ele>286.0</ele><time>2026-04-06T08:56:41.898Z</time></trkpt><trkpt lat="45.7139239" lon="8.7536835"><ele>286.0</ele><time>2026-04-06T08:56:44.898Z</time></trkpt><trkpt lat="45.7140153" lon="8.7536974"><ele>286.0</ele><time>2026-04-06T08:56:46.897Z</time></trkpt><trkpt lat="45.7141255" lon="8.7537174"><ele>286.0</ele><time>2026-04-06T08:56:49.897Z</time></trkpt><trkpt lat="45.7142086" lon="8.7537238"><ele>286.0</ele><time>2026-04-06T08:56:50.899Z</time></trkpt><trkpt lat="45.7142946" lon="8.7537715"><ele>286.0</ele><time>2026-04-06T08:56:51.897Z</time></trkpt><trkpt lat="45.7143724" lon="8.7538126"><ele>286.0</ele><time>2026-04-06T08:56:52.897Z</time></trkpt><trkpt lat="45.7144487" lon="8.7538534"><ele>286.0</ele><time>2026-04-06T08:56:53.898Z</time></trkpt><trkpt lat="45.7145461" lon="8.7539167"><ele>286.0</ele><time>2026-04-06T08:56:54.897Z</time></trkpt><trkpt lat="45.714667" lon="8.7539643"><ele>286.5</ele><time>2026-04-06T08:56:55.897Z</time></trkpt><trkpt lat="45.7147822" lon="8.7539931"><ele>287.0</ele><time>2026-04-06T08:56:56.897Z</time></trkpt><trkpt lat="45.7149218" lon="8.7540164"><ele>287.5</ele><time>2026-04-06T08:56:57.899Z</time></trkpt><trkpt lat="45.7150829" lon="8.7540405"><ele>288.0</ele><time>2026-04-06T08:56:58.898Z</time></trkpt><trkpt lat="45.7152384" lon="8.7540764"><ele>288.0</ele><time>2026-04-06T08:56:59.897Z</time></trkpt><trkpt lat="45.715374" lon="8.754116"><ele>288.0</ele><time>2026-04-06T08:57:00.898Z</time></trkpt><trkpt lat="45.7155032" lon="8.7541451"><ele>288.0</ele><time>2026-04-06T08:57:01.896Z</time></trkpt><trkpt lat="45.7156231" lon="8.754164"><ele>288.0</ele><time>2026-04-06T08:57:02.897Z</time></trkpt><trkpt lat="45.7157149" lon="8.7541983"><ele>288.0</ele><time>2026-04-06T08:57:03.897Z</time></trkpt><trkpt lat="45.7158102" lon="8.7542604"><ele>288.0</ele><time>2026-04-06T08:57:04.897Z</time></trkpt><trkpt lat="45.7158704" lon="8.7543222"><ele>288.0</ele><time>2026-04-06T08:57:05.897Z</time></trkpt><trkpt lat="45.7159214" lon="8.7544418"><ele>288.0</ele><time>2026-04-06T08:57:07.898Z</time></trkpt><trkpt lat="45.7159708" lon="8.7545094"><ele>288.0</ele><time>2026-04-06T08:57:09.897Z</time></trkpt><trkpt lat="45.7160364" lon="8.7545339"><ele>288.0</ele><time>2026-04-06T08:57:11.898Z</time></trkpt><trkpt lat="45.7161244" lon="8.7546267"><ele>287.5</ele><time>2026-04-06T08:57:13.897Z</time></trkpt><trkpt lat="45.7161863" lon="8.7546678"><ele>287.0</ele><time>2026-04-06T08:57:14.897Z</time></trkpt><trkpt lat="45.7162469" lon="8.7547091"><ele>286.5</ele><time>2026-04-06T08:57:15.898Z</time></trkpt><trkpt lat="45.7163041" lon="8.7547482"><ele>286.0</ele><time>2026-04-06T08:57:16.897Z</time></trkpt><trkpt lat="45.7163556" lon="8.7548576"><ele>285.5</ele><time>2026-04-06T08:57:33.898Z</time></trkpt><trkpt lat="45.7163027" lon="8.754946"><ele>285.0</ele><time>2026-04-06T08:57:35.897Z</time></trkpt><trkpt lat="45.7162301" lon="8.7550163"><ele>285.0</ele><time>2026-04-06T08:57:36.897Z</time></trkpt><trkpt lat="45.7161374" lon="8.7550955"><ele>285.0</ele><time>2026-04-06T08:57:37.898Z</time></trkpt><trkpt lat="45.7160316" lon="8.7551742"><ele>285.0</ele><time>2026-04-06T08:57:38.897Z</time></trkpt><trkpt lat="45.7159165" lon="8.7552425"><ele>285.0</ele><time>2026-04-06T08:57:39.898Z</time></trkpt><trkpt lat="45.7157978" lon="8.7552944"><ele>285.5</ele><time>2026-04-06T08:57:40.898Z</time></trkpt><trkpt lat="45.715674" lon="8.7553191"><ele>286.0</ele><time>2026-04-06T08:57:41.897Z</time></trkpt><trkpt lat="45.7155391" lon="8.755325"><ele>286.5</ele><time>2026-04-06T08:57:42.898Z</time></trkpt><trkpt lat="45.7153831" lon="8.7553214"><ele>287.0</ele><time>2026-04-06T08:57:43.898Z</time></trkpt><trkpt lat="45.7152227" lon="8.7553053"><ele>287.5</ele><time>2026-04-06T08:57:44.898Z</time></trkpt><trkpt lat="45.7150661" lon="8.7553004"><ele>288.0</ele><time>2026-04-06T08:57:45.897Z</time></trkpt><trkpt lat="45.7149302" lon="8.7552868"><ele>288.5</ele><time>2026-04-06T08:57:46.896Z</time></trkpt><trkpt lat="45.7147967" lon="8.75528"><ele>289.0</ele><time>2026-04-06T08:57:47.898Z</time></trkpt><trkpt lat="45.7146763" lon="8.7552711"><ele>289.0</ele><time>2026-04-06T08:57:48.898Z</time></trkpt><trkpt lat="45.7145577" lon="8.7552704"><ele>289.0</ele><time>2026-04-06T08:57:49.898Z</time></trkpt><trkpt lat="45.7144491" lon="8.7552639"><ele>289.0</ele><time>2026-04-06T08:57:50.897Z</time></trkpt><trkpt lat="45.714374" lon="8.7552589"><ele>289.0</ele><time>2026-04-06T08:57:51.897Z</time></trkpt><trkpt lat="45.7143085" lon="8.7552727"><ele>289.0</ele><time>2026-04-06T08:57:52.898Z</time></trkpt><trkpt lat="45.7142933" lon="8.7553948"><ele>290.0</ele><time>2026-04-06T08:57:54.898Z</time></trkpt><trkpt lat="45.7143089" lon="8.7555255"><ele>291.0</ele><time>2026-04-06T08:57:56.898Z</time></trkpt><trkpt lat="45.7143137" lon="8.7556485"><ele>292.0</ele><time>2026-04-06T08:57:58.896Z</time></trkpt><trkpt lat="45.714301" lon="8.7557424"><ele>293.0</ele><time>2026-04-06T08:58:00.897Z</time></trkpt><trkpt lat="45.7143079" lon="8.7558637"><ele>294.0</ele><time>2026-04-06T08:58:03.898Z</time></trkpt><trkpt lat="45.7143195" lon="8.7559739"><ele>295.0</ele><time>2026-04-06T08:58:06.898Z</time></trkpt><trkpt lat="45.7143258" lon="8.7560774"><ele>295.6</ele><time>2026-04-06T08:58:08.898Z</time></trkpt><trkpt lat="45.7143447" lon="8.7561721"><ele>296.2</ele><time>2026-04-06T08:58:10.897Z</time></trkpt><trkpt lat="45.714371" lon="8.7563031"><ele>296.8</ele><time>2026-04-06T08:58:12.897Z</time></trkpt><trkpt lat="45.7143816" lon="8.7564502"><ele>297.4</ele><time>2026-04-06T08:58:14.898Z</time></trkpt><trkpt lat="45.7143699" lon="8.7565839"><ele>298.0</ele><time>2026-04-06T08:58:16.897Z</time></trkpt><trkpt lat="45.7144351" lon="8.7566947"><ele>298.0</ele><time>2026-04-06T08:58:18.898Z</time></trkpt><trkpt lat="45.7145126" lon="8.7568203"><ele>298.0</ele><time>2026-04-06T08:58:20.897Z</time></trkpt><trkpt lat="45.7145113" lon="8.7569829"><ele>298.0</ele><time>2026-04-06T08:58:22.897Z</time></trkpt><trkpt lat="45.7144457" lon="8.7570984"><ele>298.0</ele><time>2026-04-06T08:58:24.898Z</time></trkpt><trkpt lat="45.7143422" lon="8.7570509"><ele>298.0</ele><time>2026-04-06T08:58:26.898Z</time></trkpt><trkpt lat="45.7142714" lon="8.7570346"><ele>298.4</ele><time>2026-04-06T08:58:29.898Z</time></trkpt><trkpt lat="45.7142114" lon="8.7571964"><ele>298.8</ele><time>2026-04-06T08:58:31.898Z</time></trkpt><trkpt lat="45.7141992" lon="8.7573022"><ele>299.2</ele><time>2026-04-06T08:58:32.898Z</time></trkpt><trkpt lat="45.7141781" lon="8.7573987"><ele>299.6</ele><time>2026-04-06T08:58:33.898Z</time></trkpt><trkpt lat="45.7141306" lon="8.7575155"><ele>300.0</ele><time>2026-04-06T08:58:34.898Z</time></trkpt><trkpt lat="45.7140787" lon="8.7576244"><ele>300.6666666666667</ele><time>2026-04-06T08:58:35.897Z</time></trkpt><trkpt lat="45.7140554" lon="8.7577221"><ele>301.3333333333333</ele><time>2026-04-06T08:58:36.897Z</time></trkpt><trkpt lat="45.7140388" lon="8.7578112"><ele>302.0</ele><time>2026-04-06T08:58:37.898Z</time></trkpt><trkpt lat="45.714044" lon="8.7579115"><ele>302.66666666666663</ele><time>2026-04-06T08:58:38.898Z</time></trkpt><trkpt lat="45.7140186" lon="8.7581055"><ele>303.3333333333333</ele><time>2026-04-06T08:58:40.898Z</time></trkpt><trkpt lat="45.7140038" lon="8.7582225"><ele>304.0</ele><time>2026-04-06T08:58:41.898Z</time></trkpt><trkpt lat="45.7139998" lon="8.7583328"><ele>304.0</ele><time>2026-04-06T08:58:42.898Z</time></trkpt><trkpt lat="45.7140184" lon="8.7585039"><ele>304.0</ele><time>2026-04-06T08:58:44.899Z</time></trkpt><trkpt lat="45.7140835" lon="8.7586217"><ele>304.0</ele><time>2026-04-06T08:58:46.897Z</time></trkpt><trkpt lat="45.7141951" lon="8.7586425"><ele>304.0</ele><time>2026-04-06T08:58:48.897Z</time></trkpt><trkpt lat="45.7142654" lon="8.7586529"><ele>304.0</ele><time>2026-04-06T08:58:50.897Z</time></trkpt><trkpt lat="45.7143545" lon="8.7586866"><ele>305.4</ele><time>2026-04-06T08:58:59.897Z</time></trkpt><trkpt lat="45.7144925" lon="8.7587182"><ele>306.79999999999995</ele><time>2026-04-06T08:59:01.897Z</time></trkpt><trkpt lat="45.7145786" lon="8.7587577"><ele>308.20000000000005</ele><time>2026-04-06T08:59:02.898Z</time></trkpt><trkpt lat="45.714646" lon="8.7587998"><ele>309.6</ele><time>2026-04-06T08:59:03.898Z</time></trkpt><trkpt lat="45.7147634" lon="8.7587938"><ele>311.0</ele><time>2026-04-06T08:59:05.897Z</time></trkpt><trkpt lat="45.7148528" lon="8.7588476"><ele>311.0</ele><time>2026-04-06T08:59:07.898Z</time></trkpt><trkpt lat="45.7148824" lon="8.7590183"><ele>311.0</ele><time>2026-04-06T08:59:09.898Z</time></trkpt><trkpt lat="45.7148808" lon="8.759174"><ele>311.0</ele><time>2026-04-06T08:59:10.898Z</time></trkpt><trkpt lat="45.7148849" lon="8.7593629"><ele>311.0</ele><time>2026-04-06T08:59:11.898Z</time></trkpt><trkpt lat="45.714879" lon="8.759556"><ele>311.0</ele><time>2026-04-06T08:59:12.897Z</time></trkpt><trkpt lat="45.7148788" lon="8.7597254"><ele>311.0</ele><time>2026-04-06T08:59:13.897Z</time></trkpt><trkpt lat="45.7148796" lon="8.7598928"><ele>311.0</ele><time>2026-04-06T08:59:14.897Z</time></trkpt><trkpt lat="45.7149138" lon="8.7600211"><ele>311.0</ele><time>2026-04-06T08:59:15.897Z</time></trkpt><trkpt lat="45.7149413" lon="8.7601569"><ele>311.0</ele><time>2026-04-06T08:59:16.898Z</time></trkpt><trkpt lat="45.7149883" lon="8.7602792"><ele>310.8</ele><time>2026-04-06T08:59:17.897Z</time></trkpt><trkpt lat="45.7150179" lon="8.7603857"><ele>310.6</ele><time>2026-04-06T08:59:18.897Z</time></trkpt><trkpt lat="45.715044" lon="8.7605092"><ele>310.4</ele><time>2026-04-06T08:59:19.898Z</time></trkpt><trkpt lat="45.7150505" lon="8.7606518"><ele>310.2</ele><time>2026-04-06T08:59:20.897Z</time></trkpt><trkpt lat="45.7150592" lon="8.7607794"><ele>310.0</ele><time>2026-04-06T08:59:21.898Z</time></trkpt><trkpt lat="45.7150928" lon="8.7609108"><ele>310.0</ele><time>2026-04-06T08:59:22.899Z</time></trkpt><trkpt lat="45.7151385" lon="8.7610182"><ele>310.0</ele><time>2026-04-06T08:59:23.898Z</time></trkpt><trkpt lat="45.7152031" lon="8.7611338"><ele>310.0</ele><time>2026-04-06T08:59:24.897Z</time></trkpt><trkpt lat="45.7152668" lon="8.7612622"><ele>310.0</ele><time>2026-04-06T08:59:25.898Z</time></trkpt><trkpt lat="45.7153457" lon="8.7613848"><ele>310.0</ele><time>2026-04-06T08:59:26.897Z</time></trkpt><trkpt lat="45.7154433" lon="8.7615122"><ele>311.25</ele><time>2026-04-06T08:59:27.897Z</time></trkpt><trkpt lat="45.7155395" lon="8.7616077"><ele>312.5</ele><time>2026-04-06T08:59:28.897Z</time></trkpt><trkpt lat="45.7156474" lon="8.7617345"><ele>313.75</ele><time>2026-04-06T08:59:29.897Z</time></trkpt><trkpt lat="45.7157634" lon="8.7618494"><ele>315.0</ele><time>2026-04-06T08:59:30.898Z</time></trkpt><trkpt lat="45.7158739" lon="8.7619885"><ele>315.75</ele><time>2026-04-06T08:59:31.897Z</time></trkpt><trkpt lat="45.7159864" lon="8.7621174"><ele>316.5</ele><time>2026-04-06T08:59:32.897Z</time></trkpt><trkpt lat="45.7160945" lon="8.7622525"><ele>317.25</ele><time>2026-04-06T08:59:33.898Z</time></trkpt><trkpt lat="45.7161904" lon="8.7623886"><ele>318.0</ele><time>2026-04-06T08:59:34.898Z</time></trkpt><trkpt lat="45.7162812" lon="8.7625122"><ele>319.0</ele><time>2026-04-06T08:59:35.898Z</time></trkpt><trkpt lat="45.7163682" lon="8.7626264"><ele>320.0</ele><time>2026-04-06T08:59:36.898Z</time></trkpt><trkpt lat="45.716466" lon="8.7627311"><ele>321.0</ele><time>2026-04-06T08:59:37.897Z</time></trkpt><trkpt lat="45.7165653" lon="8.7628315"><ele>322.0</ele><time>2026-04-06T08:59:38.899Z</time></trkpt><trkpt lat="45.7166697" lon="8.7629427"><ele>322.0</ele><time>2026-04-06T08:59:39.898Z</time></trkpt><trkpt lat="45.7167825" lon="8.7630447"><ele>322.0</ele><time>2026-04-06T08:59:40.898Z</time></trkpt><trkpt lat="45.7168773" lon="8.7631573"><ele>322.0</ele><time>2026-04-06T08:59:41.897Z</time></trkpt><trkpt lat="45.7169431" lon="8.7632994"><ele>322.0</ele><time>2026-04-06T08:59:42.898Z</time></trkpt><trkpt lat="45.7170062" lon="8.7634329"><ele>323.40000000000003</ele><time>2026-04-06T08:59:43.898Z</time></trkpt><trkpt lat="45.7170566" lon="8.7635585"><ele>324.8</ele><time>2026-04-06T08:59:44.898Z</time></trkpt><trkpt lat="45.7170981" lon="8.7636792"><ele>326.2</ele><time>2026-04-06T08:59:45.898Z</time></trkpt><trkpt lat="45.7171738" lon="8.7637524"><ele>327.6</ele><time>2026-04-06T08:59:46.897Z</time></trkpt><trkpt lat="45.71724" lon="8.7638503"><ele>329.0</ele><time>2026-04-06T08:59:47.897Z</time></trkpt><trkpt lat="45.7173193" lon="8.763974"><ele>329.0</ele><time>2026-04-06T08:59:48.897Z</time></trkpt><trkpt lat="45.7173853" lon="8.7640866"><ele>329.0</ele><time>2026-04-06T08:59:49.898Z</time></trkpt><trkpt lat="45.7174355" lon="8.7641736"><ele>329.0</ele><time>2026-04-06T08:59:50.897Z</time></trkpt><trkpt lat="45.7175301" lon="8.7641109"><ele>329.0</ele><time>2026-04-06T08:59:53.897Z</time></trkpt><trkpt lat="45.7175491" lon="8.7639803"><ele>329.0</ele><time>2026-04-06T08:59:54.898Z</time></trkpt><trkpt lat="45.7175318" lon="8.7638118"><ele>329.0</ele><time>2026-04-06T08:59:55.898Z</time></trkpt><trkpt lat="45.7175166" lon="8.763658"><ele>329.0</ele><time>2026-04-06T08:59:56.898Z</time></trkpt><trkpt lat="45.7174639" lon="8.763473"><ele>329.0</ele><time>2026-04-06T08:59:57.898Z</time></trkpt><trkpt lat="45.7173987" lon="8.7633057"><ele>329.0</ele><time>2026-04-06T08:59:58.898Z</time></trkpt><trkpt lat="45.7173463" lon="8.7631392"><ele>327.79999999999995</ele><time>2026-04-06T08:59:59.897Z</time></trkpt><trkpt lat="45.7173083" lon="8.7629766"><ele>326.59999999999997</ele><time>2026-04-06T09:00:00.897Z</time></trkpt><trkpt lat="45.7172586" lon="8.7628309"><ele>325.4</ele><time>2026-04-06T09:00:01.897Z</time></trkpt><trkpt lat="45.7172163" lon="8.7627075"><ele>324.2</ele><time>2026-04-06T09:00:02.896Z</time></trkpt><trkpt lat="45.7171719" lon="8.762581"><ele>323.0</ele><time>2026-04-06T09:00:03.898Z</time></trkpt><trkpt lat="45.7171332" lon="8.762447"><ele>322.59999999999997</ele><time>2026-04-06T09:00:04.897Z</time></trkpt><trkpt lat="45.7170975" lon="8.7623122"><ele>322.2</ele><time>2026-04-06T09:00:05.897Z</time></trkpt><trkpt lat="45.7170955" lon="8.7621799"><ele>321.8</ele><time>2026-04-06T09:00:06.898Z</time></trkpt><trkpt lat="45.7170742" lon="8.762045"><ele>321.4</ele><time>2026-04-06T09:00:07.897Z</time></trkpt><trkpt lat="45.7170341" lon="8.7619343"><ele>321.0</ele><time>2026-04-06T09:00:08.897Z</time></trkpt><trkpt lat="45.7169914" lon="8.7618279"><ele>320.40000000000003</ele><time>2026-04-06T09:00:09.898Z</time></trkpt><trkpt lat="45.7169289" lon="8.761711"><ele>319.8</ele><time>2026-04-06T09:00:10.898Z</time></trkpt><trkpt lat="45.7168817" lon="8.7616016"><ele>319.20000000000005</ele><time>2026-04-06T09:00:11.896Z</time></trkpt><trkpt lat="45.7168108" lon="8.7615052"><ele>318.6</ele><time>2026-04-06T09:00:12.897Z</time></trkpt><trkpt lat="45.7167426" lon="8.761414"><ele>318.0</ele><time>2026-04-06T09:00:13.898Z</time></trkpt><trkpt lat="45.7166627" lon="8.7613218"><ele>318.0</ele><time>2026-04-06T09:00:14.897Z</time></trkpt><trkpt lat="45.7165595" lon="8.7612466"><ele>318.0</ele><time>2026-04-06T09:00:15.898Z</time></trkpt><trkpt lat="45.7164701" lon="8.7611692"><ele>318.0</ele><time>2026-04-06T09:00:16.898Z</time></trkpt><trkpt lat="45.7163727" lon="8.7610801"><ele>318.0</ele><time>2026-04-06T09:00:17.897Z</time></trkpt><trkpt lat="45.7162675" lon="8.7609816"><ele>316.5</ele><time>2026-04-06T09:00:18.897Z</time></trkpt><trkpt lat="45.716176" lon="8.7608696"><ele>315.0</ele><time>2026-04-06T09:00:19.898Z</time></trkpt><trkpt lat="45.7160984" lon="8.760741"><ele>313.5</ele><time>2026-04-06T09:00:20.897Z</time></trkpt><trkpt lat="45.7160432" lon="8.7606105"><ele>312.0</ele><time>2026-04-06T09:00:21.898Z</time></trkpt><trkpt lat="45.7160108" lon="8.7604607"><ele>312.0</ele><time>2026-04-06T09:00:22.898Z</time></trkpt><trkpt lat="45.7159596" lon="8.7603263"><ele>312.0</ele><time>2026-04-06T09:00:23.897Z</time></trkpt><trkpt lat="45.7159092" lon="8.7602076"><ele>312.0</ele><time>2026-04-06T09:00:24.898Z</time></trkpt><trkpt lat="45.7158581" lon="8.7601039"><ele>312.0</ele><time>2026-04-06T09:00:25.897Z</time></trkpt><trkpt lat="45.7158252" lon="8.7600163"><ele>312.0</ele><time>2026-04-06T09:00:26.898Z</time></trkpt><trkpt lat="45.7158376" lon="8.7598906"><ele>311.4</ele><time>2026-04-06T09:00:28.898Z</time></trkpt><trkpt lat="45.7159232" lon="8.7599088"><ele>310.79999999999995</ele><time>2026-04-06T09:00:29.897Z</time></trkpt><trkpt lat="45.7160105" lon="8.7599196"><ele>310.2</ele><time>2026-04-06T09:00:30.897Z</time></trkpt><trkpt lat="45.7161131" lon="8.7599533"><ele>309.59999999999997</ele><time>2026-04-06T09:00:31.898Z</time></trkpt><trkpt lat="45.7162055" lon="8.7599759"><ele>309.0</ele><time>2026-04-06T09:00:32.897Z</time></trkpt><trkpt lat="45.7163115" lon="8.7600108"><ele>308.59999999999997</ele><time>2026-04-06T09:00:33.898Z</time></trkpt><trkpt lat="45.7164011" lon="8.7600465"><ele>308.2</ele><time>2026-04-06T09:00:34.899Z</time></trkpt><trkpt lat="45.7164776" lon="8.7601205"><ele>307.79999999999995</ele><time>2026-04-06T09:00:35.897Z</time></trkpt><trkpt lat="45.716573" lon="8.7601947"><ele>307.4</ele><time>2026-04-06T09:00:36.897Z</time></trkpt><trkpt lat="45.7167056" lon="8.7603019"><ele>307.0</ele><time>2026-04-06T09:00:37.897Z</time></trkpt><trkpt lat="45.7168228" lon="8.7603741"><ele>306.0</ele><time>2026-04-06T09:00:38.898Z</time></trkpt><trkpt lat="45.7169244" lon="8.7604448"><ele>305.0</ele><time>2026-04-06T09:00:39.898Z</time></trkpt><trkpt lat="45.7170029" lon="8.7605078"><ele>304.0</ele><time>2026-04-06T09:00:40.897Z</time></trkpt><trkpt lat="45.7170766" lon="8.7605733"><ele>303.0</ele><time>2026-04-06T09:00:41.897Z</time></trkpt><trkpt lat="45.7171384" lon="8.7606464"><ele>302.0</ele><time>2026-04-06T09:00:42.897Z</time></trkpt><trkpt lat="45.717222" lon="8.7606948"><ele>302.0</ele><time>2026-04-06T09:00:43.896Z</time></trkpt><trkpt lat="45.7173027" lon="8.7607542"><ele>302.0</ele><time>2026-04-06T09:00:44.897Z</time></trkpt><trkpt lat="45.7174206" lon="8.7608247"><ele>302.0</ele><time>2026-04-06T09:00:45.897Z</time></trkpt><trkpt lat="45.7175383" lon="8.7608856"><ele>302.0</ele><time>2026-04-06T09:00:46.898Z</time></trkpt><trkpt lat="45.7176864" lon="8.7609241"><ele>303.0</ele><time>2026-04-06T09:00:47.897Z</time></trkpt><trkpt lat="45.7178165" lon="8.7609657"><ele>304.0</ele><time>2026-04-06T09:00:48.898Z</time></trkpt><trkpt lat="45.7179158" lon="8.7610158"><ele>305.0</ele><time>2026-04-06T09:00:49.897Z</time></trkpt><trkpt lat="45.717995" lon="8.7610934"><ele>306.0</ele><time>2026-04-06T09:00:50.898Z</time></trkpt><trkpt lat="45.7180509" lon="8.7611905"><ele>307.0</ele><time>2026-04-06T09:00:51.897Z</time></trkpt><trkpt lat="45.7180949" lon="8.7612849"><ele>307.0</ele><time>2026-04-06T09:00:52.898Z</time></trkpt><trkpt lat="45.7181976" lon="8.7613719"><ele>307.0</ele><time>2026-04-06T09:00:54.896Z</time></trkpt><trkpt lat="45.7182835" lon="8.7613771"><ele>307.0</ele><time>2026-04-06T09:00:55.897Z</time></trkpt><trkpt lat="45.7183894" lon="8.7614066"><ele>307.0</ele><time>2026-04-06T09:00:56.898Z</time></trkpt><trkpt lat="45.7184799" lon="8.7613856"><ele>307.0</ele><time>2026-04-06T09:00:57.898Z</time></trkpt><trkpt lat="45.7185751" lon="8.761381"><ele>306.8333333333333</ele><time>2026-04-06T09:00:58.898Z</time></trkpt><trkpt lat="45.7186545" lon="8.7613775"><ele>306.66666666666663</ele><time>2026-04-06T09:00:59.898Z</time></trkpt><trkpt lat="45.7187363" lon="8.7613604"><ele>306.5</ele><time>2026-04-06T09:01:00.897Z</time></trkpt><trkpt lat="45.7188187" lon="8.761333"><ele>306.3333333333333</ele><time>2026-04-06T09:01:01.898Z</time></trkpt><trkpt lat="45.7188788" lon="8.761282"><ele>306.1666666666667</ele><time>2026-04-06T09:01:02.897Z</time></trkpt><trkpt lat="45.7189562" lon="8.761277"><ele>306.0</ele><time>2026-04-06T09:01:03.896Z</time></trkpt><trkpt lat="45.7190524" lon="8.7612956"><ele>306.0</ele><time>2026-04-06T09:01:04.897Z</time></trkpt><trkpt lat="45.7191387" lon="8.7613105"><ele>306.0</ele><time>2026-04-06T09:01:05.899Z</time></trkpt><trkpt lat="45.7192267" lon="8.7613169"><ele>306.0</ele><time>2026-04-06T09:01:06.897Z</time></trkpt><trkpt lat="45.719322" lon="8.7613261"><ele>306.0</ele><time>2026-04-06T09:01:07.898Z</time></trkpt><trkpt lat="45.7194338" lon="8.7613498"><ele>306.0</ele><time>2026-04-06T09:01:08.898Z</time></trkpt><trkpt lat="45.7195302" lon="8.7613749"><ele>305.3333333333333</ele><time>2026-04-06T09:01:09.898Z</time></trkpt><trkpt lat="45.7196228" lon="8.7613917"><ele>304.6666666666667</ele><time>2026-04-06T09:01:10.897Z</time></trkpt><trkpt lat="45.7197172" lon="8.7614185"><ele>304.0</ele><time>2026-04-06T09:01:11.897Z</time></trkpt><trkpt lat="45.7197929" lon="8.7614563"><ele>303.33333333333337</ele><time>2026-04-06T09:01:12.898Z</time></trkpt><trkpt lat="45.7198661" lon="8.7615077"><ele>302.6666666666667</ele><time>2026-04-06T09:01:13.897Z</time></trkpt><trkpt lat="45.719937" lon="8.7615854"><ele>302.0</ele><time>2026-04-06T09:01:14.898Z</time></trkpt><trkpt lat="45.7200115" lon="8.761664"><ele>302.0</ele><time>2026-04-06T09:01:15.899Z</time></trkpt><trkpt lat="45.7200687" lon="8.7617438"><ele>302.0</ele><time>2026-04-06T09:01:16.898Z</time></trkpt><trkpt lat="45.7201055" lon="8.7618378"><ele>302.0</ele><time>2026-04-06T09:01:17.897Z</time></trkpt><trkpt lat="45.7201357" lon="8.7619381"><ele>302.0</ele><time>2026-04-06T09:01:18.897Z</time></trkpt><trkpt lat="45.7201236" lon="8.7620567"><ele>302.0</ele><time>2026-04-06T09:01:19.898Z</time></trkpt><trkpt lat="45.7201033" lon="8.7621972"><ele>302.0</ele><time>2026-04-06T09:01:20.898Z</time></trkpt><trkpt lat="45.7200815" lon="8.7623446"><ele>304.4</ele><time>2026-04-06T09:01:21.897Z</time></trkpt><trkpt lat="45.7200723" lon="8.7624972"><ele>306.79999999999995</ele><time>2026-04-06T09:01:22.898Z</time></trkpt><trkpt lat="45.7200703" lon="8.7626504"><ele>309.2</ele><time>2026-04-06T09:01:23.898Z</time></trkpt><trkpt lat="45.7200726" lon="8.7627987"><ele>311.59999999999997</ele><time>2026-04-06T09:01:24.897Z</time></trkpt><trkpt lat="45.7200849" lon="8.7629378"><ele>314.0</ele><time>2026-04-06T09:01:25.897Z</time></trkpt><trkpt lat="45.7200946" lon="8.7630448"><ele>315.0</ele><time>2026-04-06T09:01:26.898Z</time></trkpt><trkpt lat="45.7201082" lon="8.7631491"><ele>316.0</ele><time>2026-04-06T09:01:27.897Z</time></trkpt><trkpt lat="45.7201988" lon="8.7633016"><ele>317.0</ele><time>2026-04-06T09:01:29.897Z</time></trkpt><trkpt lat="45.7202613" lon="8.7634033"><ele>318.0</ele><time>2026-04-06T09:01:30.897Z</time></trkpt><trkpt lat="45.7203314" lon="8.7635149"><ele>319.0</ele><time>2026-04-06T09:01:31.897Z</time></trkpt><trkpt lat="45.7204082" lon="8.7636219"><ele>319.5</ele><time>2026-04-06T09:01:32.899Z</time></trkpt><trkpt lat="45.7204574" lon="8.763701"><ele>320.0</ele><time>2026-04-06T09:01:33.898Z</time></trkpt><trkpt lat="45.7205219" lon="8.7637735"><ele>320.5</ele><time>2026-04-06T09:01:34.898Z</time></trkpt><trkpt lat="45.7205871" lon="8.7638398"><ele>321.0</ele><time>2026-04-06T09:01:35.896Z</time></trkpt><trkpt lat="45.7206389" lon="8.7638941"><ele>321.5</ele><time>2026-04-06T09:01:36.898Z</time></trkpt><trkpt lat="45.7207171" lon="8.7639038"><ele>322.0</ele><time>2026-04-06T09:01:38.897Z</time></trkpt><trkpt lat="45.720772" lon="8.7638296"><ele>322.0</ele><time>2026-04-06T09:01:40.898Z</time></trkpt><trkpt lat="45.7208475" lon="8.7637844"><ele>322.0</ele><time>2026-04-06T09:01:43.898Z</time></trkpt><trkpt lat="45.7209422" lon="8.7638015"><ele>322.0</ele><time>2026-04-06T09:01:44.896Z</time></trkpt><trkpt lat="45.7210348" lon="8.7638001"><ele>322.0</ele><time>2026-04-06T09:01:45.898Z</time></trkpt><trkpt lat="45.7211348" lon="8.7638173"><ele>322.0</ele><time>2026-04-06T09:01:46.898Z</time></trkpt><trkpt lat="45.7212278" lon="8.7638213"><ele>321.8</ele><time>2026-04-06T09:01:47.897Z</time></trkpt><trkpt lat="45.7213324" lon="8.7638259"><ele>321.6</ele><time>2026-04-06T09:01:48.898Z</time></trkpt><trkpt lat="45.7214369" lon="8.7638634"><ele>321.40000000000003</ele><time>2026-04-06T09:01:49.898Z</time></trkpt><trkpt lat="45.7215233" lon="8.7638978"><ele>321.20000000000005</ele><time>2026-04-06T09:01:50.897Z</time></trkpt><trkpt lat="45.7216501" lon="8.7639115"><ele>321.0</ele><time>2026-04-06T09:01:51.898Z</time></trkpt><trkpt lat="45.7217513" lon="8.7639509"><ele>321.0</ele><time>2026-04-06T09:01:52.897Z</time></trkpt><trkpt lat="45.7218402" lon="8.763977"><ele>321.0</ele><time>2026-04-06T09:01:53.898Z</time></trkpt><trkpt lat="45.7219094" lon="8.7639653"><ele>321.0</ele><time>2026-04-06T09:01:54.897Z</time></trkpt><trkpt lat="45.7219808" lon="8.7639689"><ele>321.0</ele><time>2026-04-06T09:01:55.898Z</time></trkpt><trkpt lat="45.7220559" lon="8.7639936"><ele>321.0</ele><time>2026-04-06T09:01:56.897Z</time></trkpt><trkpt lat="45.7221476" lon="8.764063"><ele>321.0</ele><time>2026-04-06T09:01:57.897Z</time></trkpt><trkpt lat="45.7222104" lon="8.7641374"><ele>321.0</ele><time>2026-04-06T09:01:58.899Z</time></trkpt><trkpt lat="45.7222666" lon="8.7641846"><ele>321.0</ele><time>2026-04-06T09:01:59.898Z</time></trkpt><trkpt lat="45.722332" lon="8.7642569"><ele>321.0</ele><time>2026-04-06T09:02:01.897Z</time></trkpt><trkpt lat="45.7224086" lon="8.7643205"><ele>321.0</ele><time>2026-04-06T09:02:03.898Z</time></trkpt><trkpt lat="45.7224827" lon="8.7643557"><ele>321.0</ele><time>2026-04-06T09:02:04.898Z</time></trkpt><trkpt lat="45.7225934" lon="8.7644407"><ele>321.0</ele><time>2026-04-06T09:02:06.898Z</time></trkpt><trkpt lat="45.7226543" lon="8.7644823"><ele>320.8</ele><time>2026-04-06T09:02:07.897Z</time></trkpt><trkpt lat="45.7227364" lon="8.7645271"><ele>320.6</ele><time>2026-04-06T09:02:08.898Z</time></trkpt><trkpt lat="45.7227989" lon="8.7645724"><ele>320.4</ele><time>2026-04-06T09:02:09.897Z</time></trkpt><trkpt lat="45.7228296" lon="8.764762"><ele>320.2</ele><time>2026-04-06T09:02:11.897Z</time></trkpt><trkpt lat="45.7228317" lon="8.7648946"><ele>320.0</ele><time>2026-04-06T09:02:12.897Z</time></trkpt><trkpt lat="45.7228356" lon="8.7650164"><ele>320.0</ele><time>2026-04-06T09:02:13.897Z</time></trkpt><trkpt lat="45.7228396" lon="8.7651337"><ele>320.0</ele><time>2026-04-06T09:02:14.897Z</time></trkpt><trkpt lat="45.7228496" lon="8.7652448"><ele>320.0</ele><time>2026-04-06T09:02:15.897Z</time></trkpt><trkpt lat="45.7228665" lon="8.7653494"><ele>320.0</ele><time>2026-04-06T09:02:16.897Z</time></trkpt><trkpt lat="45.7228786" lon="8.7654404"><ele>320.0</ele><time>2026-04-06T09:02:17.898Z</time></trkpt><trkpt lat="45.7228721" lon="8.7655492"><ele>320.0</ele><time>2026-04-06T09:02:18.896Z</time></trkpt><trkpt lat="45.7228522" lon="8.7656519"><ele>320.0</ele><time>2026-04-06T09:02:19.898Z</time></trkpt><trkpt lat="45.7228215" lon="8.7657815"><ele>320.0</ele><time>2026-04-06T09:02:20.897Z</time></trkpt><trkpt lat="45.7228015" lon="8.7658915"><ele>320.0</ele><time>2026-04-06T09:02:21.897Z</time></trkpt><trkpt lat="45.7227836" lon="8.765993"><ele>320.0</ele><time>2026-04-06T09:02:22.897Z</time></trkpt><trkpt lat="45.7227692" lon="8.7660836"><ele>320.0</ele><time>2026-04-06T09:02:23.898Z</time></trkpt><trkpt lat="45.7227682" lon="8.766222"><ele>320.0</ele><time>2026-04-06T09:02:25.897Z</time></trkpt><trkpt lat="45.7228362" lon="8.7662539"><ele>320.8</ele><time>2026-04-06T09:02:28.899Z</time></trkpt><trkpt lat="45.7227607" lon="8.7662386"><ele>321.6</ele><time>2026-04-06T09:03:06.898Z</time></trkpt><trkpt lat="45.7226905" lon="8.7663385"><ele>322.4</ele><time>2026-04-06T09:03:08.897Z</time></trkpt><trkpt lat="45.722634" lon="8.7664973"><ele>323.2</ele><time>2026-04-06T09:03:10.898Z</time></trkpt><trkpt lat="45.7226103" lon="8.7666023"><ele>324.0</ele><time>2026-04-06T09:03:11.897Z</time></trkpt><trkpt lat="45.722589" lon="8.7667117"><ele>324.5</ele><time>2026-04-06T09:03:12.897Z</time></trkpt><trkpt lat="45.7225686" lon="8.7668334"><ele>325.0</ele><time>2026-04-06T09:03:13.898Z</time></trkpt><trkpt lat="45.7225473" lon="8.7669475"><ele>325.5</ele><time>2026-04-06T09:03:14.897Z</time></trkpt><trkpt lat="45.72253" lon="8.7670761"><ele>326.0</ele><time>2026-04-06T09:03:15.897Z</time></trkpt><trkpt lat="45.7225128" lon="8.7671994"><ele>326.5</ele><time>2026-04-06T09:03:16.898Z</time></trkpt><trkpt lat="45.7224859" lon="8.7673171"><ele>327.0</ele><time>2026-04-06T09:03:17.897Z</time></trkpt><trkpt lat="45.7224587" lon="8.7674368"><ele>327.8</ele><time>2026-04-06T09:03:18.897Z</time></trkpt><trkpt lat="45.7224255" lon="8.7675573"><ele>328.6</ele><time>2026-04-06T09:03:19.898Z</time></trkpt><trkpt lat="45.7223911" lon="8.7676782"><ele>329.40000000000003</ele><time>2026-04-06T09:03:20.898Z</time></trkpt><trkpt lat="45.7223639" lon="8.7678017"><ele>330.20000000000005</ele><time>2026-04-06T09:03:21.897Z</time></trkpt><trkpt lat="45.7223424" lon="8.7679285"><ele>331.0</ele><time>2026-04-06T09:03:22.897Z</time></trkpt><trkpt lat="45.7223284" lon="8.7680623"><ele>331.8333333333333</ele><time>2026-04-06T09:03:23.898Z</time></trkpt><trkpt lat="45.7223173" lon="8.7681961"><ele>332.66666666666663</ele><time>2026-04-06T09:03:24.898Z</time></trkpt><trkpt lat="45.7223042" lon="8.7683297"><ele>333.5</ele><time>2026-04-06T09:03:25.896Z</time></trkpt><trkpt lat="45.7222895" lon="8.7684525"><ele>334.3333333333333</ele><time>2026-04-06T09:03:26.897Z</time></trkpt><trkpt lat="45.722277" lon="8.7685705"><ele>335.1666666666667</ele><time>2026-04-06T09:03:27.897Z</time></trkpt><trkpt lat="45.7222628" lon="8.7686717"><ele>336.0</ele><time>2026-04-06T09:03:28.898Z</time></trkpt><trkpt lat="45.7222345" lon="8.768783"><ele>336.5</ele><time>2026-04-06T09:03:30.898Z</time></trkpt><trkpt lat="45.7222351" lon="8.7689216"><ele>337.0</ele><time>2026-04-06T09:03:34.897Z</time></trkpt><trkpt lat="45.7222467" lon="8.7690118"><ele>337.5</ele><time>2026-04-06T09:03:35.897Z</time></trkpt><trkpt lat="45.7222782" lon="8.7691064"><ele>338.0</ele><time>2026-04-06T09:03:36.897Z</time></trkpt><trkpt lat="45.7223085" lon="8.7691931"><ele>338.5</ele><time>2026-04-06T09:03:37.897Z</time></trkpt><trkpt lat="45.7223333" lon="8.7692781"><ele>339.0</ele><time>2026-04-06T09:03:38.897Z</time></trkpt><trkpt lat="45.7222982" lon="8.7694324"><ele>339.0</ele><time>2026-04-06T09:03:40.898Z</time></trkpt><trkpt lat="45.7222564" lon="8.769504"><ele>339.0</ele><time>2026-04-06T09:03:41.897Z</time></trkpt><trkpt lat="45.7221964" lon="8.7695822"><ele>339.0</ele><time>2026-04-06T09:03:42.897Z</time></trkpt><trkpt lat="45.7221364" lon="8.7696658"><ele>339.0</ele><time>2026-04-06T09:03:43.897Z</time></trkpt><trkpt lat="45.7220688" lon="8.769738"><ele>339.0</ele><time>2026-04-06T09:03:44.898Z</time></trkpt><trkpt lat="45.7219888" lon="8.7697784"><ele>339.0</ele><time>2026-04-06T09:03:45.896Z</time></trkpt><trkpt lat="45.721894" lon="8.7697975"><ele>339.0</ele><time>2026-04-06T09:03:46.897Z</time></trkpt><trkpt lat="45.721799" lon="8.7698012"><ele>339.0</ele><time>2026-04-06T09:03:47.898Z</time></trkpt><trkpt lat="45.7217029" lon="8.7698034"><ele>339.0</ele><time>2026-04-06T09:03:48.898Z</time></trkpt><trkpt lat="45.7216077" lon="8.7698084"><ele>339.0</ele><time>2026-04-06T09:03:49.898Z</time></trkpt><trkpt lat="45.7215121" lon="8.7698098"><ele>339.0</ele><time>2026-04-06T09:03:50.896Z</time></trkpt><trkpt lat="45.721423" lon="8.7698167"><ele>339.0</ele><time>2026-04-06T09:03:51.898Z</time></trkpt><trkpt lat="45.72134" lon="8.7698568"><ele>339.0</ele><time>2026-04-06T09:03:52.898Z</time></trkpt><trkpt lat="45.7212596" lon="8.7698913"><ele>339.0</ele><time>2026-04-06T09:03:53.897Z</time></trkpt><trkpt lat="45.7211748" lon="8.7699499"><ele>339.0</ele><time>2026-04-06T09:03:54.898Z</time></trkpt><trkpt lat="45.721087" lon="8.7700098"><ele>339.0</ele><time>2026-04-06T09:03:55.898Z</time></trkpt><trkpt lat="45.7210141" lon="8.7700949"><ele>338.2</ele><time>2026-04-06T09:03:56.898Z</time></trkpt><trkpt lat="45.7209475" lon="8.7701975"><ele>337.4</ele><time>2026-04-06T09:03:57.898Z</time></trkpt><trkpt lat="45.7208932" lon="8.7703122"><ele>336.6</ele><time>2026-04-06T09:03:58.896Z</time></trkpt><trkpt lat="45.7208382" lon="8.770431"><ele>335.8</ele><time>2026-04-06T09:03:59.897Z</time></trkpt><trkpt lat="45.7207799" lon="8.7705688"><ele>335.0</ele><time>2026-04-06T09:04:01.897Z</time></trkpt><trkpt lat="45.720709" lon="8.7707046"><ele>335.0</ele><time>2026-04-06T09:04:03.898Z</time></trkpt><trkpt lat="45.7206275" lon="8.7708374"><ele>335.0</ele><time>2026-04-06T09:04:05.898Z</time></trkpt><trkpt lat="45.7205886" lon="8.7709092"><ele>335.0</ele><time>2026-04-06T09:04:06.897Z</time></trkpt><trkpt lat="45.7205493" lon="8.7709818"><ele>335.0</ele><time>2026-04-06T09:04:07.897Z</time></trkpt><trkpt lat="45.7205051" lon="8.7710714"><ele>335.0</ele><time>2026-04-06T09:04:08.897Z</time></trkpt><trkpt lat="45.7204536" lon="8.771167"><ele>335.0</ele><time>2026-04-06T09:04:09.897Z</time></trkpt><trkpt lat="45.7204052" lon="8.771271"><ele>335.0</ele><time>2026-04-06T09:04:10.897Z</time></trkpt><trkpt lat="45.7203624" lon="8.7713803"><ele>335.0</ele><time>2026-04-06T09:04:11.897Z</time></trkpt><trkpt lat="45.7203257" lon="8.7715004"><ele>335.0</ele><time>2026-04-06T09:04:12.898Z</time></trkpt><trkpt lat="45.7202935" lon="8.7716186"><ele>335.0</ele><time>2026-04-06T09:04:13.897Z</time></trkpt><trkpt lat="45.7202593" lon="8.7717417"><ele>335.0</ele><time>2026-04-06T09:04:14.897Z</time></trkpt><trkpt lat="45.7202309" lon="8.7718692"><ele>335.0</ele><time>2026-04-06T09:04:15.897Z</time></trkpt><trkpt lat="45.720201" lon="8.7719921"><ele>335.0</ele><time>2026-04-06T09:04:16.897Z</time></trkpt><trkpt lat="45.7201719" lon="8.7721185"><ele>335.0</ele><time>2026-04-06T09:04:17.899Z</time></trkpt><trkpt lat="45.7201462" lon="8.7722498"><ele>335.0</ele><time>2026-04-06T09:04:18.898Z</time></trkpt><trkpt lat="45.7201209" lon="8.7723861"><ele>335.0</ele><time>2026-04-06T09:04:19.897Z</time></trkpt><trkpt lat="45.7200975" lon="8.7725264"><ele>335.0</ele><time>2026-04-06T09:04:20.897Z</time></trkpt><trkpt lat="45.720075" lon="8.7726683"><ele>335.0</ele><time>2026-04-06T09:04:21.897Z</time></trkpt><trkpt lat="45.720057" lon="8.772814"><ele>335.0</ele><time>2026-04-06T09:04:22.898Z</time></trkpt><trkpt lat="45.7200402" lon="8.7729595"><ele>335.0</ele><time>2026-04-06T09:04:23.898Z</time></trkpt><trkpt lat="45.7200221" lon="8.7731075"><ele>335.0</ele><time>2026-04-06T09:04:24.896Z</time></trkpt><trkpt lat="45.7200015" lon="8.7732554"><ele>335.0</ele><time>2026-04-06T09:04:25.898Z</time></trkpt><trkpt lat="45.7199751" lon="8.7734047"><ele>335.0</ele><time>2026-04-06T09:04:26.898Z</time></trkpt><trkpt lat="45.7199444" lon="8.7735516"><ele>335.0</ele><time>2026-04-06T09:04:27.897Z</time></trkpt><trkpt lat="45.7199074" lon="8.7737017"><ele>335.0</ele><time>2026-04-06T09:04:28.897Z</time></trkpt><trkpt lat="45.7198644" lon="8.7738509"><ele>335.0</ele><time>2026-04-06T09:04:29.898Z</time></trkpt><trkpt lat="45.7198216" lon="8.7739988"><ele>335.4</ele><time>2026-04-06T09:04:30.897Z</time></trkpt><trkpt lat="45.7197735" lon="8.7741454"><ele>335.8</ele><time>2026-04-06T09:04:31.897Z</time></trkpt><trkpt lat="45.7197289" lon="8.7742944"><ele>336.20000000000005</ele><time>2026-04-06T09:04:32.897Z</time></trkpt><trkpt lat="45.7196836" lon="8.7744348"><ele>336.6</ele><time>2026-04-06T09:04:33.897Z</time></trkpt><trkpt lat="45.7196391" lon="8.7745753"><ele>337.0</ele><time>2026-04-06T09:04:34.897Z</time></trkpt><trkpt lat="45.7195964" lon="8.7747167"><ele>335.8</ele><time>2026-04-06T09:04:35.898Z</time></trkpt><trkpt lat="45.7195553" lon="8.7748505"><ele>334.6</ele><time>2026-04-06T09:04:36.896Z</time></trkpt><trkpt lat="45.7195146" lon="8.7749794"><ele>333.40000000000003</ele><time>2026-04-06T09:04:37.897Z</time></trkpt><trkpt lat="45.7194729" lon="8.7751139"><ele>332.20000000000005</ele><time>2026-04-06T09:04:38.898Z</time></trkpt><trkpt lat="45.7194332" lon="8.7752453"><ele>331.0</ele><time>2026-04-06T09:04:39.898Z</time></trkpt><trkpt lat="45.719387" lon="8.7753779"><ele>330.0</ele><time>2026-04-06T09:04:40.898Z</time></trkpt><trkpt lat="45.7193406" lon="8.7755148"><ele>329.0</ele><time>2026-04-06T09:04:41.899Z</time></trkpt><trkpt lat="45.7193025" lon="8.7756598"><ele>328.0</ele><time>2026-04-06T09:04:42.897Z</time></trkpt><trkpt lat="45.7192605" lon="8.7758025"><ele>327.0</ele><time>2026-04-06T09:04:43.898Z</time></trkpt><trkpt lat="45.7192202" lon="8.775942"><ele>326.0</ele><time>2026-04-06T09:04:44.897Z</time></trkpt><trkpt lat="45.7191809" lon="8.7760876"><ele>325.6</ele><time>2026-04-06T09:04:45.898Z</time></trkpt><trkpt lat="45.7191431" lon="8.7762341"><ele>325.20000000000005</ele><time>2026-04-06T09:04:46.897Z</time></trkpt><trkpt lat="45.7190981" lon="8.776374"><ele>324.79999999999995</ele><time>2026-04-06T09:04:47.897Z</time></trkpt><trkpt lat="45.7190512" lon="8.7765244"><ele>324.4</ele><time>2026-04-06T09:04:48.897Z</time></trkpt><trkpt lat="45.7190084" lon="8.7766782"><ele>324.0</ele><time>2026-04-06T09:04:49.897Z</time></trkpt><trkpt lat="45.718965" lon="8.7768283"><ele>323.75</ele><time>2026-04-06T09:04:50.898Z</time></trkpt><trkpt lat="45.7189207" lon="8.7769812"><ele>323.5</ele><time>2026-04-06T09:04:51.897Z</time></trkpt><trkpt lat="45.7188769" lon="8.7771419"><ele>323.25</ele><time>2026-04-06T09:04:52.897Z</time></trkpt><trkpt lat="45.7188342" lon="8.777308"><ele>323.0</ele><time>2026-04-06T09:04:53.897Z</time></trkpt><trkpt lat="45.7187917" lon="8.7774634"><ele>323.0</ele><time>2026-04-06T09:04:54.897Z</time></trkpt><trkpt lat="45.7187439" lon="8.7776263"><ele>323.0</ele><time>2026-04-06T09:04:55.898Z</time></trkpt><trkpt lat="45.7186965" lon="8.7777848"><ele>323.0</ele><time>2026-04-06T09:04:56.897Z</time></trkpt><trkpt lat="45.7186516" lon="8.7779372"><ele>323.0</ele><time>2026-04-06T09:04:57.898Z</time></trkpt><trkpt lat="45.718607" lon="8.7780933"><ele>322.5</ele><time>2026-04-06T09:04:58.898Z</time></trkpt><trkpt lat="45.7185643" lon="8.7782492"><ele>322.0</ele><time>2026-04-06T09:04:59.899Z</time></trkpt><trkpt lat="45.718522" lon="8.778403"><ele>321.5</ele><time>2026-04-06T09:05:00.898Z</time></trkpt><trkpt lat="45.718472" lon="8.7785491"><ele>321.0</ele><time>2026-04-06T09:05:01.897Z</time></trkpt><trkpt lat="45.7184225" lon="8.778699"><ele>321.8</ele><time>2026-04-06T09:05:02.898Z</time></trkpt><trkpt lat="45.7183814" lon="8.7788422"><ele>322.6</ele><time>2026-04-06T09:05:03.898Z</time></trkpt><trkpt lat="45.7183412" lon="8.7789924"><ele>323.4</ele><time>2026-04-06T09:05:04.898Z</time></trkpt><trkpt lat="45.7182982" lon="8.7791424"><ele>324.2</ele><time>2026-04-06T09:05:05.898Z</time></trkpt><trkpt lat="45.7182576" lon="8.7792903"><ele>325.0</ele><time>2026-04-06T09:05:06.897Z</time></trkpt><trkpt lat="45.718215" lon="8.7794353"><ele>326.4</ele><time>2026-04-06T09:05:07.897Z</time></trkpt><trkpt lat="45.7181778" lon="8.7795748"><ele>327.8</ele><time>2026-04-06T09:05:08.897Z</time></trkpt><trkpt lat="45.718136" lon="8.7797195"><ele>329.20000000000005</ele><time>2026-04-06T09:05:09.898Z</time></trkpt><trkpt lat="45.7180958" lon="8.7798633"><ele>330.6</ele><time>2026-04-06T09:05:10.898Z</time></trkpt><trkpt lat="45.7180615" lon="8.7800064"><ele>332.0</ele><time>2026-04-06T09:05:11.898Z</time></trkpt><trkpt lat="45.7180317" lon="8.7801609"><ele>333.0</ele><time>2026-04-06T09:05:12.897Z</time></trkpt><trkpt lat="45.7180036" lon="8.7803156"><ele>334.0</ele><time>2026-04-06T09:05:13.898Z</time></trkpt><trkpt lat="45.7179837" lon="8.780482"><ele>335.0</ele><time>2026-04-06T09:05:14.898Z</time></trkpt><trkpt lat="45.7179636" lon="8.7806463"><ele>336.0</ele><time>2026-04-06T09:05:15.898Z</time></trkpt><trkpt lat="45.7179438" lon="8.7808042"><ele>336.0</ele><time>2026-04-06T09:05:16.898Z</time></trkpt><trkpt lat="45.7179201" lon="8.7809686"><ele>336.0</ele><time>2026-04-06T09:05:17.898Z</time></trkpt><trkpt lat="45.7178932" lon="8.7811367"><ele>336.0</ele><time>2026-04-06T09:05:18.897Z</time></trkpt><trkpt lat="45.717866" lon="8.7812956"><ele>336.0</ele><time>2026-04-06T09:05:19.898Z</time></trkpt><trkpt lat="45.7178388" lon="8.7814597"><ele>336.0</ele><time>2026-04-06T09:05:20.897Z</time></trkpt><trkpt lat="45.7178167" lon="8.7816164"><ele>336.0</ele><time>2026-04-06T09:05:21.898Z</time></trkpt><trkpt lat="45.717796" lon="8.78178"><ele>336.0</ele><time>2026-04-06T09:05:22.898Z</time></trkpt><trkpt lat="45.7177753" lon="8.7819322"><ele>336.0</ele><time>2026-04-06T09:05:23.897Z</time></trkpt><trkpt lat="45.7177518" lon="8.7820891"><ele>336.0</ele><time>2026-04-06T09:05:24.898Z</time></trkpt><trkpt lat="45.7177283" lon="8.7822402"><ele>336.0</ele><time>2026-04-06T09:05:25.897Z</time></trkpt><trkpt lat="45.717704" lon="8.7823962"><ele>336.0</ele><time>2026-04-06T09:05:26.897Z</time></trkpt><trkpt lat="45.717671" lon="8.7825462"><ele>336.0</ele><time>2026-04-06T09:05:27.898Z</time></trkpt><trkpt lat="45.7176386" lon="8.7827009"><ele>336.0</ele><time>2026-04-06T09:05:28.897Z</time></trkpt><trkpt lat="45.7176042" lon="8.7828536"><ele>336.0</ele><time>2026-04-06T09:05:29.897Z</time></trkpt><trkpt lat="45.7175795" lon="8.7830123"><ele>336.75</ele><time>2026-04-06T09:05:30.897Z</time></trkpt><trkpt lat="45.7175731" lon="8.7831823"><ele>337.5</ele><time>2026-04-06T09:05:31.898Z</time></trkpt><trkpt lat="45.7175817" lon="8.7833475"><ele>338.25</ele><time>2026-04-06T09:05:32.897Z</time></trkpt><trkpt lat="45.7176076" lon="8.7835084"><ele>339.0</ele><time>2026-04-06T09:05:33.897Z</time></trkpt><trkpt lat="45.7176517" lon="8.7836569"><ele>339.0</ele><time>2026-04-06T09:05:34.897Z</time></trkpt><trkpt lat="45.7177023" lon="8.7837901"><ele>339.0</ele><time>2026-04-06T09:05:35.898Z</time></trkpt><trkpt lat="45.7177754" lon="8.7839189"><ele>339.0</ele><time>2026-04-06T09:05:36.897Z</time></trkpt><trkpt lat="45.7178403" lon="8.7840333"><ele>339.0</ele><time>2026-04-06T09:05:37.897Z</time></trkpt><trkpt lat="45.7179001" lon="8.7841494"><ele>339.0</ele><time>2026-04-06T09:05:38.898Z</time></trkpt><trkpt lat="45.7179613" lon="8.7842478"><ele>338.8333333333333</ele><time>2026-04-06T09:05:39.898Z</time></trkpt><trkpt lat="45.7180177" lon="8.7843383"><ele>338.6666666666667</ele><time>2026-04-06T09:05:40.897Z</time></trkpt><trkpt lat="45.7180679" lon="8.7844157"><ele>338.5</ele><time>2026-04-06T09:05:41.897Z</time></trkpt><trkpt lat="45.7180891" lon="8.7845083"><ele>338.33333333333337</ele><time>2026-04-06T09:05:42.897Z</time></trkpt><trkpt lat="45.7180745" lon="8.7846041"><ele>338.1666666666667</ele><time>2026-04-06T09:05:43.897Z</time></trkpt><trkpt lat="45.7180303" lon="8.7846956"><ele>338.0</ele><time>2026-04-06T09:05:44.898Z</time></trkpt><trkpt lat="45.7179696" lon="8.784772"><ele>339.33333333333337</ele><time>2026-04-06T09:05:45.898Z</time></trkpt><trkpt lat="45.7179065" lon="8.7848521"><ele>340.6666666666667</ele><time>2026-04-06T09:05:46.897Z</time></trkpt><trkpt lat="45.7178615" lon="8.7849496"><ele>342.0</ele><time>2026-04-06T09:05:47.897Z</time></trkpt><trkpt lat="45.7178359" lon="8.7850565"><ele>343.3333333333333</ele><time>2026-04-06T09:05:48.899Z</time></trkpt><trkpt lat="45.7178622" lon="8.7851939"><ele>344.66666666666663</ele><time>2026-04-06T09:05:49.897Z</time></trkpt><trkpt lat="45.717886" lon="8.7853128"><ele>346.0</ele><time>2026-04-06T09:05:50.897Z</time></trkpt><trkpt lat="45.7179478" lon="8.7854405"><ele>346.6</ele><time>2026-04-06T09:05:51.897Z</time></trkpt><trkpt lat="45.7180037" lon="8.7855663"><ele>347.20000000000005</ele><time>2026-04-06T09:05:52.898Z</time></trkpt><trkpt lat="45.718055" lon="8.7856887"><ele>347.79999999999995</ele><time>2026-04-06T09:05:53.897Z</time></trkpt><trkpt lat="45.7181152" lon="8.7858201"><ele>348.4</ele><time>2026-04-06T09:05:54.898Z</time></trkpt><trkpt lat="45.7181685" lon="8.78594"><ele>349.0</ele><time>2026-04-06T09:05:55.898Z</time></trkpt><trkpt lat="45.7182303" lon="8.7860736"><ele>349.4</ele><time>2026-04-06T09:05:56.898Z</time></trkpt><trkpt lat="45.7182909" lon="8.7862118"><ele>349.79999999999995</ele><time>2026-04-06T09:05:57.898Z</time></trkpt><trkpt lat="45.7183402" lon="8.7863359"><ele>350.20000000000005</ele><time>2026-04-06T09:05:58.897Z</time></trkpt><trkpt lat="45.7183939" lon="8.7864543"><ele>350.6</ele><time>2026-04-06T09:05:59.897Z</time></trkpt><trkpt lat="45.7184318" lon="8.7865777"><ele>351.0</ele><time>2026-04-06T09:06:00.898Z</time></trkpt><trkpt lat="45.7184624" lon="8.7867015"><ele>351.0</ele><time>2026-04-06T09:06:01.898Z</time></trkpt><trkpt lat="45.7184671" lon="8.7868434"><ele>351.0</ele><time>2026-04-06T09:06:02.897Z</time></trkpt><trkpt lat="45.7184754" lon="8.78698"><ele>351.0</ele><time>2026-04-06T09:06:03.896Z</time></trkpt><trkpt lat="45.7184738" lon="8.7871192"><ele>351.0</ele><time>2026-04-06T09:06:04.898Z</time></trkpt><trkpt lat="45.7184598" lon="8.7872699"><ele>351.0</ele><time>2026-04-06T09:06:05.898Z</time></trkpt><trkpt lat="45.7184524" lon="8.7874074"><ele>351.20000000000005</ele><time>2026-04-06T09:06:06.898Z</time></trkpt><trkpt lat="45.7184478" lon="8.7875426"><ele>351.40000000000003</ele><time>2026-04-06T09:06:07.898Z</time></trkpt><trkpt lat="45.7184391" lon="8.7876858"><ele>351.6</ele><time>2026-04-06T09:06:08.898Z</time></trkpt><trkpt lat="45.71843" lon="8.7878309"><ele>351.8</ele><time>2026-04-06T09:06:09.897Z</time></trkpt><trkpt lat="45.7184205" lon="8.7879774"><ele>352.0</ele><time>2026-04-06T09:06:10.897Z</time></trkpt><trkpt lat="45.7184159" lon="8.7881327"><ele>352.0</ele><time>2026-04-06T09:06:11.898Z</time></trkpt><trkpt lat="45.7184088" lon="8.7882864"><ele>352.0</ele><time>2026-04-06T09:06:12.898Z</time></trkpt><trkpt lat="45.7184072" lon="8.7884271"><ele>352.0</ele><time>2026-04-06T09:06:13.898Z</time></trkpt><trkpt lat="45.7184089" lon="8.7885749"><ele>352.0</ele><time>2026-04-06T09:06:14.897Z</time></trkpt><trkpt lat="45.7184324" lon="8.7887127"><ele>352.0</ele><time>2026-04-06T09:06:15.898Z</time></trkpt><trkpt lat="45.7184778" lon="8.7888373"><ele>351.20000000000005</ele><time>2026-04-06T09:06:16.897Z</time></trkpt><trkpt lat="45.7185463" lon="8.7889451"><ele>350.4</ele><time>2026-04-06T09:06:17.898Z</time></trkpt><trkpt lat="45.7186179" lon="8.7890399"><ele>349.6</ele><time>2026-04-06T09:06:18.897Z</time></trkpt><trkpt lat="45.7187016" lon="8.7891255"><ele>348.79999999999995</ele><time>2026-04-06T09:06:19.898Z</time></trkpt><trkpt lat="45.7187796" lon="8.7892283"><ele>348.0</ele><time>2026-04-06T09:06:20.898Z</time></trkpt><trkpt lat="45.7188397" lon="8.7893447"><ele>347.0</ele><time>2026-04-06T09:06:21.897Z</time></trkpt><trkpt lat="45.7188882" lon="8.7894761"><ele>346.0</ele><time>2026-04-06T09:06:22.898Z</time></trkpt><trkpt lat="45.718931" lon="8.7896195"><ele>345.0</ele><time>2026-04-06T09:06:23.897Z</time></trkpt><trkpt lat="45.7189728" lon="8.7897566"><ele>344.0</ele><time>2026-04-06T09:06:24.897Z</time></trkpt><trkpt lat="45.719012" lon="8.7899056"><ele>343.0</ele><time>2026-04-06T09:06:25.896Z</time></trkpt><trkpt lat="45.7190486" lon="8.7900529"><ele>341.5</ele><time>2026-04-06T09:06:26.897Z</time></trkpt><trkpt lat="45.7190875" lon="8.7902062"><ele>340.0</ele><time>2026-04-06T09:06:27.897Z</time></trkpt><trkpt lat="45.7191281" lon="8.7903577"><ele>338.5</ele><time>2026-04-06T09:06:28.897Z</time></trkpt><trkpt lat="45.7191689" lon="8.7905111"><ele>337.0</ele><time>2026-04-06T09:06:29.898Z</time></trkpt><trkpt lat="45.7192075" lon="8.7906706"><ele>337.0</ele><time>2026-04-06T09:06:30.898Z</time></trkpt><trkpt lat="45.7192494" lon="8.7908292"><ele>337.0</ele><time>2026-04-06T09:06:31.898Z</time></trkpt><trkpt lat="45.7192916" lon="8.7909851"><ele>337.0</ele><time>2026-04-06T09:06:32.897Z</time></trkpt><trkpt lat="45.719334" lon="8.7911451"><ele>337.0</ele><time>2026-04-06T09:06:33.898Z</time></trkpt><trkpt lat="45.7193753" lon="8.7913027"><ele>336.25</ele><time>2026-04-06T09:06:34.898Z</time></trkpt><trkpt lat="45.7194179" lon="8.7914595"><ele>335.5</ele><time>2026-04-06T09:06:35.897Z</time></trkpt><trkpt lat="45.7194606" lon="8.7916204"><ele>334.75</ele><time>2026-04-06T09:06:36.897Z</time></trkpt><trkpt lat="45.7194992" lon="8.7917794"><ele>334.0</ele><time>2026-04-06T09:06:37.897Z</time></trkpt><trkpt lat="45.7195379" lon="8.7919378"><ele>334.0</ele><time>2026-04-06T09:06:38.897Z</time></trkpt><trkpt lat="45.7195771" lon="8.7921087"><ele>334.0</ele><time>2026-04-06T09:06:39.897Z</time></trkpt><trkpt lat="45.7196161" lon="8.7922688"><ele>334.0</ele><time>2026-04-06T09:06:40.898Z</time></trkpt><trkpt lat="45.7196557" lon="8.7924276"><ele>334.0</ele><time>2026-04-06T09:06:41.898Z</time></trkpt><trkpt lat="45.719698" lon="8.7925913"><ele>333.0</ele><time>2026-04-06T09:06:42.898Z</time></trkpt><trkpt lat="45.7197411" lon="8.7927507"><ele>332.0</ele><time>2026-04-06T09:06:43.898Z</time></trkpt><trkpt lat="45.7197887" lon="8.7929075"><ele>331.0</ele><time>2026-04-06T09:06:44.896Z</time></trkpt><trkpt lat="45.7198511" lon="8.7930571"><ele>330.0</ele><time>2026-04-06T09:06:45.898Z</time></trkpt><trkpt lat="45.7199164" lon="8.7931993"><ele>330.0</ele><time>2026-04-06T09:06:46.898Z</time></trkpt><trkpt lat="45.7199895" lon="8.7933424"><ele>330.0</ele><time>2026-04-06T09:06:47.897Z</time></trkpt><trkpt lat="45.7200619" lon="8.7934878"><ele>330.0</ele><time>2026-04-06T09:06:48.898Z</time></trkpt><trkpt lat="45.7201398" lon="8.7936337"><ele>330.0</ele><time>2026-04-06T09:06:49.897Z</time></trkpt><trkpt lat="45.7202122" lon="8.7937719"><ele>330.75</ele><time>2026-04-06T09:06:50.897Z</time></trkpt><trkpt lat="45.7202827" lon="8.7939046"><ele>331.5</ele><time>2026-04-06T09:06:51.897Z</time></trkpt><trkpt lat="45.7203615" lon="8.7940315"><ele>332.25</ele><time>2026-04-06T09:06:52.898Z</time></trkpt><trkpt lat="45.7204465" lon="8.7941469"><ele>333.0</ele><time>2026-04-06T09:06:53.898Z</time></trkpt><trkpt lat="45.7205402" lon="8.7942483"><ele>329.5</ele><time>2026-04-06T09:06:54.897Z</time></trkpt><trkpt lat="45.7206318" lon="8.7943543"><ele>326.0</ele><time>2026-04-06T09:06:55.898Z</time></trkpt><trkpt lat="45.7207272" lon="8.7944534"><ele>322.5</ele><time>2026-04-06T09:06:56.897Z</time></trkpt><trkpt lat="45.7208209" lon="8.7945557"><ele>319.0</ele><time>2026-04-06T09:06:57.897Z</time></trkpt><trkpt lat="45.7209176" lon="8.7946615"><ele>319.0</ele><time>2026-04-06T09:06:58.897Z</time></trkpt><trkpt lat="45.7210045" lon="8.7947553"><ele>319.0</ele><time>2026-04-06T09:06:59.897Z</time></trkpt><trkpt lat="45.7210899" lon="8.7948506"><ele>319.0</ele><time>2026-04-06T09:07:00.897Z</time></trkpt><trkpt lat="45.7211738" lon="8.7949357"><ele>319.0</ele><time>2026-04-06T09:07:01.898Z</time></trkpt><trkpt lat="45.7212476" lon="8.7950141"><ele>319.0</ele><time>2026-04-06T09:07:02.898Z</time></trkpt><trkpt lat="45.72131" lon="8.7951052"><ele>319.0</ele><time>2026-04-06T09:07:03.897Z</time></trkpt><trkpt lat="45.7213402" lon="8.7952132"><ele>319.0</ele><time>2026-04-06T09:07:04.897Z</time></trkpt><trkpt lat="45.7213269" lon="8.7953286"><ele>319.0</ele><time>2026-04-06T09:07:05.897Z</time></trkpt><trkpt lat="45.7212763" lon="8.7954199"><ele>319.0</ele><time>2026-04-06T09:07:06.897Z</time></trkpt><trkpt lat="45.721205" lon="8.7955105"><ele>319.0</ele><time>2026-04-06T09:07:07.897Z</time></trkpt><trkpt lat="45.7211146" lon="8.7955864"><ele>319.0</ele><time>2026-04-06T09:07:08.898Z</time></trkpt><trkpt lat="45.7210213" lon="8.7956635"><ele>318.2</ele><time>2026-04-06T09:07:09.897Z</time></trkpt><trkpt lat="45.720929" lon="8.7957434"><ele>317.4</ele><time>2026-04-06T09:07:10.896Z</time></trkpt><trkpt lat="45.7208382" lon="8.7958128"><ele>316.6</ele><time>2026-04-06T09:07:11.898Z</time></trkpt><trkpt lat="45.7207451" lon="8.7958887"><ele>315.8</ele><time>2026-04-06T09:07:12.898Z</time></trkpt><trkpt lat="45.7206548" lon="8.7959698"><ele>315.0</ele><time>2026-04-06T09:07:13.897Z</time></trkpt><trkpt lat="45.7205663" lon="8.7960482"><ele>316.8</ele><time>2026-04-06T09:07:14.897Z</time></trkpt><trkpt lat="45.7204859" lon="8.7961474"><ele>318.6</ele><time>2026-04-06T09:07:15.898Z</time></trkpt><trkpt lat="45.7204231" lon="8.7962571"><ele>320.4</ele><time>2026-04-06T09:07:16.897Z</time></trkpt><trkpt lat="45.7203729" lon="8.7963812"><ele>322.2</ele><time>2026-04-06T09:07:17.898Z</time></trkpt><trkpt lat="45.7203311" lon="8.7965079"><ele>324.0</ele><time>2026-04-06T09:07:18.898Z</time></trkpt><trkpt lat="45.7202955" lon="8.7966331"><ele>324.0</ele><time>2026-04-06T09:07:19.897Z</time></trkpt><trkpt lat="45.720266" lon="8.7967411"><ele>324.0</ele><time>2026-04-06T09:07:20.897Z</time></trkpt><trkpt lat="45.7202388" lon="8.7968407"><ele>324.0</ele><time>2026-04-06T09:07:21.898Z</time></trkpt><trkpt lat="45.720212" lon="8.7969287"><ele>324.0</ele><time>2026-04-06T09:07:22.897Z</time></trkpt><trkpt lat="45.7201387" lon="8.7970961"><ele>324.0</ele><time>2026-04-06T09:07:24.898Z</time></trkpt><trkpt lat="45.7200876" lon="8.7971752"><ele>324.0</ele><time>2026-04-06T09:07:25.898Z</time></trkpt><trkpt lat="45.7200097" lon="8.7972478"><ele>323.2</ele><time>2026-04-06T09:07:26.898Z</time></trkpt><trkpt lat="45.7199307" lon="8.7973263"><ele>322.4</ele><time>2026-04-06T09:07:27.898Z</time></trkpt><trkpt lat="45.7198493" lon="8.7974094"><ele>321.6</ele><time>2026-04-06T09:07:28.898Z</time></trkpt><trkpt lat="45.7197594" lon="8.7974968"><ele>320.8</ele><time>2026-04-06T09:07:29.897Z</time></trkpt><trkpt lat="45.7196741" lon="8.797574"><ele>320.0</ele><time>2026-04-06T09:07:30.897Z</time></trkpt><trkpt lat="45.7195856" lon="8.7976613"><ele>321.0</ele><time>2026-04-06T09:07:31.897Z</time></trkpt><trkpt lat="45.7194948" lon="8.7977504"><ele>322.0</ele><time>2026-04-06T09:07:32.898Z</time></trkpt><trkpt lat="45.7194018" lon="8.7978364"><ele>323.0</ele><time>2026-04-06T09:07:33.897Z</time></trkpt><trkpt lat="45.719307" lon="8.7979329"><ele>324.0</ele><time>2026-04-06T09:07:34.898Z</time></trkpt><trkpt lat="45.7192138" lon="8.7980241"><ele>322.0</ele><time>2026-04-06T09:07:35.896Z</time></trkpt><trkpt lat="45.7191189" lon="8.7981202"><ele>320.0</ele><time>2026-04-06T09:07:36.897Z</time></trkpt><trkpt lat="45.7190249" lon="8.7982183"><ele>318.0</ele><time>2026-04-06T09:07:37.897Z</time></trkpt><trkpt lat="45.7189323" lon="8.7983313"><ele>316.0</ele><time>2026-04-06T09:07:38.898Z</time></trkpt><trkpt lat="45.7188442" lon="8.798444"><ele>316.25</ele><time>2026-04-06T09:07:39.897Z</time></trkpt><trkpt lat="45.7187532" lon="8.7985612"><ele>316.5</ele><time>2026-04-06T09:07:40.897Z</time></trkpt><trkpt lat="45.7186621" lon="8.7986738"><ele>316.75</ele><time>2026-04-06T09:07:41.898Z</time></trkpt><trkpt lat="45.7185715" lon="8.7987839"><ele>317.0</ele><time>2026-04-06T09:07:42.897Z</time></trkpt><trkpt lat="45.7184802" lon="8.7988987"><ele>315.75</ele><time>2026-04-06T09:07:43.897Z</time></trkpt><trkpt lat="45.7183888" lon="8.799018"><ele>314.5</ele><time>2026-04-06T09:07:44.897Z</time></trkpt><trkpt lat="45.7182966" lon="8.7991272"><ele>313.25</ele><time>2026-04-06T09:07:45.897Z</time></trkpt><trkpt lat="45.7182002" lon="8.7992353"><ele>312.0</ele><time>2026-04-06T09:07:46.897Z</time></trkpt><trkpt lat="45.7181032" lon="8.7993433"><ele>312.0</ele><time>2026-04-06T09:07:47.897Z</time></trkpt><trkpt lat="45.7180002" lon="8.7994456"><ele>312.0</ele><time>2026-04-06T09:07:48.897Z</time></trkpt><trkpt lat="45.7178919" lon="8.7995367"><ele>312.0</ele><time>2026-04-06T09:07:49.897Z</time></trkpt><trkpt lat="45.7177834" lon="8.799627"><ele>312.0</ele><time>2026-04-06T09:07:50.898Z</time></trkpt><trkpt lat="45.7176764" lon="8.799714"><ele>310.75</ele><time>2026-04-06T09:07:51.897Z</time></trkpt><trkpt lat="45.7175707" lon="8.7998059"><ele>309.5</ele><time>2026-04-06T09:07:52.897Z</time></trkpt><trkpt lat="45.7174609" lon="8.7998962"><ele>308.25</ele><time>2026-04-06T09:07:53.898Z</time></trkpt><trkpt lat="45.7173503" lon="8.7999879"><ele>307.0</ele><time>2026-04-06T09:07:54.897Z</time></trkpt><trkpt lat="45.7172422" lon="8.8000769"><ele>307.0</ele><time>2026-04-06T09:07:55.897Z</time></trkpt><trkpt lat="45.7171344" lon="8.8001668"><ele>307.0</ele><time>2026-04-06T09:07:56.898Z</time></trkpt><trkpt lat="45.717028" lon="8.8002569"><ele>307.0</ele><time>2026-04-06T09:07:57.898Z</time></trkpt><trkpt lat="45.7169256" lon="8.8003488"><ele>307.0</ele><time>2026-04-06T09:07:58.898Z</time></trkpt><trkpt lat="45.716828" lon="8.800431"><ele>306.5</ele><time>2026-04-06T09:07:59.897Z</time></trkpt><trkpt lat="45.7167275" lon="8.8005099"><ele>306.0</ele><time>2026-04-06T09:08:00.897Z</time></trkpt><trkpt lat="45.7166226" lon="8.8005921"><ele>305.5</ele><time>2026-04-06T09:08:01.897Z</time></trkpt><trkpt lat="45.7165184" lon="8.8006768"><ele>305.0</ele><time>2026-04-06T09:08:02.897Z</time></trkpt><trkpt lat="45.7164148" lon="8.8007638"><ele>305.0</ele><time>2026-04-06T09:08:03.897Z</time></trkpt><trkpt lat="45.7163098" lon="8.8008465"><ele>305.0</ele><time>2026-04-06T09:08:04.898Z</time></trkpt><trkpt lat="45.7162054" lon="8.8009225"><ele>305.0</ele><time>2026-04-06T09:08:05.897Z</time></trkpt><trkpt lat="45.7160976" lon="8.8009945"><ele>305.0</ele><time>2026-04-06T09:08:06.898Z</time></trkpt><trkpt lat="45.7159833" lon="8.801075"><ele>304.75</ele><time>2026-04-06T09:08:07.897Z</time></trkpt><trkpt lat="45.715877" lon="8.8011395"><ele>304.5</ele><time>2026-04-06T09:08:08.898Z</time></trkpt><trkpt lat="45.7157646" lon="8.8012167"><ele>304.25</ele><time>2026-04-06T09:08:09.897Z</time></trkpt><trkpt lat="45.7156485" lon="8.8012923"><ele>304.0</ele><time>2026-04-06T09:08:10.897Z</time></trkpt><trkpt lat="45.7155353" lon="8.8013641"><ele>304.0</ele><time>2026-04-06T09:08:11.898Z</time></trkpt><trkpt lat="45.7154198" lon="8.8014338"><ele>304.0</ele><time>2026-04-06T09:08:12.898Z</time></trkpt><trkpt lat="45.7153063" lon="8.8015093"><ele>304.0</ele><time>2026-04-06T09:08:13.898Z</time></trkpt><trkpt lat="45.7151936" lon="8.8015816"><ele>304.0</ele><time>2026-04-06T09:08:14.898Z</time></trkpt><trkpt lat="45.7150857" lon="8.8016529"><ele>303.25</ele><time>2026-04-06T09:08:15.898Z</time></trkpt><trkpt lat="45.7149762" lon="8.8017216"><ele>302.5</ele><time>2026-04-06T09:08:16.897Z</time></trkpt><trkpt lat="45.7148618" lon="8.801792"><ele>301.75</ele><time>2026-04-06T09:08:17.897Z</time></trkpt><trkpt lat="45.7147509" lon="8.8018726"><ele>301.0</ele><time>2026-04-06T09:08:18.898Z</time></trkpt><trkpt lat="45.7146307" lon="8.8019464"><ele>300.75</ele><time>2026-04-06T09:08:19.898Z</time></trkpt><trkpt lat="45.7145186" lon="8.8020162"><ele>300.5</ele><time>2026-04-06T09:08:20.897Z</time></trkpt><trkpt lat="45.7144028" lon="8.8020975"><ele>300.25</ele><time>2026-04-06T09:08:21.898Z</time></trkpt><trkpt lat="45.7142909" lon="8.8021873"><ele>300.0</ele><time>2026-04-06T09:08:22.898Z</time></trkpt><trkpt lat="45.7141747" lon="8.8022681"><ele>299.25</ele><time>2026-04-06T09:08:23.897Z</time></trkpt><trkpt lat="45.7140625" lon="8.802328"><ele>298.5</ele><time>2026-04-06T09:08:24.897Z</time></trkpt><trkpt lat="45.713937" lon="8.802343"><ele>297.75</ele><time>2026-04-06T09:08:25.897Z</time></trkpt><trkpt lat="45.7138126" lon="8.8023592"><ele>297.0</ele><time>2026-04-06T09:08:26.897Z</time></trkpt><trkpt lat="45.7136823" lon="8.8023274"><ele>295.75</ele><time>2026-04-06T09:08:27.898Z</time></trkpt><trkpt lat="45.7135666" lon="8.8022929"><ele>294.5</ele><time>2026-04-06T09:08:28.898Z</time></trkpt><trkpt lat="45.7134425" lon="8.8022617"><ele>293.25</ele><time>2026-04-06T09:08:29.897Z</time></trkpt><trkpt lat="45.7133192" lon="8.8022423"><ele>292.0</ele><time>2026-04-06T09:08:30.898Z</time></trkpt><trkpt lat="45.7132026" lon="8.8022153"><ele>292.0</ele><time>2026-04-06T09:08:31.897Z</time></trkpt><trkpt lat="45.7130919" lon="8.8021927"><ele>292.0</ele><time>2026-04-06T09:08:32.897Z</time></trkpt><trkpt lat="45.7129833" lon="8.8021683"><ele>292.0</ele><time>2026-04-06T09:08:33.897Z</time></trkpt><trkpt lat="45.712883" lon="8.8021353"><ele>292.0</ele><time>2026-04-06T09:08:34.898Z</time></trkpt><trkpt lat="45.7127888" lon="8.8021099"><ele>292.0</ele><time>2026-04-06T09:08:35.898Z</time></trkpt><trkpt lat="45.712712" lon="8.8020741"><ele>291.8</ele><time>2026-04-06T09:08:36.898Z</time></trkpt><trkpt lat="45.7126406" lon="8.8020315"><ele>291.6</ele><time>2026-04-06T09:08:37.898Z</time></trkpt><trkpt lat="45.7125779" lon="8.8019915"><ele>291.40000000000003</ele><time>2026-04-06T09:08:38.898Z</time></trkpt><trkpt lat="45.7125148" lon="8.8019895"><ele>291.2</ele><time>2026-04-06T09:08:39.898Z</time></trkpt><trkpt lat="45.7124368" lon="8.8020777"><ele>291.0</ele><time>2026-04-06T09:08:41.898Z</time></trkpt><trkpt lat="45.7124559" lon="8.8022983"><ele>291.0</ele><time>2026-04-06T09:08:43.897Z</time></trkpt><trkpt lat="45.7124567" lon="8.8024036"><ele>291.0</ele><time>2026-04-06T09:08:44.896Z</time></trkpt><trkpt lat="45.7124405" lon="8.802518"><ele>291.0</ele><time>2026-04-06T09:08:45.898Z</time></trkpt><trkpt lat="45.7124014" lon="8.8026187"><ele>291.0</ele><time>2026-04-06T09:08:46.896Z</time></trkpt><trkpt lat="45.7123511" lon="8.8027085"><ele>291.0</ele><time>2026-04-06T09:08:47.898Z</time></trkpt><trkpt lat="45.7122522" lon="8.8027342"><ele>291.0</ele><time>2026-04-06T09:08:48.898Z</time></trkpt><trkpt lat="45.7121477" lon="8.8027529"><ele>289.75</ele><time>2026-04-06T09:08:49.898Z</time></trkpt><trkpt lat="45.7120323" lon="8.8027617"><ele>288.5</ele><time>2026-04-06T09:08:50.897Z</time></trkpt><trkpt lat="45.711903" lon="8.8027693"><ele>287.25</ele><time>2026-04-06T09:08:51.898Z</time></trkpt><trkpt lat="45.7117636" lon="8.8027778"><ele>286.0</ele><time>2026-04-06T09:08:52.898Z</time></trkpt><trkpt lat="45.7116194" lon="8.8027768"><ele>285.5</ele><time>2026-04-06T09:08:53.898Z</time></trkpt><trkpt lat="45.7114751" lon="8.8027794"><ele>285.0</ele><time>2026-04-06T09:08:54.897Z</time></trkpt><trkpt lat="45.7113346" lon="8.8027881"><ele>284.5</ele><time>2026-04-06T09:08:55.898Z</time></trkpt><trkpt lat="45.7111962" lon="8.8027958"><ele>284.0</ele><time>2026-04-06T09:08:56.897Z</time></trkpt><trkpt lat="45.7110598" lon="8.8028145"><ele>283.59999999999997</ele><time>2026-04-06T09:08:57.898Z</time></trkpt><trkpt lat="45.710935" lon="8.8028223"><ele>283.2</ele><time>2026-04-06T09:08:58.898Z</time></trkpt><trkpt lat="45.7108189" lon="8.8028329"><ele>282.79999999999995</ele><time>2026-04-06T09:08:59.898Z</time></trkpt><trkpt lat="45.7107095" lon="8.8028467"><ele>282.4</ele><time>2026-04-06T09:09:00.897Z</time></trkpt><trkpt lat="45.7106118" lon="8.8028558"><ele>282.0</ele><time>2026-04-06T09:09:01.898Z</time></trkpt><trkpt lat="45.7105353" lon="8.8028965"><ele>282.0</ele><time>2026-04-06T09:09:02.898Z</time></trkpt><trkpt lat="45.7104916" lon="8.8029886"><ele>282.0</ele><time>2026-04-06T09:09:03.898Z</time></trkpt><trkpt lat="45.7104579" lon="8.8030987"><ele>282.0</ele><time>2026-04-06T09:09:04.898Z</time></trkpt><trkpt lat="45.7104858" lon="8.8032501"><ele>282.0</ele><time>2026-04-06T09:09:05.898Z</time></trkpt><trkpt lat="45.7104986" lon="8.8034002"><ele>282.0</ele><time>2026-04-06T09:09:06.898Z</time></trkpt><trkpt lat="45.7105159" lon="8.8035572"><ele>281.75</ele><time>2026-04-06T09:09:07.898Z</time></trkpt><trkpt lat="45.7105377" lon="8.803733"><ele>281.5</ele><time>2026-04-06T09:09:08.898Z</time></trkpt><trkpt lat="45.7105643" lon="8.8039067"><ele>281.25</ele><time>2026-04-06T09:09:09.898Z</time></trkpt><trkpt lat="45.7105912" lon="8.8040834"><ele>281.0</ele><time>2026-04-06T09:09:10.898Z</time></trkpt><trkpt lat="45.710624" lon="8.8042611"><ele>280.5</ele><time>2026-04-06T09:09:11.896Z</time></trkpt><trkpt lat="45.7106586" lon="8.8044414"><ele>280.0</ele><time>2026-04-06T09:09:12.897Z</time></trkpt><trkpt lat="45.7106991" lon="8.8046099"><ele>279.5</ele><time>2026-04-06T09:09:13.897Z</time></trkpt><trkpt lat="45.7107448" lon="8.8047838"><ele>279.0</ele><time>2026-04-06T09:09:14.897Z</time></trkpt><trkpt lat="45.7107852" lon="8.8049599"><ele>279.0</ele><time>2026-04-06T09:09:15.897Z</time></trkpt><trkpt lat="45.7108285" lon="8.8051278"><ele>279.0</ele><time>2026-04-06T09:09:16.897Z</time></trkpt><trkpt lat="45.7108671" lon="8.8052928"><ele>279.0</ele><time>2026-04-06T09:09:17.897Z</time></trkpt><trkpt lat="45.710908" lon="8.8054562"><ele>279.0</ele><time>2026-04-06T09:09:18.897Z</time></trkpt><trkpt lat="45.7109436" lon="8.8056221"><ele>279.0</ele><time>2026-04-06T09:09:19.897Z</time></trkpt><trkpt lat="45.7109825" lon="8.8057776"><ele>279.0</ele><time>2026-04-06T09:09:20.897Z</time></trkpt><trkpt lat="45.7110219" lon="8.8059269"><ele>279.0</ele><time>2026-04-06T09:09:21.898Z</time></trkpt><trkpt lat="45.7110589" lon="8.8060736"><ele>279.0</ele><time>2026-04-06T09:09:22.898Z</time></trkpt><trkpt lat="45.7110937" lon="8.8062088"><ele>279.0</ele><time>2026-04-06T09:09:23.898Z</time></trkpt><trkpt lat="45.7111287" lon="8.8063327"><ele>278.8333333333333</ele><time>2026-04-06T09:09:24.898Z</time></trkpt><trkpt lat="45.7111868" lon="8.8064403"><ele>278.6666666666667</ele><time>2026-04-06T09:09:25.897Z</time></trkpt><trkpt lat="45.7112604" lon="8.8065011"><ele>278.5</ele><time>2026-04-06T09:09:26.897Z</time></trkpt><trkpt lat="45.7113423" lon="8.8065269"><ele>278.33333333333337</ele><time>2026-04-06T09:09:27.898Z</time></trkpt><trkpt lat="45.71143" lon="8.8065314"><ele>278.1666666666667</ele><time>2026-04-06T09:09:28.897Z</time></trkpt><trkpt lat="45.7115258" lon="8.8065213"><ele>278.0</ele><time>2026-04-06T09:09:29.898Z</time></trkpt><trkpt lat="45.7116438" lon="8.8064945"><ele>278.0</ele><time>2026-04-06T09:09:30.897Z</time></trkpt><trkpt lat="45.7117846" lon="8.8064905"><ele>278.0</ele><time>2026-04-06T09:09:31.897Z</time></trkpt><trkpt lat="45.7119263" lon="8.8065023"><ele>278.0</ele><time>2026-04-06T09:09:32.897Z</time></trkpt><trkpt lat="45.712059" lon="8.8065152"><ele>278.0</ele><time>2026-04-06T09:09:33.897Z</time></trkpt><trkpt lat="45.712191" lon="8.80652"><ele>278.25</ele><time>2026-04-06T09:09:34.898Z</time></trkpt><trkpt lat="45.7123129" lon="8.806538"><ele>278.5</ele><time>2026-04-06T09:09:35.898Z</time></trkpt><trkpt lat="45.7124194" lon="8.8065984"><ele>278.75</ele><time>2026-04-06T09:09:36.897Z</time></trkpt><trkpt lat="45.712518" lon="8.8066828"><ele>279.0</ele><time>2026-04-06T09:09:37.897Z</time></trkpt><trkpt lat="45.7125871" lon="8.8068028"><ele>279.5</ele><time>2026-04-06T09:09:38.897Z</time></trkpt><trkpt lat="45.7126443" lon="8.8069338"><ele>280.0</ele><time>2026-04-06T09:09:39.897Z</time></trkpt><trkpt lat="45.7126399" lon="8.8071219"><ele>280.5</ele><time>2026-04-06T09:09:40.898Z</time></trkpt><trkpt lat="45.7126394" lon="8.8073033"><ele>281.0</ele><time>2026-04-06T09:09:41.896Z</time></trkpt><trkpt lat="45.7126273" lon="8.8074898"><ele>281.5</ele><time>2026-04-06T09:09:42.898Z</time></trkpt><trkpt lat="45.7126162" lon="8.8076802"><ele>282.0</ele><time>2026-04-06T09:09:43.897Z</time></trkpt><trkpt lat="45.7126052" lon="8.8078737"><ele>282.5</ele><time>2026-04-06T09:09:44.898Z</time></trkpt><trkpt lat="45.7125908" lon="8.808075"><ele>283.0</ele><time>2026-04-06T09:09:45.898Z</time></trkpt><trkpt lat="45.7125794" lon="8.8082732"><ele>282.3333333333333</ele><time>2026-04-06T09:09:46.897Z</time></trkpt><trkpt lat="45.712571" lon="8.8085043"><ele>281.6666666666667</ele><time>2026-04-06T09:09:47.897Z</time></trkpt><trkpt lat="45.7125632" lon="8.8087095"><ele>281.0</ele><time>2026-04-06T09:09:48.898Z</time></trkpt><trkpt lat="45.7125593" lon="8.8089193"><ele>281.0</ele><time>2026-04-06T09:09:49.897Z</time></trkpt><trkpt lat="45.7125772" lon="8.8091146"><ele>281.0</ele><time>2026-04-06T09:09:50.898Z</time></trkpt><trkpt lat="45.7126239" lon="8.8092912"><ele>281.0</ele><time>2026-04-06T09:09:51.898Z</time></trkpt><trkpt lat="45.7126811" lon="8.8094536"><ele>281.0</ele><time>2026-04-06T09:09:52.898Z</time></trkpt><trkpt lat="45.7127371" lon="8.8096182"><ele>281.5</ele><time>2026-04-06T09:09:53.897Z</time></trkpt><trkpt lat="45.712775" lon="8.8097965"><ele>282.0</ele><time>2026-04-06T09:09:54.897Z</time></trkpt><trkpt lat="45.7128018" lon="8.8099835"><ele>282.5</ele><time>2026-04-06T09:09:55.897Z</time></trkpt><trkpt lat="45.712804" lon="8.810179"><ele>283.0</ele><time>2026-04-06T09:09:56.897Z</time></trkpt><trkpt lat="45.712803" lon="8.8103728"><ele>284.75</ele><time>2026-04-06T09:09:57.897Z</time></trkpt><trkpt lat="45.712795" lon="8.8105674"><ele>286.5</ele><time>2026-04-06T09:09:58.898Z</time></trkpt><trkpt lat="45.7127842" lon="8.8107567"><ele>288.25</ele><time>2026-04-06T09:09:59.897Z</time></trkpt><trkpt lat="45.7127707" lon="8.8109469"><ele>290.0</ele><time>2026-04-06T09:10:00.898Z</time></trkpt><trkpt lat="45.712754" lon="8.8111297"><ele>290.0</ele><time>2026-04-06T09:10:01.898Z</time></trkpt><trkpt lat="45.7127399" lon="8.8113063"><ele>290.0</ele><time>2026-04-06T09:10:02.898Z</time></trkpt><trkpt lat="45.7127178" lon="8.8114689"><ele>290.0</ele><time>2026-04-06T09:10:03.898Z</time></trkpt><trkpt lat="45.7126825" lon="8.8116166"><ele>290.0</ele><time>2026-04-06T09:10:04.898Z</time></trkpt><trkpt lat="45.7126424" lon="8.8117511"><ele>291.0</ele><time>2026-04-06T09:10:05.897Z</time></trkpt><trkpt lat="45.7126303" lon="8.811892"><ele>292.0</ele><time>2026-04-06T09:10:06.897Z</time></trkpt><trkpt lat="45.7126334" lon="8.8120475"><ele>293.0</ele><time>2026-04-06T09:10:07.897Z</time></trkpt><trkpt lat="45.7126401" lon="8.8122101"><ele>294.0</ele><time>2026-04-06T09:10:08.898Z</time></trkpt><trkpt lat="45.7126343" lon="8.8123761"><ele>295.0</ele><time>2026-04-06T09:10:09.898Z</time></trkpt><trkpt lat="45.7126162" lon="8.8125431"><ele>295.75</ele><time>2026-04-06T09:10:10.897Z</time></trkpt><trkpt lat="45.7125784" lon="8.8127032"><ele>296.5</ele><time>2026-04-06T09:10:11.898Z</time></trkpt><trkpt lat="45.7125229" lon="8.8128509"><ele>297.25</ele><time>2026-04-06T09:10:12.897Z</time></trkpt><trkpt lat="45.7124575" lon="8.8129938"><ele>298.0</ele><time>2026-04-06T09:10:13.898Z</time></trkpt><trkpt lat="45.7123779" lon="8.8131185"><ele>298.0</ele><time>2026-04-06T09:10:14.897Z</time></trkpt><trkpt lat="45.7122852" lon="8.8132229"><ele>298.0</ele><time>2026-04-06T09:10:15.897Z</time></trkpt><trkpt lat="45.7121839" lon="8.8133124"><ele>298.0</ele><time>2026-04-06T09:10:16.898Z</time></trkpt><trkpt lat="45.7120717" lon="8.813372"><ele>298.0</ele><time>2026-04-06T09:10:17.897Z</time></trkpt><trkpt lat="45.711964" lon="8.8134416"><ele>298.0</ele><time>2026-04-06T09:10:18.897Z</time></trkpt><trkpt lat="45.7118557" lon="8.8135123"><ele>298.0</ele><time>2026-04-06T09:10:19.897Z</time></trkpt><trkpt lat="45.71175" lon="8.8135891"><ele>298.0</ele><time>2026-04-06T09:10:20.897Z</time></trkpt><trkpt lat="45.7116485" lon="8.8136767"><ele>298.0</ele><time>2026-04-06T09:10:21.898Z</time></trkpt><trkpt lat="45.7115634" lon="8.8137985"><ele>298.0</ele><time>2026-04-06T09:10:22.897Z</time></trkpt><trkpt lat="45.7114805" lon="8.8139122"><ele>298.0</ele><time>2026-04-06T09:10:23.896Z</time></trkpt><trkpt lat="45.711412" lon="8.8140553"><ele>298.0</ele><time>2026-04-06T09:10:24.897Z</time></trkpt><trkpt lat="45.7113454" lon="8.8142025"><ele>298.0</ele><time>2026-04-06T09:10:25.898Z</time></trkpt><trkpt lat="45.7113111" lon="8.8143711"><ele>299.25</ele><time>2026-04-06T09:10:26.897Z</time></trkpt><trkpt lat="45.7112804" lon="8.8145383"><ele>300.5</ele><time>2026-04-06T09:10:27.897Z</time></trkpt><trkpt lat="45.7112768" lon="8.8147107"><ele>301.75</ele><time>2026-04-06T09:10:28.898Z</time></trkpt><trkpt lat="45.7112714" lon="8.8148846"><ele>303.0</ele><time>2026-04-06T09:10:29.898Z</time></trkpt><trkpt lat="45.7112922" lon="8.8150673"><ele>303.5</ele><time>2026-04-06T09:10:30.897Z</time></trkpt><trkpt lat="45.7113113" lon="8.815244"><ele>304.0</ele><time>2026-04-06T09:10:31.897Z</time></trkpt><trkpt lat="45.7113317" lon="8.8154237"><ele>304.5</ele><time>2026-04-06T09:10:32.896Z</time></trkpt><trkpt lat="45.7113646" lon="8.81559"><ele>305.0</ele><time>2026-04-06T09:10:33.897Z</time></trkpt><trkpt lat="45.7114113" lon="8.8157471"><ele>305.0</ele><time>2026-04-06T09:10:34.898Z</time></trkpt><trkpt lat="45.7114722" lon="8.8158986"><ele>305.0</ele><time>2026-04-06T09:10:35.897Z</time></trkpt><trkpt lat="45.7115465" lon="8.8160376"><ele>305.0</ele><time>2026-04-06T09:10:36.898Z</time></trkpt><trkpt lat="45.7116283" lon="8.8161651"><ele>305.0</ele><time>2026-04-06T09:10:37.896Z</time></trkpt><trkpt lat="45.7117167" lon="8.8162823"><ele>304.75</ele><time>2026-04-06T09:10:38.897Z</time></trkpt><trkpt lat="45.7118239" lon="8.8163856"><ele>304.5</ele><time>2026-04-06T09:10:39.898Z</time></trkpt><trkpt lat="45.7119302" lon="8.8164836"><ele>304.25</ele><time>2026-04-06T09:10:40.897Z</time></trkpt><trkpt lat="45.7120328" lon="8.8165787"><ele>304.0</ele><time>2026-04-06T09:10:41.897Z</time></trkpt><trkpt lat="45.7121348" lon="8.8166852"><ele>305.75</ele><time>2026-04-06T09:10:42.898Z</time></trkpt><trkpt lat="45.7122348" lon="8.8167889"><ele>307.5</ele><time>2026-04-06T09:10:43.897Z</time></trkpt><trkpt lat="45.7123402" lon="8.8168813"><ele>309.25</ele><time>2026-04-06T09:10:44.897Z</time></trkpt><trkpt lat="45.7124434" lon="8.816984"><ele>311.0</ele><time>2026-04-06T09:10:45.898Z</time></trkpt><trkpt lat="45.7125488" lon="8.8170862"><ele>311.5</ele><time>2026-04-06T09:10:46.898Z</time></trkpt><trkpt lat="45.7126578" lon="8.8171779"><ele>312.0</ele><time>2026-04-06T09:10:47.897Z</time></trkpt><trkpt lat="45.7127659" lon="8.8172715"><ele>312.5</ele><time>2026-04-06T09:10:48.897Z</time></trkpt><trkpt lat="45.7128752" lon="8.8173528"><ele>313.0</ele><time>2026-04-06T09:10:49.898Z</time></trkpt><trkpt lat="45.7129856" lon="8.8174232"><ele>313.0</ele><time>2026-04-06T09:10:50.897Z</time></trkpt><trkpt lat="45.7131018" lon="8.8174893"><ele>313.0</ele><time>2026-04-06T09:10:51.898Z</time></trkpt><trkpt lat="45.7132194" lon="8.8175491"><ele>313.0</ele><time>2026-04-06T09:10:52.896Z</time></trkpt><trkpt lat="45.7133356" lon="8.8176079"><ele>313.0</ele><time>2026-04-06T09:10:53.896Z</time></trkpt><trkpt lat="45.7134521" lon="8.8176666"><ele>314.0</ele><time>2026-04-06T09:10:54.897Z</time></trkpt><trkpt lat="45.7135672" lon="8.8177242"><ele>315.0</ele><time>2026-04-06T09:10:55.898Z</time></trkpt><trkpt lat="45.7136868" lon="8.8177823"><ele>316.0</ele><time>2026-04-06T09:10:56.898Z</time></trkpt><trkpt lat="45.7138061" lon="8.817838"><ele>317.0</ele><time>2026-04-06T09:10:57.898Z</time></trkpt><trkpt lat="45.7139283" lon="8.8178898"><ele>317.0</ele><time>2026-04-06T09:10:58.898Z</time></trkpt><trkpt lat="45.7140487" lon="8.8179357"><ele>317.0</ele><time>2026-04-06T09:10:59.897Z</time></trkpt><trkpt lat="45.7141733" lon="8.8179886"><ele>317.0</ele><time>2026-04-06T09:11:00.898Z</time></trkpt><trkpt lat="45.714298" lon="8.8180404"><ele>317.0</ele><time>2026-04-06T09:11:01.897Z</time></trkpt><trkpt lat="45.7144205" lon="8.8180902"><ele>317.5</ele><time>2026-04-06T09:11:02.898Z</time></trkpt><trkpt lat="45.7145453" lon="8.8181391"><ele>318.0</ele><time>2026-04-06T09:11:03.897Z</time></trkpt><trkpt lat="45.7146677" lon="8.8181988"><ele>318.5</ele><time>2026-04-06T09:11:04.897Z</time></trkpt><trkpt lat="45.7147859" lon="8.8182544"><ele>319.0</ele><time>2026-04-06T09:11:05.897Z</time></trkpt><trkpt lat="45.7149038" lon="8.8183103"><ele>319.0</ele><time>2026-04-06T09:11:06.898Z</time></trkpt><trkpt lat="45.7150203" lon="8.8183645"><ele>319.0</ele><time>2026-04-06T09:11:07.898Z</time></trkpt><trkpt lat="45.7151373" lon="8.818423"><ele>319.0</ele><time>2026-04-06T09:11:08.897Z</time></trkpt><trkpt lat="45.7152525" lon="8.8184763"><ele>319.0</ele><time>2026-04-06T09:11:09.898Z</time></trkpt><trkpt lat="45.7153721" lon="8.8185355"><ele>319.0</ele><time>2026-04-06T09:11:10.897Z</time></trkpt><trkpt lat="45.7154785" lon="8.818591"><ele>319.0</ele><time>2026-04-06T09:11:11.897Z</time></trkpt><trkpt lat="45.7156006" lon="8.81864"><ele>319.0</ele><time>2026-04-06T09:11:12.898Z</time></trkpt><trkpt lat="45.7157063" lon="8.8186869"><ele>319.0</ele><time>2026-04-06T09:11:13.897Z</time></trkpt><trkpt lat="45.7158146" lon="8.8187368"><ele>319.0</ele><time>2026-04-06T09:11:14.898Z</time></trkpt><trkpt lat="45.7159179" lon="8.8188037"><ele>319.0</ele><time>2026-04-06T09:11:15.896Z</time></trkpt><trkpt lat="45.7160171" lon="8.818885"><ele>319.0</ele><time>2026-04-06T09:11:16.897Z</time></trkpt><trkpt lat="45.7161196" lon="8.8189507"><ele>319.0</ele><time>2026-04-06T09:11:17.897Z</time></trkpt><trkpt lat="45.7162216" lon="8.8189768"><ele>319.0</ele><time>2026-04-06T09:11:18.896Z</time></trkpt><trkpt lat="45.716332" lon="8.8190067"><ele>318.75</ele><time>2026-04-06T09:11:19.898Z</time></trkpt><trkpt lat="45.7164424" lon="8.8190482"><ele>318.5</ele><time>2026-04-06T09:11:20.897Z</time></trkpt><trkpt lat="45.7165543" lon="8.8190867"><ele>318.25</ele><time>2026-04-06T09:11:21.898Z</time></trkpt><trkpt lat="45.7166729" lon="8.8191263"><ele>318.0</ele><time>2026-04-06T09:11:22.897Z</time></trkpt><trkpt lat="45.7167935" lon="8.8191589"><ele>319.25</ele><time>2026-04-06T09:11:23.898Z</time></trkpt><trkpt lat="45.7169183" lon="8.8191813"><ele>320.5</ele><time>2026-04-06T09:11:24.898Z</time></trkpt><trkpt lat="45.7170373" lon="8.8192082"><ele>321.75</ele><time>2026-04-06T09:11:25.898Z</time></trkpt><trkpt lat="45.7171605" lon="8.8192276"><ele>323.0</ele><time>2026-04-06T09:11:26.897Z</time></trkpt><trkpt lat="45.7172861" lon="8.819245"><ele>323.0</ele><time>2026-04-06T09:11:27.897Z</time></trkpt><trkpt lat="45.7173996" lon="8.8192683"><ele>323.0</ele><time>2026-04-06T09:11:28.897Z</time></trkpt><trkpt lat="45.7175059" lon="8.8192877"><ele>323.0</ele><time>2026-04-06T09:11:29.898Z</time></trkpt><trkpt lat="45.7176099" lon="8.8193082"><ele>323.0</ele><time>2026-04-06T09:11:30.896Z</time></trkpt><trkpt lat="45.717713" lon="8.8193286"><ele>323.0</ele><time>2026-04-06T09:11:31.898Z</time></trkpt><trkpt lat="45.7178105" lon="8.8193537"><ele>322.59999999999997</ele><time>2026-04-06T09:11:32.897Z</time></trkpt><trkpt lat="45.7178971" lon="8.8194211"><ele>322.2</ele><time>2026-04-06T09:11:33.897Z</time></trkpt><trkpt lat="45.7179766" lon="8.8195098"><ele>321.8</ele><time>2026-04-06T09:11:34.897Z</time></trkpt><trkpt lat="45.7180648" lon="8.8195762"><ele>321.4</ele><time>2026-04-06T09:11:35.897Z</time></trkpt><trkpt lat="45.7181642" lon="8.8195894"><ele>321.0</ele><time>2026-04-06T09:11:36.897Z</time></trkpt><trkpt lat="45.7182676" lon="8.8195685"><ele>321.0</ele><time>2026-04-06T09:11:37.897Z</time></trkpt><trkpt lat="45.7183865" lon="8.8195297"><ele>321.0</ele><time>2026-04-06T09:11:38.897Z</time></trkpt><trkpt lat="45.7185298" lon="8.8195041"><ele>321.0</ele><time>2026-04-06T09:11:39.898Z</time></trkpt><trkpt lat="45.718674" lon="8.8194861"><ele>321.0</ele><time>2026-04-06T09:11:40.897Z</time></trkpt><trkpt lat="45.7188282" lon="8.8194848"><ele>320.6666666666667</ele><time>2026-04-06T09:11:41.898Z</time></trkpt><trkpt lat="45.718992" lon="8.8194889"><ele>320.33333333333337</ele><time>2026-04-06T09:11:42.898Z</time></trkpt><trkpt lat="45.7191587" lon="8.8194879"><ele>320.0</ele><time>2026-04-06T09:11:43.897Z</time></trkpt><trkpt lat="45.7193372" lon="8.8194898"><ele>320.33333333333337</ele><time>2026-04-06T09:11:44.897Z</time></trkpt><trkpt lat="45.7195215" lon="8.8194867"><ele>320.6666666666667</ele><time>2026-04-06T09:11:45.897Z</time></trkpt><trkpt lat="45.7197196" lon="8.8194773"><ele>321.0</ele><time>2026-04-06T09:11:46.898Z</time></trkpt><trkpt lat="45.7199094" lon="8.8194729"><ele>321.0</ele><time>2026-04-06T09:11:47.898Z</time></trkpt><trkpt lat="45.7200982" lon="8.819473"><ele>321.0</ele><time>2026-04-06T09:11:48.897Z</time></trkpt><trkpt lat="45.7202769" lon="8.8194746"><ele>321.0</ele><time>2026-04-06T09:11:49.897Z</time></trkpt><trkpt lat="45.7204527" lon="8.8194696"><ele>323.0</ele><time>2026-04-06T09:11:50.898Z</time></trkpt><trkpt lat="45.720625" lon="8.8194598"><ele>325.0</ele><time>2026-04-06T09:11:51.897Z</time></trkpt><trkpt lat="45.7207929" lon="8.8194538"><ele>327.0</ele><time>2026-04-06T09:11:52.897Z</time></trkpt><trkpt lat="45.7209579" lon="8.8194452"><ele>327.3333333333333</ele><time>2026-04-06T09:11:53.897Z</time></trkpt><trkpt lat="45.7211224" lon="8.8194389"><ele>327.66666666666663</ele><time>2026-04-06T09:11:54.897Z</time></trkpt><trkpt lat="45.7212828" lon="8.819432"><ele>328.0</ele><time>2026-04-06T09:11:55.897Z</time></trkpt><trkpt lat="45.7214444" lon="8.8194233"><ele>328.0</ele><time>2026-04-06T09:11:56.897Z</time></trkpt><trkpt lat="45.7216033" lon="8.819422"><ele>328.0</ele><time>2026-04-06T09:11:57.898Z</time></trkpt><trkpt lat="45.7217611" lon="8.8194218"><ele>328.0</ele><time>2026-04-06T09:11:58.897Z</time></trkpt><trkpt lat="45.7219205" lon="8.819418"><ele>328.66666666666663</ele><time>2026-04-06T09:11:59.897Z</time></trkpt><trkpt lat="45.7220815" lon="8.8194168"><ele>329.3333333333333</ele><time>2026-04-06T09:12:00.897Z</time></trkpt><trkpt lat="45.7222368" lon="8.81943"><ele>330.0</ele><time>2026-04-06T09:12:01.897Z</time></trkpt><trkpt lat="45.722397" lon="8.8194536"><ele>330.0</ele><time>2026-04-06T09:12:02.897Z</time></trkpt><trkpt lat="45.7225517" lon="8.8194833"><ele>330.0</ele><time>2026-04-06T09:12:03.898Z</time></trkpt><trkpt lat="45.7227047" lon="8.8195251"><ele>330.0</ele><time>2026-04-06T09:12:04.897Z</time></trkpt><trkpt lat="45.7228548" lon="8.8195684"><ele>330.25</ele><time>2026-04-06T09:12:05.897Z</time></trkpt><trkpt lat="45.723002" lon="8.8196056"><ele>330.5</ele><time>2026-04-06T09:12:06.898Z</time></trkpt><trkpt lat="45.7231478" lon="8.8196468"><ele>330.75</ele><time>2026-04-06T09:12:07.898Z</time></trkpt><trkpt lat="45.7232926" lon="8.8196922"><ele>331.0</ele><time>2026-04-06T09:12:08.898Z</time></trkpt><trkpt lat="45.7234377" lon="8.8197372"><ele>330.75</ele><time>2026-04-06T09:12:09.898Z</time></trkpt><trkpt lat="45.7235789" lon="8.8197765"><ele>330.5</ele><time>2026-04-06T09:12:10.898Z</time></trkpt><trkpt lat="45.7237199" lon="8.8198151"><ele>330.25</ele><time>2026-04-06T09:12:11.897Z</time></trkpt><trkpt lat="45.7238592" lon="8.8198517"><ele>330.0</ele><time>2026-04-06T09:12:12.897Z</time></trkpt><trkpt lat="45.7239972" lon="8.8198864"><ele>330.0</ele><time>2026-04-06T09:12:13.897Z</time></trkpt><trkpt lat="45.7241239" lon="8.8199211"><ele>330.0</ele><time>2026-04-06T09:12:14.898Z</time></trkpt><trkpt lat="45.7242512" lon="8.8199518"><ele>330.0</ele><time>2026-04-06T09:12:15.897Z</time></trkpt><trkpt lat="45.7243655" lon="8.8199944"><ele>330.0</ele><time>2026-04-06T09:12:16.897Z</time></trkpt><trkpt lat="45.724479" lon="8.820026"><ele>330.6</ele><time>2026-04-06T09:12:17.898Z</time></trkpt><trkpt lat="45.7245693" lon="8.8200661"><ele>331.2</ele><time>2026-04-06T09:12:18.897Z</time></trkpt><trkpt lat="45.724654" lon="8.820094"><ele>331.79999999999995</ele><time>2026-04-06T09:12:19.898Z</time></trkpt><trkpt lat="45.7247343" lon="8.8201139"><ele>332.4</ele><time>2026-04-06T09:12:20.897Z</time></trkpt><trkpt lat="45.724819" lon="8.8201835"><ele>333.0</ele><time>2026-04-06T09:12:22.898Z</time></trkpt><trkpt lat="45.7248088" lon="8.8203294"><ele>333.0</ele><time>2026-04-06T09:12:24.898Z</time></trkpt><trkpt lat="45.7247465" lon="8.8204849"><ele>333.0</ele><time>2026-04-06T09:12:26.896Z</time></trkpt><trkpt lat="45.7247551" lon="8.820608"><ele>333.0</ele><time>2026-04-06T09:12:28.898Z</time></trkpt><trkpt lat="45.7248651" lon="8.8206927"><ele>333.0</ele><time>2026-04-06T09:12:30.898Z</time></trkpt><trkpt lat="45.7249395" lon="8.8207557"><ele>333.0</ele><time>2026-04-06T09:12:31.897Z</time></trkpt><trkpt lat="45.7250132" lon="8.8208257"><ele>333.0</ele><time>2026-04-06T09:12:32.897Z</time></trkpt><trkpt lat="45.7250871" lon="8.8208925"><ele>333.0</ele><time>2026-04-06T09:12:33.897Z</time></trkpt><trkpt lat="45.7251699" lon="8.8209555"><ele>333.0</ele><time>2026-04-06T09:12:34.898Z</time></trkpt><trkpt lat="45.7252445" lon="8.8210266"><ele>333.0</ele><time>2026-04-06T09:12:35.897Z</time></trkpt><trkpt lat="45.725317" lon="8.8210962"><ele>333.0</ele><time>2026-04-06T09:12:36.897Z</time></trkpt><trkpt lat="45.725387" lon="8.8211604"><ele>333.0</ele><time>2026-04-06T09:12:37.897Z</time></trkpt><trkpt lat="45.7254502" lon="8.8212386"><ele>334.6666666666667</ele><time>2026-04-06T09:12:38.898Z</time></trkpt><trkpt lat="45.7255169" lon="8.821318"><ele>336.3333333333333</ele><time>2026-04-06T09:12:39.897Z</time></trkpt><trkpt lat="45.7255784" lon="8.8213913"><ele>338.0</ele><time>2026-04-06T09:12:40.898Z</time></trkpt><trkpt lat="45.7256337" lon="8.8214635"><ele>339.66666666666663</ele><time>2026-04-06T09:12:41.897Z</time></trkpt><trkpt lat="45.7256877" lon="8.8215144"><ele>341.3333333333333</ele><time>2026-04-06T09:12:42.897Z</time></trkpt><trkpt lat="45.7257698" lon="8.8215863"><ele>343.0</ele><time>2026-04-06T09:12:44.898Z</time></trkpt><trkpt lat="45.7258257" lon="8.8216359"><ele>343.0</ele><time>2026-04-06T09:12:47.898Z</time></trkpt><trkpt lat="45.7258448" lon="8.8217253"><ele>343.0</ele><time>2026-04-06T09:12:51.897Z</time></trkpt><trkpt lat="45.7258455" lon="8.8218643"><ele>343.0</ele><time>2026-04-06T09:12:54.897Z</time></trkpt><trkpt lat="45.7258897" lon="8.8219875"><ele>343.0</ele><time>2026-04-06T09:12:55.898Z</time></trkpt><trkpt lat="45.7259194" lon="8.8220761"><ele>343.0</ele><time>2026-04-06T09:12:56.898Z</time></trkpt><trkpt lat="45.7259552" lon="8.8221817"><ele>343.0</ele><time>2026-04-06T09:12:57.897Z</time></trkpt><trkpt lat="45.7259799" lon="8.8222733"><ele>342.79999999999995</ele><time>2026-04-06T09:12:58.897Z</time></trkpt><trkpt lat="45.7260239" lon="8.8224263"><ele>342.6</ele><time>2026-04-06T09:13:00.897Z</time></trkpt><trkpt lat="45.7261395" lon="8.8225035"><ele>342.4</ele><time>2026-04-06T09:13:02.898Z</time></trkpt><trkpt lat="45.7262088" lon="8.822552"><ele>342.20000000000005</ele><time>2026-04-06T09:13:03.897Z</time></trkpt><trkpt lat="45.7263093" lon="8.8226032"><ele>342.0</ele><time>2026-04-06T09:13:04.898Z</time></trkpt><trkpt lat="45.7264029" lon="8.8226695"><ele>341.0</ele><time>2026-04-06T09:13:05.897Z</time></trkpt><trkpt lat="45.7265026" lon="8.8227368"><ele>340.0</ele><time>2026-04-06T09:13:06.897Z</time></trkpt><trkpt lat="45.7266135" lon="8.8228181"><ele>339.0</ele><time>2026-04-06T09:13:07.897Z</time></trkpt><trkpt lat="45.7267548" lon="8.8229164"><ele>338.0</ele><time>2026-04-06T09:13:08.897Z</time></trkpt><trkpt lat="45.7268842" lon="8.8230203"><ele>338.0</ele><time>2026-04-06T09:13:09.898Z</time></trkpt><trkpt lat="45.7270047" lon="8.8231038"><ele>338.0</ele><time>2026-04-06T09:13:10.897Z</time></trkpt><trkpt lat="45.7271316" lon="8.8231753"><ele>338.0</ele><time>2026-04-06T09:13:11.898Z</time></trkpt><trkpt lat="45.7272488" lon="8.8232396"><ele>338.0</ele><time>2026-04-06T09:13:12.896Z</time></trkpt><trkpt lat="45.7273576" lon="8.8232945"><ele>338.0</ele><time>2026-04-06T09:13:13.898Z</time></trkpt><trkpt lat="45.7274569" lon="8.8233516"><ele>338.0</ele><time>2026-04-06T09:13:14.896Z</time></trkpt><trkpt lat="45.7275387" lon="8.823428"><ele>338.0</ele><time>2026-04-06T09:13:15.898Z</time></trkpt><trkpt lat="45.7276183" lon="8.8235182"><ele>338.0</ele><time>2026-04-06T09:13:16.898Z</time></trkpt><trkpt lat="45.7276748" lon="8.8236168"><ele>338.0</ele><time>2026-04-06T09:13:17.897Z</time></trkpt><trkpt lat="45.727725" lon="8.8237065"><ele>338.4</ele><time>2026-04-06T09:13:18.897Z</time></trkpt><trkpt lat="45.7277541" lon="8.823787"><ele>338.79999999999995</ele><time>2026-04-06T09:13:19.897Z</time></trkpt><trkpt lat="45.727766" lon="8.8239204"><ele>339.2</ele><time>2026-04-06T09:13:21.898Z</time></trkpt><trkpt lat="45.7277265" lon="8.8240254"><ele>339.6</ele><time>2026-04-06T09:13:22.897Z</time></trkpt><trkpt lat="45.7276705" lon="8.8241388"><ele>340.0</ele><time>2026-04-06T09:13:23.897Z</time></trkpt><trkpt lat="45.7276095" lon="8.8242842"><ele>341.3333333333333</ele><time>2026-04-06T09:13:24.895Z</time></trkpt><trkpt lat="45.7275381" lon="8.8244601"><ele>342.6666666666667</ele><time>2026-04-06T09:13:25.897Z</time></trkpt><trkpt lat="45.7274698" lon="8.8246805"><ele>344.0</ele><time>2026-04-06T09:13:26.897Z</time></trkpt><trkpt lat="45.7274064" lon="8.8248684"><ele>344.0</ele><time>2026-04-06T09:13:27.898Z</time></trkpt><trkpt lat="45.7273484" lon="8.8250451"><ele>344.0</ele><time>2026-04-06T09:13:28.897Z</time></trkpt><trkpt lat="45.7273087" lon="8.825168"><ele>348.0</ele><time>2026-04-06T09:13:29.898Z</time></trkpt><trkpt lat="45.7272773" lon="8.8252639"><ele>348.0</ele><time>2026-04-06T09:13:30.897Z</time></trkpt><trkpt lat="45.727294" lon="8.8253808"><ele>348.0</ele><time>2026-04-06T09:13:32.897Z</time></trkpt></trkseg></trk></gpx>